PWSweather.com
Personal Weather Stations
Station Observations
HVALPSUND
Hvalpsund, FarsoeDK 9640

HvalpsundFarsoeDK 9640

Lat: 56.705311, Lon: 9.203638

Elevation: 5

Station Type: Vantage Pro2

http://hvalpsundvejr.dk

High Low Average
Temperature 44.9°F7.2°F 33.7°F0.9°F 37.5°F3.1°F
Dew Point 43.3°F6.3°F 31.0°F-0.6°F 34.9°F1.6°F
Winds 19.6 mph S31.5 mph S 1.9 mph 3.1 mph 9.5 mph 15.3 mph
Wind Gusts 28.0 mph45.1 mph 4.0 mph6.4 mph 14.8 mph23.8 mph
Humidity 94% 87% 90%
Pressure 29.98 in1015.20 in 29.58 in1001.70 in -
Precipitation 17.56 in446.00 in - -
Hour Temp Dew Point Humidity Winds Wind Gusts Pressure Precip Precip Rate Daily Precip Total
12:00 AM 34.4°F1.3°C 31.2°F-0.4°C 88% 4.8 mph SE7.7 kmh SE 8.0 mph12.9 kmh 29.91 in1012.9 mb 0.00 in0.0 mm 0.00 in0.0 mm 0.00 in0.0 mm
12:01 AM 34.4°F1.3°C 31.2°F-0.4°C 88% 4.9 mph SE7.9 kmh SE 7.0 mph11.3 kmh 29.91 in1012.9 mb 0.00 in0.0 mm 0.00 in0.0 mm 0.00 in0.0 mm
12:02 AM 34.4°F1.3°C 31.2°F-0.4°C 88% 4.7 mph SE7.6 kmh SE 8.0 mph12.9 kmh 29.91 in1012.9 mb 0.00 in0.0 mm 0.00 in0.0 mm 0.00 in0.0 mm
12:03 AM 34.4°F1.3°C 31.2°F-0.4°C 88% 5.8 mph SE9.3 kmh SE 8.0 mph12.9 kmh 29.91 in1012.9 mb 0.00 in0.0 mm 0.00 in0.0 mm 0.00 in0.0 mm
12:04 AM 34.4°F1.3°C 31.2°F-0.4°C 88% 5.8 mph SE9.3 kmh SE 8.0 mph12.9 kmh 29.91 in1012.9 mb 0.00 in0.0 mm 0.00 in0.0 mm 0.00 in0.0 mm
12:05 AM 34.4°F1.3°C 31.2°F-0.4°C 88% 4.6 mph SE7.4 kmh SE 8.0 mph12.9 kmh 29.91 in1012.9 mb 0.00 in0.0 mm 0.00 in0.0 mm 0.00 in0.0 mm
12:06 AM 34.4°F1.3°C 31.2°F-0.4°C 88% 4.4 mph SE7.1 kmh SE 7.0 mph11.3 kmh 29.91 in1012.9 mb 0.00 in0.0 mm 0.00 in0.0 mm 0.00 in0.0 mm
12:07 AM 34.4°F1.3°C 31.2°F-0.4°C 88% 8.0 mph SE12.9 kmh SE 10.0 mph16.1 kmh 29.91 in1012.9 mb 0.00 in0.0 mm 0.00 in0.0 mm 0.00 in0.0 mm
12:08 AM 34.4°F1.3°C 31.2°F-0.4°C 88% 6.6 mph SE10.6 kmh SE 10.0 mph16.1 kmh 29.91 in1012.9 mb 0.00 in0.0 mm 0.00 in0.0 mm 0.00 in0.0 mm
12:09 AM 34.4°F1.3°C 31.2°F-0.4°C 88% 6.9 mph SE11.1 kmh SE 10.0 mph16.1 kmh 29.91 in1012.9 mb 0.00 in0.0 mm 0.00 in0.0 mm 0.00 in0.0 mm
12:10 AM 34.4°F1.3°C 31.2°F-0.4°C 88% 6.8 mph SE10.9 kmh SE 10.0 mph16.1 kmh 29.91 in1012.9 mb 0.00 in0.0 mm 0.00 in0.0 mm 0.00 in0.0 mm
12:11 AM 34.4°F1.3°C 31.2°F-0.4°C 88% 5.1 mph SE8.2 kmh SE 9.0 mph14.5 kmh 29.91 in1012.9 mb 0.00 in0.0 mm 0.00 in0.0 mm 0.00 in0.0 mm
12:12 AM 34.4°F1.3°C 31.2°F-0.4°C 88% 3.7 mph SE6.0 kmh SE 7.0 mph11.3 kmh 29.91 in1012.9 mb 0.00 in0.0 mm 0.00 in0.0 mm 0.00 in0.0 mm
12:13 AM 34.4°F1.3°C 31.2°F-0.4°C 88% 6.9 mph SE11.1 kmh SE 9.0 mph14.5 kmh 29.91 in1012.9 mb 0.00 in0.0 mm 0.00 in0.0 mm 0.00 in0.0 mm
12:14 AM 34.5°F1.4°C 31.3°F-0.4°C 88% 5.3 mph SE8.5 kmh SE 9.0 mph14.5 kmh 29.91 in1012.9 mb 0.00 in0.0 mm 0.00 in0.0 mm 0.00 in0.0 mm
12:15 AM 34.4°F1.3°C 31.2°F-0.4°C 88% 4.2 mph SE6.8 kmh SE 7.0 mph11.3 kmh 29.91 in1012.9 mb 0.00 in0.0 mm 0.00 in0.0 mm 0.00 in0.0 mm
12:16 AM 34.4°F1.3°C 31.2°F-0.4°C 88% 6.4 mph SE10.3 kmh SE 9.0 mph14.5 kmh 29.91 in1012.9 mb 0.00 in0.0 mm 0.00 in0.0 mm 0.00 in0.0 mm
12:17 AM 34.5°F1.4°C 31.3°F-0.4°C 88% 4.7 mph SE7.6 kmh SE 9.0 mph14.5 kmh 29.91 in1012.9 mb 0.00 in0.0 mm 0.00 in0.0 mm 0.00 in0.0 mm
12:18 AM 34.4°F1.3°C 31.2°F-0.4°C 88% 4.5 mph SE7.2 kmh SE 6.0 mph9.7 kmh 29.91 in1012.9 mb 0.00 in0.0 mm 0.00 in0.0 mm 0.00 in0.0 mm
12:19 AM 34.4°F1.3°C 31.2°F-0.4°C 88% 4.6 mph SE7.4 kmh SE 7.0 mph11.3 kmh 29.91 in1012.9 mb 0.00 in0.0 mm 0.00 in0.0 mm 0.00 in0.0 mm
12:20 AM 34.4°F1.3°C 31.2°F-0.4°C 88% 5.3 mph SE8.5 kmh SE 9.0 mph14.5 kmh 29.91 in1012.9 mb 0.00 in0.0 mm 0.00 in0.0 mm 0.00 in0.0 mm
12:21 AM 34.4°F1.3°C 31.2°F-0.4°C 88% 7.0 mph SE11.3 kmh SE 9.0 mph14.5 kmh 29.91 in1012.9 mb 0.00 in0.0 mm 0.00 in0.0 mm 0.00 in0.0 mm
12:22 AM 34.4°F1.3°C 31.2°F-0.4°C 88% 5.3 mph SE8.5 kmh SE 9.0 mph14.5 kmh 29.91 in1012.9 mb 0.00 in0.0 mm 0.00 in0.0 mm 0.00 in0.0 mm
12:23 AM 34.4°F1.3°C 31.2°F-0.4°C 88% 4.5 mph SE7.2 kmh SE 7.0 mph11.3 kmh 29.92 in1013.2 mb 0.00 in0.0 mm 0.00 in0.0 mm 0.00 in0.0 mm
12:24 AM 34.4°F1.3°C 31.2°F-0.4°C 88% 4.3 mph SE6.9 kmh SE 7.0 mph11.3 kmh 29.92 in1013.2 mb 0.00 in0.0 mm 0.00 in0.0 mm 0.00 in0.0 mm
12:25 AM 34.4°F1.3°C 31.2°F-0.4°C 88% 4.0 mph SE6.4 kmh SE 5.0 mph8.0 kmh 29.92 in1013.2 mb 0.00 in0.0 mm 0.00 in0.0 mm 0.00 in0.0 mm
12:26 AM 34.4°F1.3°C 31.2°F-0.4°C 88% 3.7 mph SE6.0 kmh SE 6.0 mph9.7 kmh 29.92 in1013.2 mb 0.00 in0.0 mm 0.00 in0.0 mm 0.00 in0.0 mm
12:27 AM 34.4°F1.3°C 31.2°F-0.4°C 88% 4.6 mph SE7.4 kmh SE 7.0 mph11.3 kmh 29.92 in1013.2 mb 0.00 in0.0 mm 0.00 in0.0 mm 0.00 in0.0 mm
12:28 AM 34.4°F1.3°C 31.2°F-0.4°C 88% 3.0 mph SE4.8 kmh SE 7.0 mph11.3 kmh 29.92 in1013.2 mb 0.00 in0.0 mm 0.00 in0.0 mm 0.00 in0.0 mm
12:29 AM 34.4°F1.3°C 31.2°F-0.4°C 88% 4.0 mph SE6.4 kmh SE 7.0 mph11.3 kmh 29.92 in1013.2 mb 0.00 in0.0 mm 0.00 in0.0 mm 0.00 in0.0 mm
12:30 AM 34.4°F1.3°C 31.2°F-0.4°C 88% 3.6 mph SE5.8 kmh SE 7.0 mph11.3 kmh 29.92 in1013.2 mb 0.00 in0.0 mm 0.00 in0.0 mm 0.00 in0.0 mm
12:31 AM 34.4°F1.3°C 31.2°F-0.4°C 88% 5.7 mph SE9.2 kmh SE 7.0 mph11.3 kmh 29.92 in1013.2 mb 0.00 in0.0 mm 0.00 in0.0 mm 0.00 in0.0 mm
12:32 AM 34.4°F1.3°C 31.2°F-0.4°C 88% 4.9 mph ESE7.9 kmh ESE 7.0 mph11.3 kmh 29.92 in1013.2 mb 0.00 in0.0 mm 0.00 in0.0 mm 0.00 in0.0 mm
12:33 AM 34.3°F1.3°C 31.1°F-0.5°C 88% 5.8 mph SE9.3 kmh SE 8.0 mph12.9 kmh 29.92 in1013.2 mb 0.00 in0.0 mm 0.00 in0.0 mm 0.00 in0.0 mm
12:34 AM 34.3°F1.3°C 31.1°F-0.5°C 88% 7.0 mph ESE11.3 kmh ESE 9.0 mph14.5 kmh 29.91 in1012.9 mb 0.00 in0.0 mm 0.00 in0.0 mm 0.00 in0.0 mm
12:35 AM 34.3°F1.3°C 31.1°F-0.5°C 88% 5.7 mph ESE9.2 kmh ESE 9.0 mph14.5 kmh 29.91 in1012.9 mb 0.00 in0.0 mm 0.00 in0.0 mm 0.00 in0.0 mm
12:36 AM 34.3°F1.3°C 31.1°F-0.5°C 88% 4.8 mph ESE7.7 kmh ESE 8.0 mph12.9 kmh 29.91 in1012.9 mb 0.00 in0.0 mm 0.00 in0.0 mm 0.00 in0.0 mm
12:37 AM 34.3°F1.3°C 31.1°F-0.5°C 88% 6.6 mph ESE10.6 kmh ESE 10.0 mph16.1 kmh 29.91 in1012.9 mb 0.00 in0.0 mm 0.00 in0.0 mm 0.00 in0.0 mm
12:38 AM 34.3°F1.3°C 31.1°F-0.5°C 88% 5.0 mph ESE8.0 kmh ESE 10.0 mph16.1 kmh 29.91 in1012.9 mb 0.00 in0.0 mm 0.00 in0.0 mm 0.00 in0.0 mm
12:39 AM 34.3°F1.3°C 31.1°F-0.5°C 88% 5.8 mph E9.3 kmh E 8.0 mph12.9 kmh 29.92 in1013.2 mb 0.00 in0.0 mm 0.00 in0.0 mm 0.00 in0.0 mm
12:40 AM 34.3°F1.3°C 31.1°F-0.5°C 88% 5.6 mph ESE9.0 kmh ESE 8.0 mph12.9 kmh 29.92 in1013.2 mb 0.00 in0.0 mm 0.00 in0.0 mm 0.00 in0.0 mm
12:41 AM 34.3°F1.3°C 31.1°F-0.5°C 88% 4.3 mph ESE6.9 kmh ESE 8.0 mph12.9 kmh 29.92 in1013.2 mb 0.00 in0.0 mm 0.00 in0.0 mm 0.00 in0.0 mm
12:42 AM 34.2°F1.2°C 31.0°F-0.6°C 88% 4.1 mph SE6.6 kmh SE 7.0 mph11.3 kmh 29.92 in1013.2 mb 0.00 in0.0 mm 0.00 in0.0 mm 0.00 in0.0 mm
12:43 AM 34.2°F1.2°C 31.0°F-0.6°C 88% 3.7 mph SE6.0 kmh SE 7.0 mph11.3 kmh 29.92 in1013.2 mb 0.00 in0.0 mm 0.00 in0.0 mm 0.00 in0.0 mm
12:44 AM 34.2°F1.2°C 31.0°F-0.6°C 88% 5.5 mph SE8.9 kmh SE 8.0 mph12.9 kmh 29.92 in1013.2 mb 0.00 in0.0 mm 0.00 in0.0 mm 0.00 in0.0 mm
12:45 AM 34.2°F1.2°C 31.0°F-0.6°C 88% 4.2 mph SE6.8 kmh SE 8.0 mph12.9 kmh 29.92 in1013.2 mb 0.00 in0.0 mm 0.00 in0.0 mm 0.00 in0.0 mm
12:46 AM 34.3°F1.3°C 31.1°F-0.5°C 88% 4.0 mph ESE6.4 kmh ESE 7.0 mph11.3 kmh 29.92 in1013.2 mb 0.00 in0.0 mm 0.00 in0.0 mm 0.00 in0.0 mm
12:47 AM 34.3°F1.3°C 31.1°F-0.5°C 88% 3.8 mph ESE6.1 kmh ESE 7.0 mph11.3 kmh 29.92 in1013.2 mb 0.00 in0.0 mm 0.00 in0.0 mm 0.00 in0.0 mm
12:48 AM 34.3°F1.3°C 31.1°F-0.5°C 88% 4.3 mph ESE6.9 kmh ESE 7.0 mph11.3 kmh 29.92 in1013.2 mb 0.00 in0.0 mm 0.00 in0.0 mm 0.00 in0.0 mm
12:49 AM 34.2°F1.2°C 31.0°F-0.6°C 88% 3.3 mph SE5.3 kmh SE 7.0 mph11.3 kmh 29.93 in1013.5 mb 0.00 in0.0 mm 0.00 in0.0 mm 0.00 in0.0 mm
12:50 AM 34.3°F1.3°C 31.1°F-0.5°C 88% 3.5 mph SE5.6 kmh SE 6.0 mph9.7 kmh 29.93 in1013.5 mb 0.00 in0.0 mm 0.00 in0.0 mm 0.00 in0.0 mm
12:51 AM 34.3°F1.3°C 31.1°F-0.5°C 88% 4.2 mph SE6.8 kmh SE 6.0 mph9.7 kmh 29.93 in1013.5 mb 0.00 in0.0 mm 0.00 in0.0 mm 0.00 in0.0 mm
12:52 AM 34.3°F1.3°C 31.1°F-0.5°C 88% 3.1 mph SE5.0 kmh SE 6.0 mph9.7 kmh 29.93 in1013.5 mb 0.00 in0.0 mm 0.00 in0.0 mm 0.00 in0.0 mm
12:53 AM 34.2°F1.2°C 31.0°F-0.6°C 88% 4.0 mph SE6.4 kmh SE 7.0 mph11.3 kmh 29.93 in1013.5 mb 0.00 in0.0 mm 0.00 in0.0 mm 0.00 in0.0 mm
12:54 AM 34.3°F1.3°C 31.4°F-0.3°C 89% 5.8 mph SE9.3 kmh SE 8.0 mph12.9 kmh 29.93 in1013.5 mb 0.00 in0.0 mm 0.00 in0.0 mm 0.00 in0.0 mm
12:55 AM 34.3°F1.3°C 31.4°F-0.3°C 89% 5.2 mph SE8.4 kmh SE 8.0 mph12.9 kmh 29.93 in1013.5 mb 0.00 in0.0 mm 0.00 in0.0 mm 0.00 in0.0 mm
12:56 AM 34.3°F1.3°C 31.4°F-0.3°C 89% 5.0 mph SE8.0 kmh SE 8.0 mph12.9 kmh 29.93 in1013.5 mb 0.00 in0.0 mm 0.00 in0.0 mm 0.00 in0.0 mm
12:57 AM 34.3°F1.3°C 31.4°F-0.3°C 89% 4.9 mph SE7.9 kmh SE 9.0 mph14.5 kmh 29.93 in1013.5 mb 0.00 in0.0 mm 0.00 in0.0 mm 0.00 in0.0 mm
12:58 AM 34.3°F1.3°C 31.4°F-0.3°C 89% 3.9 mph SE6.3 kmh SE 9.0 mph14.5 kmh 29.93 in1013.5 mb 0.00 in0.0 mm 0.00 in0.0 mm 0.00 in0.0 mm
12:59 AM 34.3°F1.3°C 31.4°F-0.3°C 89% 4.4 mph SE7.1 kmh SE 7.0 mph11.3 kmh 29.93 in1013.5 mb 0.00 in0.0 mm 0.00 in0.0 mm 0.00 in0.0 mm
01:00 AM 34.3°F1.3°C 31.4°F-0.3°C 89% 4.0 mph SE6.4 kmh SE 7.0 mph11.3 kmh 29.93 in1013.5 mb 0.00 in0.0 mm 0.00 in0.0 mm 0.00 in0.0 mm
01:01 AM 34.3°F1.3°C 31.4°F-0.3°C 89% 4.5 mph SE7.2 kmh SE 7.0 mph11.3 kmh 29.94 in1013.9 mb 0.00 in0.0 mm 0.00 in0.0 mm 0.00 in0.0 mm
01:02 AM 34.3°F1.3°C 31.4°F-0.3°C 89% 2.5 mph SE4.0 kmh SE 7.0 mph11.3 kmh 29.94 in1013.9 mb 0.00 in0.0 mm 0.00 in0.0 mm 0.00 in0.0 mm
01:03 AM 34.3°F1.3°C 31.4°F-0.3°C 89% 4.2 mph SE6.8 kmh SE 6.0 mph9.7 kmh 29.94 in1013.9 mb 0.00 in0.0 mm 0.00 in0.0 mm 0.00 in0.0 mm
01:04 AM 34.3°F1.3°C 31.4°F-0.3°C 89% 3.9 mph SE6.3 kmh SE 6.0 mph9.7 kmh 29.94 in1013.9 mb 0.00 in0.0 mm 0.00 in0.0 mm 0.00 in0.0 mm
01:05 AM 34.3°F1.3°C 31.4°F-0.3°C 89% 4.3 mph SE6.9 kmh SE 6.0 mph9.7 kmh 29.94 in1013.9 mb 0.00 in0.0 mm 0.00 in0.0 mm 0.00 in0.0 mm
01:06 AM 34.3°F1.3°C 31.4°F-0.3°C 89% 4.0 mph SE6.4 kmh SE 6.0 mph9.7 kmh 29.94 in1013.9 mb 0.00 in0.0 mm 0.00 in0.0 mm 0.00 in0.0 mm
01:07 AM 34.3°F1.3°C 31.4°F-0.3°C 89% 4.4 mph SE7.1 kmh SE 7.0 mph11.3 kmh 29.93 in1013.5 mb 0.00 in0.0 mm 0.00 in0.0 mm 0.00 in0.0 mm
01:08 AM 34.3°F1.3°C 31.4°F-0.3°C 89% 4.3 mph SE6.9 kmh SE 7.0 mph11.3 kmh 29.94 in1013.9 mb 0.00 in0.0 mm 0.00 in0.0 mm 0.00 in0.0 mm
01:09 AM 34.3°F1.3°C 31.4°F-0.3°C 89% 5.0 mph SE8.0 kmh SE 7.0 mph11.3 kmh 29.93 in1013.5 mb 0.00 in0.0 mm 0.00 in0.0 mm 0.00 in0.0 mm
01:10 AM 34.2°F1.2°C 31.3°F-0.4°C 89% 4.2 mph ESE6.8 kmh ESE 7.0 mph11.3 kmh 29.93 in1013.5 mb 0.00 in0.0 mm 0.00 in0.0 mm 0.00 in0.0 mm
01:11 AM 34.3°F1.3°C 31.4°F-0.3°C 89% 4.7 mph SE7.6 kmh SE 8.0 mph12.9 kmh 29.93 in1013.5 mb 0.00 in0.0 mm 0.00 in0.0 mm 0.00 in0.0 mm
01:12 AM 34.3°F1.3°C 31.4°F-0.3°C 89% 4.2 mph SE6.8 kmh SE 8.0 mph12.9 kmh 29.94 in1013.9 mb 0.00 in0.0 mm 0.00 in0.0 mm 0.00 in0.0 mm
01:13 AM 34.2°F1.2°C 31.3°F-0.4°C 89% 3.9 mph SE6.3 kmh SE 7.0 mph11.3 kmh 29.94 in1013.9 mb 0.00 in0.0 mm 0.00 in0.0 mm 0.00 in0.0 mm
01:14 AM 34.3°F1.3°C 31.4°F-0.3°C 89% 4.5 mph SE7.2 kmh SE 7.0 mph11.3 kmh 29.94 in1013.9 mb 0.00 in0.0 mm 0.00 in0.0 mm 0.00 in0.0 mm
01:15 AM 34.2°F1.2°C 31.3°F-0.4°C 89% 2.5 mph SE4.0 kmh SE 7.0 mph11.3 kmh 29.94 in1013.9 mb 0.00 in0.0 mm 0.00 in0.0 mm 0.00 in0.0 mm
01:16 AM 34.2°F1.2°C 31.3°F-0.4°C 89% 3.0 mph ESE4.8 kmh ESE 4.0 mph6.4 kmh 29.94 in1013.9 mb 0.00 in0.0 mm 0.00 in0.0 mm 0.00 in0.0 mm
01:17 AM 34.2°F1.2°C 31.3°F-0.4°C 89% 2.6 mph SE4.2 kmh SE 4.0 mph6.4 kmh 29.94 in1013.9 mb 0.00 in0.0 mm 0.00 in0.0 mm 0.00 in0.0 mm
01:18 AM 34.3°F1.3°C 31.4°F-0.3°C 89% 3.5 mph ESE5.6 kmh ESE 6.0 mph9.7 kmh 29.94 in1013.9 mb 0.00 in0.0 mm 0.00 in0.0 mm 0.00 in0.0 mm
01:19 AM 34.2°F1.2°C 31.3°F-0.4°C 89% 2.7 mph ESE4.3 kmh ESE 6.0 mph9.7 kmh 29.94 in1013.9 mb 0.00 in0.0 mm 0.00 in0.0 mm 0.00 in0.0 mm
01:20 AM 34.2°F1.2°C 31.3°F-0.4°C 89% 3.5 mph ESE5.6 kmh ESE 7.0 mph11.3 kmh 29.94 in1013.9 mb 0.00 in0.0 mm 0.00 in0.0 mm 0.00 in0.0 mm
01:21 AM 34.2°F1.2°C 31.3°F-0.4°C 89% 3.9 mph ESE6.3 kmh ESE 7.0 mph11.3 kmh 29.94 in1013.9 mb 0.00 in0.0 mm 0.00 in0.0 mm 0.00 in0.0 mm
01:22 AM 34.3°F1.3°C 31.4°F-0.3°C 89% 5.8 mph ESE9.3 kmh ESE 8.0 mph12.9 kmh 29.94 in1013.9 mb 0.00 in0.0 mm 0.00 in0.0 mm 0.00 in0.0 mm
01:23 AM 34.2°F1.2°C 31.3°F-0.4°C 89% 6.2 mph ESE10.0 kmh ESE 8.0 mph12.9 kmh 29.94 in1013.9 mb 0.00 in0.0 mm 0.00 in0.0 mm 0.00 in0.0 mm
01:24 AM 34.2°F1.2°C 31.3°F-0.4°C 89% 6.4 mph ESE10.3 kmh ESE 9.0 mph14.5 kmh 29.94 in1013.9 mb 0.00 in0.0 mm 0.00 in0.0 mm 0.00 in0.0 mm
01:25 AM 34.2°F1.2°C 31.3°F-0.4°C 89% 6.4 mph SE10.3 kmh SE 9.0 mph14.5 kmh 29.94 in1013.9 mb 0.00 in0.0 mm 0.00 in0.0 mm 0.00 in0.0 mm
01:26 AM 34.2°F1.2°C 31.3°F-0.4°C 89% 5.8 mph SE9.3 kmh SE 8.0 mph12.9 kmh 29.94 in1013.9 mb 0.00 in0.0 mm 0.00 in0.0 mm 0.00 in0.0 mm
01:27 AM 34.2°F1.2°C 31.3°F-0.4°C 89% 5.8 mph SE9.3 kmh SE 8.0 mph12.9 kmh 29.93 in1013.5 mb 0.00 in0.0 mm 0.00 in0.0 mm 0.00 in0.0 mm
01:28 AM 34.3°F1.3°C 31.4°F-0.3°C 89% 5.6 mph SE9.0 kmh SE 8.0 mph12.9 kmh 29.93 in1013.5 mb 0.00 in0.0 mm 0.00 in0.0 mm 0.00 in0.0 mm
01:29 AM 34.2°F1.2°C 31.3°F-0.4°C 89% 6.8 mph SE10.9 kmh SE 9.0 mph14.5 kmh 29.93 in1013.5 mb 0.00 in0.0 mm 0.00 in0.0 mm 0.00 in0.0 mm
01:30 AM 34.2°F1.2°C 31.3°F-0.4°C 89% 8.0 mph SE12.9 kmh SE 10.0 mph16.1 kmh 29.93 in1013.5 mb 0.00 in0.0 mm 0.00 in0.0 mm 0.00 in0.0 mm
01:31 AM 34.2°F1.2°C 31.3°F-0.4°C 89% 6.5 mph SE10.5 kmh SE 10.0 mph16.1 kmh 29.93 in1013.5 mb 0.00 in0.0 mm 0.00 in0.0 mm 0.00 in0.0 mm
01:32 AM 34.2°F1.2°C 31.3°F-0.4°C 89% 5.7 mph ESE9.2 kmh ESE 8.0 mph12.9 kmh 29.93 in1013.5 mb 0.00 in0.0 mm 0.00 in0.0 mm 0.00 in0.0 mm
01:33 AM 34.2°F1.2°C 31.3°F-0.4°C 89% 4.8 mph SE7.7 kmh SE 7.0 mph11.3 kmh 29.93 in1013.5 mb 0.00 in0.0 mm 0.00 in0.0 mm 0.00 in0.0 mm
01:34 AM 34.2°F1.2°C 31.3°F-0.4°C 89% 5.3 mph ESE8.5 kmh ESE 7.0 mph11.3 kmh 29.93 in1013.5 mb 0.00 in0.0 mm 0.00 in0.0 mm 0.00 in0.0 mm
01:35 AM 34.2°F1.2°C 31.3°F-0.4°C 89% 6.3 mph SE10.1 kmh SE 9.0 mph14.5 kmh 29.93 in1013.5 mb 0.00 in0.0 mm 0.00 in0.0 mm 0.00 in0.0 mm
01:36 AM 34.2°F1.2°C 31.3°F-0.4°C 89% 6.0 mph ESE9.7 kmh ESE 9.0 mph14.5 kmh 29.93 in1013.5 mb 0.00 in0.0 mm 0.00 in0.0 mm 0.00 in0.0 mm
01:37 AM 34.2°F1.2°C 31.3°F-0.4°C 89% 5.7 mph SE9.2 kmh SE 8.0 mph12.9 kmh 29.93 in1013.5 mb 0.00 in0.0 mm 0.00 in0.0 mm 0.00 in0.0 mm
01:38 AM 34.2°F1.2°C 31.3°F-0.4°C 89% 3.8 mph SE6.1 kmh SE 8.0 mph12.9 kmh 29.93 in1013.5 mb 0.00 in0.0 mm 0.00 in0.0 mm 0.00 in0.0 mm
01:39 AM 34.2°F1.2°C 31.3°F-0.4°C 89% 4.1 mph ESE6.6 kmh ESE 7.0 mph11.3 kmh 29.94 in1013.9 mb 0.00 in0.0 mm 0.00 in0.0 mm 0.00 in0.0 mm
01:40 AM 34.2°F1.2°C 31.3°F-0.4°C 89% 5.1 mph SE8.2 kmh SE 8.0 mph12.9 kmh 29.93 in1013.5 mb 0.00 in0.0 mm 0.00 in0.0 mm 0.00 in0.0 mm
01:41 AM 34.2°F1.2°C 31.3°F-0.4°C 89% 4.6 mph ESE7.4 kmh ESE 8.0 mph12.9 kmh 29.93 in1013.5 mb 0.00 in0.0 mm 0.00 in0.0 mm 0.00 in0.0 mm
01:42 AM 34.2°F1.2°C 31.3°F-0.4°C 89% 3.8 mph SE6.1 kmh SE 7.0 mph11.3 kmh 29.93 in1013.5 mb 0.00 in0.0 mm 0.00 in0.0 mm 0.00 in0.0 mm
01:43 AM 34.2°F1.2°C 31.3°F-0.4°C 89% 4.0 mph ESE6.4 kmh ESE 7.0 mph11.3 kmh 29.93 in1013.5 mb 0.00 in0.0 mm 0.00 in0.0 mm 0.00 in0.0 mm
01:44 AM 34.2°F1.2°C 31.3°F-0.4°C 89% 3.3 mph SE5.3 kmh SE 7.0 mph11.3 kmh 29.94 in1013.9 mb 0.00 in0.0 mm 0.00 in0.0 mm 0.00 in0.0 mm
01:45 AM 34.2°F1.2°C 31.3°F-0.4°C 89% 6.4 mph SE10.3 kmh SE 8.0 mph12.9 kmh 29.94 in1013.9 mb 0.00 in0.0 mm 0.00 in0.0 mm 0.00 in0.0 mm
01:46 AM 34.2°F1.2°C 31.3°F-0.4°C 89% 5.5 mph SE8.9 kmh SE 8.0 mph12.9 kmh 29.94 in1013.9 mb 0.00 in0.0 mm 0.00 in0.0 mm 0.00 in0.0 mm
01:47 AM 34.2°F1.2°C 31.6°F-0.2°C 90% 4.7 mph SE7.6 kmh SE 7.0 mph11.3 kmh 29.94 in1013.9 mb 0.00 in0.0 mm 0.00 in0.0 mm 0.00 in0.0 mm
01:48 AM 34.2°F1.2°C 31.3°F-0.4°C 89% 4.3 mph SE6.9 kmh SE 7.0 mph11.3 kmh 29.94 in1013.9 mb 0.00 in0.0 mm 0.00 in0.0 mm 0.00 in0.0 mm
01:49 AM 34.1°F1.2°C 31.2°F-0.4°C 89% 5.5 mph SE8.9 kmh SE 7.0 mph11.3 kmh 29.94 in1013.9 mb 0.00 in0.0 mm 0.00 in0.0 mm 0.00 in0.0 mm
01:50 AM 34.2°F1.2°C 31.6°F-0.2°C 90% 4.5 mph SE7.2 kmh SE 7.0 mph11.3 kmh 29.94 in1013.9 mb 0.00 in0.0 mm 0.00 in0.0 mm 0.00 in0.0 mm
01:51 AM 34.2°F1.2°C 31.6°F-0.2°C 90% 6.4 mph SE10.3 kmh SE 8.0 mph12.9 kmh 29.94 in1013.9 mb 0.00 in0.0 mm 0.00 in0.0 mm 0.00 in0.0 mm
01:52 AM 34.2°F1.2°C 31.3°F-0.4°C 89% 5.4 mph SE8.7 kmh SE 8.0 mph12.9 kmh 29.94 in1013.9 mb 0.00 in0.0 mm 0.00 in0.0 mm 0.00 in0.0 mm
01:53 AM 34.1°F1.2°C 31.5°F-0.3°C 90% 3.8 mph SE6.1 kmh SE 7.0 mph11.3 kmh 29.94 in1013.9 mb 0.00 in0.0 mm 0.00 in0.0 mm 0.00 in0.0 mm
01:54 AM 34.1°F1.2°C 31.5°F-0.3°C 90% 4.3 mph SE6.9 kmh SE 6.0 mph9.7 kmh 29.94 in1013.9 mb 0.00 in0.0 mm 0.00 in0.0 mm 0.00 in0.0 mm
01:55 AM 34.2°F1.2°C 31.6°F-0.2°C 90% 3.4 mph SE5.5 kmh SE 6.0 mph9.7 kmh 29.95 in1014.2 mb 0.00 in0.0 mm 0.00 in0.0 mm 0.00 in0.0 mm
01:56 AM 34.1°F1.2°C 31.5°F-0.3°C 90% 3.1 mph SE5.0 kmh SE 4.0 mph6.4 kmh 29.95 in1014.2 mb 0.00 in0.0 mm 0.00 in0.0 mm 0.00 in0.0 mm
01:57 AM 34.2°F1.2°C 31.6°F-0.2°C 90% 2.5 mph SE4.0 kmh SE 4.0 mph6.4 kmh 29.95 in1014.2 mb 0.00 in0.0 mm 0.00 in0.0 mm 0.00 in0.0 mm
01:58 AM 34.1°F1.2°C 31.5°F-0.3°C 90% 5.1 mph SE8.2 kmh SE 8.0 mph12.9 kmh 29.95 in1014.2 mb 0.00 in0.0 mm 0.00 in0.0 mm 0.00 in0.0 mm
01:59 AM 34.2°F1.2°C 31.6°F-0.2°C 90% 4.7 mph SE7.6 kmh SE 8.0 mph12.9 kmh 29.95 in1014.2 mb 0.00 in0.0 mm 0.00 in0.0 mm 0.00 in0.0 mm
02:00 AM 34.2°F1.2°C 31.6°F-0.2°C 90% 3.9 mph SE6.3 kmh SE 8.0 mph12.9 kmh 29.95 in1014.2 mb 0.00 in0.0 mm 0.00 in0.0 mm 0.00 in0.0 mm
02:01 AM 34.2°F1.2°C 31.6°F-0.2°C 90% 4.8 mph SE7.7 kmh SE 7.0 mph11.3 kmh 29.95 in1014.2 mb 0.00 in0.0 mm 0.00 in0.0 mm 0.00 in0.0 mm
02:02 AM 34.1°F1.2°C 31.5°F-0.3°C 90% 4.0 mph SE6.4 kmh SE 7.0 mph11.3 kmh 29.95 in1014.2 mb 0.00 in0.0 mm 0.00 in0.0 mm 0.00 in0.0 mm
02:03 AM 34.2°F1.2°C 31.6°F-0.2°C 90% 3.4 mph SE5.5 kmh SE 5.0 mph8.0 kmh 29.95 in1014.2 mb 0.00 in0.0 mm 0.00 in0.0 mm 0.00 in0.0 mm
02:04 AM 34.1°F1.2°C 31.5°F-0.3°C 90% 4.5 mph SE7.2 kmh SE 6.0 mph9.7 kmh 29.95 in1014.2 mb 0.00 in0.0 mm 0.00 in0.0 mm 0.00 in0.0 mm
02:05 AM 34.2°F1.2°C 31.6°F-0.2°C 90% 4.0 mph SE6.4 kmh SE 6.0 mph9.7 kmh 29.95 in1014.2 mb 0.00 in0.0 mm 0.00 in0.0 mm 0.00 in0.0 mm
02:06 AM 34.2°F1.2°C 31.6°F-0.2°C 90% 4.2 mph SE6.8 kmh SE 7.0 mph11.3 kmh 29.95 in1014.2 mb 0.00 in0.0 mm 0.00 in0.0 mm 0.00 in0.0 mm
02:07 AM 34.2°F1.2°C 31.6°F-0.2°C 90% 4.6 mph SE7.4 kmh SE 7.0 mph11.3 kmh 29.95 in1014.2 mb 0.00 in0.0 mm 0.00 in0.0 mm 0.00 in0.0 mm
02:08 AM 34.2°F1.2°C 31.6°F-0.2°C 90% 3.9 mph SE6.3 kmh SE 7.0 mph11.3 kmh 29.95 in1014.2 mb 0.00 in0.0 mm 0.00 in0.0 mm 0.00 in0.0 mm
02:09 AM 34.2°F1.2°C 31.6°F-0.2°C 90% 3.4 mph SE5.5 kmh SE 5.0 mph8.0 kmh 29.95 in1014.2 mb 0.00 in0.0 mm 0.00 in0.0 mm 0.00 in0.0 mm
02:10 AM 34.1°F1.2°C 31.5°F-0.3°C 90% 3.6 mph SE5.8 kmh SE 6.0 mph9.7 kmh 29.95 in1014.2 mb 0.00 in0.0 mm 0.00 in0.0 mm 0.00 in0.0 mm
02:11 AM 34.1°F1.2°C 31.5°F-0.3°C 90% 2.8 mph SE4.5 kmh SE 6.0 mph9.7 kmh 29.95 in1014.2 mb 0.00 in0.0 mm 0.00 in0.0 mm 0.00 in0.0 mm
02:12 AM 34.1°F1.2°C 31.5°F-0.3°C 90% 2.7 mph SE4.3 kmh SE 5.0 mph8.0 kmh 29.95 in1014.2 mb 0.00 in0.0 mm 0.00 in0.0 mm 0.00 in0.0 mm
02:13 AM 34.1°F1.2°C 31.5°F-0.3°C 90% 3.3 mph SSE5.3 kmh SSE 5.0 mph8.0 kmh 29.95 in1014.2 mb 0.00 in0.0 mm 0.00 in0.0 mm 0.00 in0.0 mm
02:14 AM 34.1°F1.2°C 31.5°F-0.3°C 90% 3.4 mph SSE5.5 kmh SSE 5.0 mph8.0 kmh 29.95 in1014.2 mb 0.00 in0.0 mm 0.00 in0.0 mm 0.00 in0.0 mm
02:15 AM 34.2°F1.2°C 31.6°F-0.2°C 90% 4.0 mph SSE6.4 kmh SSE 6.0 mph9.7 kmh 29.95 in1014.2 mb 0.00 in0.0 mm 0.00 in0.0 mm 0.00 in0.0 mm
02:16 AM 34.2°F1.2°C 31.6°F-0.2°C 90% 4.5 mph SE7.2 kmh SE 7.0 mph11.3 kmh 29.95 in1014.2 mb 0.00 in0.0 mm 0.00 in0.0 mm 0.00 in0.0 mm
02:17 AM 34.2°F1.2°C 31.6°F-0.2°C 90% 5.2 mph SSE8.4 kmh SSE 7.0 mph11.3 kmh 29.95 in1014.2 mb 0.00 in0.0 mm 0.00 in0.0 mm 0.00 in0.0 mm
02:18 AM 34.2°F1.2°C 31.6°F-0.2°C 90% 4.3 mph SSE6.9 kmh SSE 7.0 mph11.3 kmh 29.95 in1014.2 mb 0.00 in0.0 mm 0.00 in0.0 mm 0.00 in0.0 mm
02:19 AM 34.1°F1.2°C 31.5°F-0.3°C 90% 4.4 mph SSE7.1 kmh SSE 7.0 mph11.3 kmh 29.95 in1014.2 mb 0.00 in0.0 mm 0.00 in0.0 mm 0.00 in0.0 mm
02:20 AM 34.2°F1.2°C 31.6°F-0.2°C 90% 4.1 mph SSE6.6 kmh SSE 7.0 mph11.3 kmh 29.95 in1014.2 mb 0.00 in0.0 mm 0.00 in0.0 mm 0.00 in0.0 mm
02:21 AM 34.2°F1.2°C 31.6°F-0.2°C 90% 3.9 mph SSE6.3 kmh SSE 7.0 mph11.3 kmh 29.95 in1014.2 mb 0.00 in0.0 mm 0.00 in0.0 mm 0.00 in0.0 mm
02:22 AM 34.1°F1.2°C 31.5°F-0.3°C 90% 4.5 mph SSE7.2 kmh SSE 6.0 mph9.7 kmh 29.95 in1014.2 mb 0.00 in0.0 mm 0.00 in0.0 mm 0.00 in0.0 mm
02:23 AM 34.2°F1.2°C 31.6°F-0.2°C 90% 4.0 mph SSE6.4 kmh SSE 6.0 mph9.7 kmh 29.95 in1014.2 mb 0.00 in0.0 mm 0.00 in0.0 mm 0.00 in0.0 mm
02:24 AM 34.2°F1.2°C 31.6°F-0.2°C 90% 3.7 mph S6.0 kmh S 7.0 mph11.3 kmh 29.95 in1014.2 mb 0.00 in0.0 mm 0.00 in0.0 mm 0.00 in0.0 mm
02:25 AM 34.2°F1.2°C 31.6°F-0.2°C 90% 3.5 mph SSE5.6 kmh SSE 7.0 mph11.3 kmh 29.95 in1014.2 mb 0.00 in0.0 mm 0.00 in0.0 mm 0.00 in0.0 mm
02:26 AM 34.2°F1.2°C 31.6°F-0.2°C 90% 5.2 mph SSE8.4 kmh SSE 7.0 mph11.3 kmh 29.95 in1014.2 mb 0.00 in0.0 mm 0.00 in0.0 mm 0.00 in0.0 mm
02:27 AM 34.2°F1.2°C 31.6°F-0.2°C 90% 4.1 mph SSE6.6 kmh SSE 7.0 mph11.3 kmh 29.95 in1014.2 mb 0.00 in0.0 mm 0.00 in0.0 mm 0.00 in0.0 mm
02:28 AM 34.2°F1.2°C 31.6°F-0.2°C 90% 4.3 mph SE6.9 kmh SE 6.0 mph9.7 kmh 29.95 in1014.2 mb 0.00 in0.0 mm 0.00 in0.0 mm 0.00 in0.0 mm
02:29 AM 34.2°F1.2°C 31.6°F-0.2°C 90% 3.8 mph SE6.1 kmh SE 6.0 mph9.7 kmh 29.95 in1014.2 mb 0.00 in0.0 mm 0.00 in0.0 mm 0.00 in0.0 mm
02:30 AM 34.2°F1.2°C 31.6°F-0.2°C 90% 6.5 mph SE10.5 kmh SE 11.0 mph17.7 kmh 29.95 in1014.2 mb 0.00 in0.0 mm 0.00 in0.0 mm 0.00 in0.0 mm
02:31 AM 34.2°F1.2°C 31.6°F-0.2°C 90% 7.5 mph SE12.1 kmh SE 11.0 mph17.7 kmh 29.95 in1014.2 mb 0.00 in0.0 mm 0.00 in0.0 mm 0.00 in0.0 mm
02:32 AM 34.2°F1.2°C 31.6°F-0.2°C 90% 6.7 mph SE10.8 kmh SE 10.0 mph16.1 kmh 29.95 in1014.2 mb 0.00 in0.0 mm 0.00 in0.0 mm 0.00 in0.0 mm
02:33 AM 34.2°F1.2°C 31.6°F-0.2°C 90% 4.1 mph SE6.6 kmh SE 10.0 mph16.1 kmh 29.95 in1014.2 mb 0.00 in0.0 mm 0.00 in0.0 mm 0.00 in0.0 mm
02:34 AM 34.2°F1.2°C 31.6°F-0.2°C 90% 4.3 mph SSE6.9 kmh SSE 7.0 mph11.3 kmh 29.95 in1014.2 mb 0.00 in0.0 mm 0.00 in0.0 mm 0.00 in0.0 mm
02:35 AM 34.2°F1.2°C 31.6°F-0.2°C 90% 4.6 mph SE7.4 kmh SE 8.0 mph12.9 kmh 29.95 in1014.2 mb 0.00 in0.0 mm 0.00 in0.0 mm 0.00 in0.0 mm
02:36 AM 34.2°F1.2°C 31.6°F-0.2°C 90% 4.5 mph SSE7.2 kmh SSE 8.0 mph12.9 kmh 29.94 in1013.9 mb 0.00 in0.0 mm 0.00 in0.0 mm 0.00 in0.0 mm
02:37 AM 34.2°F1.2°C 31.6°F-0.2°C 90% 4.9 mph SE7.9 kmh SE 7.0 mph11.3 kmh 29.94 in1013.9 mb 0.00 in0.0 mm 0.00 in0.0 mm 0.00 in0.0 mm
02:38 AM 34.2°F1.2°C 31.6°F-0.2°C 90% 5.5 mph SE8.9 kmh SE 8.0 mph12.9 kmh 29.94 in1013.9 mb 0.00 in0.0 mm 0.00 in0.0 mm 0.00 in0.0 mm
02:39 AM 34.2°F1.2°C 31.6°F-0.2°C 90% 4.6 mph SSE7.4 kmh SSE 8.0 mph12.9 kmh 29.94 in1013.9 mb 0.00 in0.0 mm 0.00 in0.0 mm 0.00 in0.0 mm
02:40 AM 34.2°F1.2°C 31.6°F-0.2°C 90% 3.3 mph SE5.3 kmh SE 7.0 mph11.3 kmh 29.94 in1013.9 mb 0.00 in0.0 mm 0.00 in0.0 mm 0.00 in0.0 mm
02:41 AM 34.2°F1.2°C 31.6°F-0.2°C 90% 3.6 mph SSE5.8 kmh SSE 5.0 mph8.0 kmh 29.95 in1014.2 mb 0.00 in0.0 mm 0.00 in0.0 mm 0.00 in0.0 mm
02:42 AM 34.2°F1.2°C 31.6°F-0.2°C 90% 3.5 mph SSE5.6 kmh SSE 5.0 mph8.0 kmh 29.95 in1014.2 mb 0.00 in0.0 mm 0.00 in0.0 mm 0.00 in0.0 mm
02:43 AM 34.2°F1.2°C 31.6°F-0.2°C 90% 4.5 mph SE7.2 kmh SE 7.0 mph11.3 kmh 29.95 in1014.2 mb 0.00 in0.0 mm 0.00 in0.0 mm 0.00 in0.0 mm
02:44 AM 34.2°F1.2°C 31.6°F-0.2°C 90% 4.6 mph SE7.4 kmh SE 8.0 mph12.9 kmh 29.94 in1013.9 mb 0.00 in0.0 mm 0.00 in0.0 mm 0.00 in0.0 mm
02:45 AM 34.2°F1.2°C 31.6°F-0.2°C 90% 5.2 mph SE8.4 kmh SE 8.0 mph12.9 kmh 29.94 in1013.9 mb 0.00 in0.0 mm 0.00 in0.0 mm 0.00 in0.0 mm
02:46 AM 34.2°F1.2°C 31.6°F-0.2°C 90% 5.5 mph SE8.9 kmh SE 9.0 mph14.5 kmh 29.94 in1013.9 mb 0.00 in0.0 mm 0.00 in0.0 mm 0.00 in0.0 mm
02:47 AM 34.2°F1.2°C 31.6°F-0.2°C 90% 5.4 mph SE8.7 kmh SE 9.0 mph14.5 kmh 29.94 in1013.9 mb 0.00 in0.0 mm 0.00 in0.0 mm 0.00 in0.0 mm
02:48 AM 34.2°F1.2°C 31.6°F-0.2°C 90% 4.5 mph SE7.2 kmh SE 8.0 mph12.9 kmh 29.94 in1013.9 mb 0.00 in0.0 mm 0.00 in0.0 mm 0.00 in0.0 mm
02:49 AM 34.3°F1.3°C 31.7°F-0.2°C 90% 5.2 mph SE8.4 kmh SE 9.0 mph14.5 kmh 29.94 in1013.9 mb 0.00 in0.0 mm 0.00 in0.0 mm 0.00 in0.0 mm
02:50 AM 34.2°F1.2°C 31.6°F-0.2°C 90% 6.3 mph SE10.1 kmh SE 10.0 mph16.1 kmh 29.94 in1013.9 mb 0.00 in0.0 mm 0.00 in0.0 mm 0.00 in0.0 mm
02:51 AM 34.2°F1.2°C 31.6°F-0.2°C 90% 2.9 mph SSE4.7 kmh SSE 10.0 mph16.1 kmh 29.94 in1013.9 mb 0.00 in0.0 mm 0.00 in0.0 mm 0.00 in0.0 mm
02:52 AM 34.2°F1.2°C 31.6°F-0.2°C 90% 2.2 mph SE3.5 kmh SE 5.0 mph8.0 kmh 29.95 in1014.2 mb 0.00 in0.0 mm 0.00 in0.0 mm 0.00 in0.0 mm
02:53 AM 34.2°F1.2°C 31.6°F-0.2°C 90% 2.8 mph SSE4.5 kmh SSE 6.0 mph9.7 kmh 29.95 in1014.2 mb 0.00 in0.0 mm 0.00 in0.0 mm 0.00 in0.0 mm
02:54 AM 34.2°F1.2°C 31.6°F-0.2°C 90% 3.6 mph S5.8 kmh S 6.0 mph9.7 kmh 29.95 in1014.2 mb 0.00 in0.0 mm 0.00 in0.0 mm 0.00 in0.0 mm
02:55 AM 34.2°F1.2°C 31.6°F-0.2°C 90% 2.7 mph S4.3 kmh S 6.0 mph9.7 kmh 29.95 in1014.2 mb 0.00 in0.0 mm 0.00 in0.0 mm 0.00 in0.0 mm
02:56 AM 34.2°F1.2°C 31.6°F-0.2°C 90% 4.2 mph SSE6.8 kmh SSE 6.0 mph9.7 kmh 29.95 in1014.2 mb 0.00 in0.0 mm 0.00 in0.0 mm 0.00 in0.0 mm
02:57 AM 34.2°F1.2°C 31.6°F-0.2°C 90% 1.9 mph S3.1 kmh S 6.0 mph9.7 kmh 29.96 in1014.6 mb 0.00 in0.0 mm 0.00 in0.0 mm 0.00 in0.0 mm
02:58 AM 34.2°F1.2°C 31.6°F-0.2°C 90% 2.1 mph S3.4 kmh S 4.0 mph6.4 kmh 29.96 in1014.6 mb 0.00 in0.0 mm 0.00 in0.0 mm 0.00 in0.0 mm
02:59 AM 34.2°F1.2°C 31.6°F-0.2°C 90% 3.8 mph S6.1 kmh S 5.0 mph8.0 kmh 29.96 in1014.6 mb 0.00 in0.0 mm 0.00 in0.0 mm 0.00 in0.0 mm
03:00 AM 34.2°F1.2°C 31.6°F-0.2°C 90% 2.6 mph S4.2 kmh S 5.0 mph8.0 kmh 29.96 in1014.6 mb 0.00 in0.0 mm 0.00 in0.0 mm 0.00 in0.0 mm
03:01 AM 34.2°F1.2°C 31.6°F-0.2°C 90% 2.9 mph S4.7 kmh S 4.0 mph6.4 kmh 29.96 in1014.6 mb 0.00 in0.0 mm 0.00 in0.0 mm 0.00 in0.0 mm
03:02 AM 34.2°F1.2°C 31.6°F-0.2°C 90% 2.6 mph S4.2 kmh S 4.0 mph6.4 kmh 29.96 in1014.6 mb 0.00 in0.0 mm 0.00 in0.0 mm 0.00 in0.0 mm
03:03 AM 34.2°F1.2°C 31.6°F-0.2°C 90% 3.4 mph S5.5 kmh S 6.0 mph9.7 kmh 29.96 in1014.6 mb 0.00 in0.0 mm 0.00 in0.0 mm 0.00 in0.0 mm
03:04 AM 34.2°F1.2°C 31.6°F-0.2°C 90% 4.1 mph SSE6.6 kmh SSE 6.0 mph9.7 kmh 29.96 in1014.6 mb 0.00 in0.0 mm 0.00 in0.0 mm 0.00 in0.0 mm
03:05 AM 34.3°F1.3°C 31.7°F-0.2°C 90% 3.0 mph SSE4.8 kmh SSE 6.0 mph9.7 kmh 29.96 in1014.6 mb 0.00 in0.0 mm 0.00 in0.0 mm 0.00 in0.0 mm
03:06 AM 34.2°F1.2°C 31.6°F-0.2°C 90% 4.1 mph SE6.6 kmh SE 6.0 mph9.7 kmh 29.96 in1014.6 mb 0.00 in0.0 mm 0.00 in0.0 mm 0.00 in0.0 mm
03:07 AM 34.2°F1.2°C 31.6°F-0.2°C 90% 3.8 mph SE6.1 kmh SE 6.0 mph9.7 kmh 29.96 in1014.6 mb 0.00 in0.0 mm 0.00 in0.0 mm 0.00 in0.0 mm
03:08 AM 34.2°F1.2°C 31.6°F-0.2°C 90% 5.6 mph SE9.0 kmh SE 7.0 mph11.3 kmh 29.95 in1014.2 mb 0.00 in0.0 mm 0.00 in0.0 mm 0.00 in0.0 mm
03:09 AM 34.3°F1.3°C 31.7°F-0.2°C 90% 6.5 mph SE10.5 kmh SE 8.0 mph12.9 kmh 29.95 in1014.2 mb 0.00 in0.0 mm 0.00 in0.0 mm 0.00 in0.0 mm
03:10 AM 34.3°F1.3°C 31.7°F-0.2°C 90% 6.9 mph SE11.1 kmh SE 9.0 mph14.5 kmh 29.95 in1014.2 mb 0.00 in0.0 mm 0.00 in0.0 mm 0.00 in0.0 mm
03:11 AM 34.2°F1.2°C 31.6°F-0.2°C 90% 5.5 mph SE8.9 kmh SE 9.0 mph14.5 kmh 29.95 in1014.2 mb 0.00 in0.0 mm 0.00 in0.0 mm 0.00 in0.0 mm
03:12 AM 34.2°F1.2°C 31.6°F-0.2°C 90% 7.4 mph SE11.9 kmh SE 9.0 mph14.5 kmh 29.95 in1014.2 mb 0.00 in0.0 mm 0.00 in0.0 mm 0.00 in0.0 mm
03:13 AM 34.2°F1.2°C 31.6°F-0.2°C 90% 5.3 mph ESE8.5 kmh ESE 9.0 mph14.5 kmh 29.95 in1014.2 mb 0.00 in0.0 mm 0.00 in0.0 mm 0.00 in0.0 mm
03:14 AM 34.2°F1.2°C 31.6°F-0.2°C 90% 7.1 mph SE11.4 kmh SE 9.0 mph14.5 kmh 29.95 in1014.2 mb 0.00 in0.0 mm 0.00 in0.0 mm 0.00 in0.0 mm
03:15 AM 34.2°F1.2°C 31.6°F-0.2°C 90% 7.3 mph ESE11.7 kmh ESE 9.0 mph14.5 kmh 29.95 in1014.2 mb 0.00 in0.0 mm 0.00 in0.0 mm 0.00 in0.0 mm
03:16 AM 34.2°F1.2°C 31.6°F-0.2°C 90% 5.2 mph SE8.4 kmh SE 9.0 mph14.5 kmh 29.95 in1014.2 mb 0.00 in0.0 mm 0.00 in0.0 mm 0.00 in0.0 mm
03:17 AM 34.1°F1.2°C 31.5°F-0.3°C 90% 3.9 mph SE6.3 kmh SE 9.0 mph14.5 kmh 29.95 in1014.2 mb 0.00 in0.0 mm 0.00 in0.0 mm 0.00 in0.0 mm
03:18 AM 34.1°F1.2°C 31.5°F-0.3°C 90% 4.0 mph SE6.4 kmh SE 7.0 mph11.3 kmh 29.95 in1014.2 mb 0.00 in0.0 mm 0.00 in0.0 mm 0.00 in0.0 mm
03:19 AM 34.2°F1.2°C 31.6°F-0.2°C 90% 2.7 mph SE4.3 kmh SE 7.0 mph11.3 kmh 29.95 in1014.2 mb 0.00 in0.0 mm 0.00 in0.0 mm 0.00 in0.0 mm
03:20 AM 34.2°F1.2°C 31.6°F-0.2°C 90% 4.3 mph SE6.9 kmh SE 6.0 mph9.7 kmh 29.95 in1014.2 mb 0.00 in0.0 mm 0.00 in0.0 mm 0.00 in0.0 mm
03:21 AM 34.1°F1.2°C 31.5°F-0.3°C 90% 4.9 mph ESE7.9 kmh ESE 7.0 mph11.3 kmh 29.95 in1014.2 mb 0.00 in0.0 mm 0.00 in0.0 mm 0.00 in0.0 mm
03:22 AM 34.1°F1.2°C 31.5°F-0.3°C 90% 5.5 mph SE8.9 kmh SE 7.0 mph11.3 kmh 29.95 in1014.2 mb 0.00 in0.0 mm 0.00 in0.0 mm 0.00 in0.0 mm
03:23 AM 34.1°F1.2°C 31.5°F-0.3°C 90% 4.7 mph SE7.6 kmh SE 7.0 mph11.3 kmh 29.95 in1014.2 mb 0.00 in0.0 mm 0.00 in0.0 mm 0.00 in0.0 mm
03:24 AM 34.1°F1.2°C 31.5°F-0.3°C 90% 3.9 mph ESE6.3 kmh ESE 7.0 mph11.3 kmh 29.95 in1014.2 mb 0.00 in0.0 mm 0.00 in0.0 mm 0.00 in0.0 mm
03:25 AM 34.1°F1.2°C 31.5°F-0.3°C 90% 4.5 mph SE7.2 kmh SE 7.0 mph11.3 kmh 29.95 in1014.2 mb 0.00 in0.0 mm 0.00 in0.0 mm 0.00 in0.0 mm
03:26 AM 34.2°F1.2°C 31.6°F-0.2°C 90% 3.4 mph SE5.5 kmh SE 7.0 mph11.3 kmh 29.95 in1014.2 mb 0.00 in0.0 mm 0.00 in0.0 mm 0.00 in0.0 mm
03:27 AM 34.1°F1.2°C 31.5°F-0.3°C 90% 2.7 mph SE4.3 kmh SE 5.0 mph8.0 kmh 29.95 in1014.2 mb 0.00 in0.0 mm 0.00 in0.0 mm 0.00 in0.0 mm
03:28 AM 34.1°F1.2°C 31.5°F-0.3°C 90% 4.3 mph SE6.9 kmh SE 7.0 mph11.3 kmh 29.95 in1014.2 mb 0.00 in0.0 mm 0.00 in0.0 mm 0.00 in0.0 mm
03:29 AM 34.1°F1.2°C 31.5°F-0.3°C 90% 6.3 mph SE10.1 kmh SE 8.0 mph12.9 kmh 29.95 in1014.2 mb 0.00 in0.0 mm 0.00 in0.0 mm 0.00 in0.0 mm
03:30 AM 34.1°F1.2°C 31.5°F-0.3°C 90% 5.0 mph SE8.0 kmh SE 8.0 mph12.9 kmh 29.95 in1014.2 mb 0.00 in0.0 mm 0.00 in0.0 mm 0.00 in0.0 mm
03:31 AM 34.1°F1.2°C 31.5°F-0.3°C 90% 3.8 mph SE6.1 kmh SE 7.0 mph11.3 kmh 29.95 in1014.2 mb 0.00 in0.0 mm 0.00 in0.0 mm 0.00 in0.0 mm
03:32 AM 34.1°F1.2°C 31.5°F-0.3°C 90% 2.7 mph SE4.3 kmh SE 5.0 mph8.0 kmh 29.95 in1014.2 mb 0.00 in0.0 mm 0.00 in0.0 mm 0.00 in0.0 mm
03:33 AM 34.1°F1.2°C 31.5°F-0.3°C 90% 3.3 mph ESE5.3 kmh ESE 6.0 mph9.7 kmh 29.95 in1014.2 mb 0.00 in0.0 mm 0.00 in0.0 mm 0.00 in0.0 mm
03:34 AM 34.0°F1.1°C 31.4°F-0.3°C 90% 4.9 mph SE7.9 kmh SE 9.0 mph14.5 kmh 29.95 in1014.2 mb 0.00 in0.0 mm 0.00 in0.0 mm 0.00 in0.0 mm
03:35 AM 34.1°F1.2°C 31.5°F-0.3°C 90% 5.8 mph SE9.3 kmh SE 9.0 mph14.5 kmh 29.96 in1014.6 mb 0.00 in0.0 mm 0.00 in0.0 mm 0.00 in0.0 mm
03:36 AM 34.1°F1.2°C 31.5°F-0.3°C 90% 6.4 mph SE10.3 kmh SE 9.0 mph14.5 kmh 29.96 in1014.6 mb 0.00 in0.0 mm 0.00 in0.0 mm 0.00 in0.0 mm
03:37 AM 34.0°F1.1°C 31.4°F-0.3°C 90% 4.7 mph SE7.6 kmh SE 9.0 mph14.5 kmh 29.96 in1014.6 mb 0.00 in0.0 mm 0.00 in0.0 mm 0.00 in0.0 mm
03:38 AM 34.1°F1.2°C 31.5°F-0.3°C 90% 5.2 mph SE8.4 kmh SE 9.0 mph14.5 kmh 29.96 in1014.6 mb 0.00 in0.0 mm 0.00 in0.0 mm 0.00 in0.0 mm
03:39 AM 34.0°F1.1°C 31.4°F-0.3°C 90% 6.4 mph SE10.3 kmh SE 9.0 mph14.5 kmh 29.96 in1014.6 mb 0.00 in0.0 mm 0.00 in0.0 mm 0.00 in0.0 mm
03:40 AM 34.1°F1.2°C 31.5°F-0.3°C 90% 5.4 mph SE8.7 kmh SE 8.0 mph12.9 kmh 29.96 in1014.6 mb 0.00 in0.0 mm 0.00 in0.0 mm 0.00 in0.0 mm
03:41 AM 34.0°F1.1°C 31.4°F-0.3°C 90% 5.1 mph SE8.2 kmh SE 8.0 mph12.9 kmh 29.96 in1014.6 mb 0.00 in0.0 mm 0.00 in0.0 mm 0.00 in0.0 mm
03:42 AM 34.1°F1.2°C 31.5°F-0.3°C 90% 6.8 mph SE10.9 kmh SE 8.0 mph12.9 kmh 29.95 in1014.2 mb 0.00 in0.0 mm 0.00 in0.0 mm 0.00 in0.0 mm
03:43 AM 34.1°F1.2°C 31.5°F-0.3°C 90% 4.8 mph SE7.7 kmh SE 9.0 mph14.5 kmh 29.95 in1014.2 mb 0.00 in0.0 mm 0.00 in0.0 mm 0.00 in0.0 mm
03:44 AM 34.1°F1.2°C 31.5°F-0.3°C 90% 5.6 mph SE9.0 kmh SE 9.0 mph14.5 kmh 29.95 in1014.2 mb 0.00 in0.0 mm 0.00 in0.0 mm 0.00 in0.0 mm
03:45 AM 34.0°F1.1°C 31.4°F-0.3°C 90% 5.5 mph SE8.9 kmh SE 8.0 mph12.9 kmh 29.96 in1014.6 mb 0.00 in0.0 mm 0.00 in0.0 mm 0.00 in0.0 mm
03:46 AM 34.0°F1.1°C 31.4°F-0.3°C 90% 7.3 mph SE11.7 kmh SE 10.0 mph16.1 kmh 29.96 in1014.6 mb 0.00 in0.0 mm 0.00 in0.0 mm 0.00 in0.0 mm
03:47 AM 34.0°F1.1°C 31.4°F-0.3°C 90% 5.8 mph SE9.3 kmh SE 10.0 mph16.1 kmh 29.96 in1014.6 mb 0.00 in0.0 mm 0.00 in0.0 mm 0.00 in0.0 mm
03:48 AM 34.1°F1.2°C 31.5°F-0.3°C 90% 6.0 mph SE9.7 kmh SE 9.0 mph14.5 kmh 29.95 in1014.2 mb 0.00 in0.0 mm 0.00 in0.0 mm 0.00 in0.0 mm
03:49 AM 34.0°F1.1°C 31.4°F-0.3°C 90% 7.3 mph SE11.7 kmh SE 10.0 mph16.1 kmh 29.95 in1014.2 mb 0.00 in0.0 mm 0.00 in0.0 mm 0.00 in0.0 mm
03:50 AM 34.1°F1.2°C 31.8°F-0.1°C 91% 5.3 mph SE8.5 kmh SE 10.0 mph16.1 kmh 29.95 in1014.2 mb 0.00 in0.0 mm 0.00 in0.0 mm 0.00 in0.0 mm
03:51 AM 34.1°F1.2°C 31.8°F-0.1°C 91% 6.4 mph SE10.3 kmh SE 8.0 mph12.9 kmh 29.95 in1014.2 mb 0.00 in0.0 mm 0.00 in0.0 mm 0.00 in0.0 mm
03:52 AM 34.1°F1.2°C 31.8°F-0.1°C 91% 5.8 mph SE9.3 kmh SE 10.0 mph16.1 kmh 29.95 in1014.2 mb 0.00 in0.0 mm 0.00 in0.0 mm 0.00 in0.0 mm
03:53 AM 34.1°F1.2°C 31.8°F-0.1°C 91% 4.7 mph SE7.6 kmh SE 10.0 mph16.1 kmh 29.96 in1014.6 mb 0.00 in0.0 mm 0.00 in0.0 mm 0.00 in0.0 mm
03:54 AM 34.0°F1.1°C 31.7°F-0.2°C 91% 4.5 mph SE7.2 kmh SE 7.0 mph11.3 kmh 29.96 in1014.6 mb 0.00 in0.0 mm 0.00 in0.0 mm 0.00 in0.0 mm
03:55 AM 34.1°F1.2°C 31.8°F-0.1°C 91% 4.0 mph SE6.4 kmh SE 6.0 mph9.7 kmh 29.96 in1014.6 mb 0.00 in0.0 mm 0.00 in0.0 mm 0.00 in0.0 mm
03:56 AM 34.1°F1.2°C 31.8°F-0.1°C 91% 4.4 mph SE7.1 kmh SE 7.0 mph11.3 kmh 29.96 in1014.6 mb 0.00 in0.0 mm 0.00 in0.0 mm 0.00 in0.0 mm
03:57 AM 34.1°F1.2°C 31.8°F-0.1°C 91% 5.2 mph SE8.4 kmh SE 7.0 mph11.3 kmh 29.96 in1014.6 mb 0.00 in0.0 mm 0.00 in0.0 mm 0.00 in0.0 mm
03:58 AM 34.0°F1.1°C 31.7°F-0.2°C 91% 6.8 mph SE10.9 kmh SE 10.0 mph16.1 kmh 29.95 in1014.2 mb 0.00 in0.0 mm 0.00 in0.0 mm 0.00 in0.0 mm
03:59 AM 34.1°F1.2°C 31.8°F-0.1°C 91% 7.4 mph SE11.9 kmh SE 10.0 mph16.1 kmh 29.95 in1014.2 mb 0.00 in0.0 mm 0.00 in0.0 mm 0.00 in0.0 mm
04:00 AM 34.1°F1.2°C 31.8°F-0.1°C 91% 7.0 mph SE11.3 kmh SE 9.0 mph14.5 kmh 29.95 in1014.2 mb 0.00 in0.0 mm 0.00 in0.0 mm 0.00 in0.0 mm
04:01 AM 34.1°F1.2°C 31.8°F-0.1°C 91% 6.0 mph SE9.7 kmh SE 9.0 mph14.5 kmh 29.96 in1014.6 mb 0.00 in0.0 mm 0.00 in0.0 mm 0.00 in0.0 mm
04:02 AM 34.1°F1.2°C 31.8°F-0.1°C 91% 5.2 mph SE8.4 kmh SE 8.0 mph12.9 kmh 29.96 in1014.6 mb 0.00 in0.0 mm 0.00 in0.0 mm 0.00 in0.0 mm
04:03 AM 34.0°F1.1°C 31.7°F-0.2°C 91% 5.3 mph SE8.5 kmh SE 8.0 mph12.9 kmh 29.96 in1014.6 mb 0.00 in0.0 mm 0.00 in0.0 mm 0.00 in0.0 mm
04:04 AM 34.0°F1.1°C 31.7°F-0.2°C 91% 5.0 mph SE8.0 kmh SE 9.0 mph14.5 kmh 29.96 in1014.6 mb 0.00 in0.0 mm 0.00 in0.0 mm 0.00 in0.0 mm
04:05 AM 34.0°F1.1°C 31.7°F-0.2°C 91% 4.1 mph SE6.6 kmh SE 9.0 mph14.5 kmh 29.96 in1014.6 mb 0.00 in0.0 mm 0.00 in0.0 mm 0.00 in0.0 mm
04:06 AM 34.0°F1.1°C 31.7°F-0.2°C 91% 3.1 mph SE5.0 kmh SE 7.0 mph11.3 kmh 29.96 in1014.6 mb 0.00 in0.0 mm 0.00 in0.0 mm 0.00 in0.0 mm
04:07 AM 34.0°F1.1°C 31.7°F-0.2°C 91% 4.5 mph SE7.2 kmh SE 7.0 mph11.3 kmh 29.96 in1014.6 mb 0.00 in0.0 mm 0.00 in0.0 mm 0.00 in0.0 mm
04:08 AM 34.0°F1.1°C 31.7°F-0.2°C 91% 4.9 mph SE7.9 kmh SE 7.0 mph11.3 kmh 29.96 in1014.6 mb 0.00 in0.0 mm 0.00 in0.0 mm 0.00 in0.0 mm
04:09 AM 34.0°F1.1°C 31.7°F-0.2°C 91% 3.7 mph SE6.0 kmh SE 7.0 mph11.3 kmh 29.96 in1014.6 mb 0.00 in0.0 mm 0.00 in0.0 mm 0.00 in0.0 mm
04:10 AM 34.1°F1.2°C 31.8°F-0.1°C 91% 3.8 mph SE6.1 kmh SE 7.0 mph11.3 kmh 29.96 in1014.6 mb 0.00 in0.0 mm 0.00 in0.0 mm 0.00 in0.0 mm
04:11 AM 34.0°F1.1°C 31.7°F-0.2°C 91% 6.9 mph SE11.1 kmh SE 9.0 mph14.5 kmh 29.96 in1014.6 mb 0.00 in0.0 mm 0.00 in0.0 mm 0.00 in0.0 mm
04:12 AM 34.0°F1.1°C 31.7°F-0.2°C 91% 6.8 mph SE10.9 kmh SE 9.0 mph14.5 kmh 29.96 in1014.6 mb 0.00 in0.0 mm 0.00 in0.0 mm 0.00 in0.0 mm
04:13 AM 34.0°F1.1°C 31.7°F-0.2°C 91% 5.2 mph SE8.4 kmh SE 8.0 mph12.9 kmh 29.96 in1014.6 mb 0.00 in0.0 mm 0.00 in0.0 mm 0.00 in0.0 mm
04:14 AM 34.0°F1.1°C 31.7°F-0.2°C 91% 6.1 mph SE9.8 kmh SE 8.0 mph12.9 kmh 29.96 in1014.6 mb 0.00 in0.0 mm 0.00 in0.0 mm 0.00 in0.0 mm
04:15 AM 34.0°F1.1°C 31.7°F-0.2°C 91% 5.0 mph SE8.0 kmh SE 8.0 mph12.9 kmh 29.96 in1014.6 mb 0.00 in0.0 mm 0.00 in0.0 mm 0.00 in0.0 mm
04:16 AM 33.9°F1.1°C 31.6°F-0.2°C 91% 4.4 mph SE7.1 kmh SE 8.0 mph12.9 kmh 29.96 in1014.6 mb 0.00 in0.0 mm 0.00 in0.0 mm 0.00 in0.0 mm
04:17 AM 34.0°F1.1°C 31.7°F-0.2°C 91% 5.0 mph SE8.0 kmh SE 7.0 mph11.3 kmh 29.96 in1014.6 mb 0.00 in0.0 mm 0.00 in0.0 mm 0.00 in0.0 mm
04:18 AM 34.0°F1.1°C 31.7°F-0.2°C 91% 6.8 mph SE10.9 kmh SE 9.0 mph14.5 kmh 29.95 in1014.2 mb 0.00 in0.0 mm 0.00 in0.0 mm 0.00 in0.0 mm
04:19 AM 34.0°F1.1°C 31.7°F-0.2°C 91% 6.5 mph SE10.5 kmh SE 9.0 mph14.5 kmh 29.95 in1014.2 mb 0.00 in0.0 mm 0.00 in0.0 mm 0.00 in0.0 mm
04:20 AM 34.0°F1.1°C 31.7°F-0.2°C 91% 6.7 mph SE10.8 kmh SE 10.0 mph16.1 kmh 29.95 in1014.2 mb 0.00 in0.0 mm 0.00 in0.0 mm 0.00 in0.0 mm
04:21 AM 33.9°F1.1°C 31.6°F-0.2°C 91% 7.5 mph SE12.1 kmh SE 10.0 mph16.1 kmh 29.95 in1014.2 mb 0.00 in0.0 mm 0.00 in0.0 mm 0.00 in0.0 mm
04:22 AM 33.9°F1.1°C 31.6°F-0.2°C 91% 8.7 mph SE14.0 kmh SE 10.0 mph16.1 kmh 29.95 in1014.2 mb 0.00 in0.0 mm 0.00 in0.0 mm 0.00 in0.0 mm
04:23 AM 33.9°F1.1°C 31.6°F-0.2°C 91% 7.7 mph SE12.4 kmh SE 11.0 mph17.7 kmh 29.95 in1014.2 mb 0.00 in0.0 mm 0.00 in0.0 mm 0.00 in0.0 mm
04:24 AM 33.9°F1.1°C 31.6°F-0.2°C 91% 7.7 mph SE12.4 kmh SE 11.0 mph17.7 kmh 29.94 in1013.9 mb 0.00 in0.0 mm 0.00 in0.0 mm 0.00 in0.0 mm
04:25 AM 33.9°F1.1°C 31.6°F-0.2°C 91% 6.8 mph SE10.9 kmh SE 10.0 mph16.1 kmh 29.94 in1013.9 mb 0.00 in0.0 mm 0.00 in0.0 mm 0.00 in0.0 mm
04:26 AM 33.9°F1.1°C 31.6°F-0.2°C 91% 7.3 mph SE11.7 kmh SE 9.0 mph14.5 kmh 29.94 in1013.9 mb 0.00 in0.0 mm 0.00 in0.0 mm 0.00 in0.0 mm
04:27 AM 33.9°F1.1°C 31.6°F-0.2°C 91% 8.0 mph SE12.9 kmh SE 11.0 mph17.7 kmh 29.95 in1014.2 mb 0.00 in0.0 mm 0.00 in0.0 mm 0.00 in0.0 mm
04:28 AM 33.9°F1.1°C 31.6°F-0.2°C 91% 6.9 mph SE11.1 kmh SE 11.0 mph17.7 kmh 29.95 in1014.2 mb 0.00 in0.0 mm 0.00 in0.0 mm 0.00 in0.0 mm
04:29 AM 33.9°F1.1°C 31.6°F-0.2°C 91% 5.6 mph SE9.0 kmh SE 9.0 mph14.5 kmh 29.95 in1014.2 mb 0.00 in0.0 mm 0.00 in0.0 mm 0.00 in0.0 mm
04:30 AM 33.9°F1.1°C 31.6°F-0.2°C 91% 6.6 mph SE10.6 kmh SE 13.0 mph20.9 kmh 29.95 in1014.2 mb 0.00 in0.0 mm 0.00 in0.0 mm 0.00 in0.0 mm
04:31 AM 33.9°F1.1°C 31.6°F-0.2°C 91% 5.9 mph SE9.5 kmh SE 13.0 mph20.9 kmh 29.95 in1014.2 mb 0.00 in0.0 mm 0.00 in0.0 mm 0.00 in0.0 mm
04:32 AM 33.9°F1.1°C 31.6°F-0.2°C 91% 5.7 mph SE9.2 kmh SE 9.0 mph14.5 kmh 29.95 in1014.2 mb 0.00 in0.0 mm 0.00 in0.0 mm 0.00 in0.0 mm
04:33 AM 33.8°F1.0°C 31.5°F-0.3°C 91% 5.7 mph SE9.2 kmh SE 9.0 mph14.5 kmh 29.95 in1014.2 mb 0.00 in0.0 mm 0.00 in0.0 mm 0.00 in0.0 mm
04:34 AM 33.8°F1.0°C 31.5°F-0.3°C 91% 5.5 mph SE8.9 kmh SE 10.0 mph16.1 kmh 29.95 in1014.2 mb 0.00 in0.0 mm 0.00 in0.0 mm 0.00 in0.0 mm
04:35 AM 33.8°F1.0°C 31.5°F-0.3°C 91% 7.4 mph SE11.9 kmh SE 14.0 mph22.5 kmh 29.95 in1014.2 mb 0.00 in0.0 mm 0.00 in0.0 mm 0.00 in0.0 mm
04:36 AM 33.8°F1.0°C 31.5°F-0.3°C 91% 8.3 mph SE13.4 kmh SE 14.0 mph22.5 kmh 29.95 in1014.2 mb 0.00 in0.0 mm 0.00 in0.0 mm 0.00 in0.0 mm
04:37 AM 33.8°F1.0°C 31.5°F-0.3°C 91% 6.1 mph SE9.8 kmh SE 11.0 mph17.7 kmh 29.95 in1014.2 mb 0.00 in0.0 mm 0.00 in0.0 mm 0.00 in0.0 mm
04:38 AM 33.8°F1.0°C 31.5°F-0.3°C 91% 5.3 mph SE8.5 kmh SE 10.0 mph16.1 kmh 29.95 in1014.2 mb 0.00 in0.0 mm 0.00 in0.0 mm 0.00 in0.0 mm
04:39 AM 33.8°F1.0°C 31.5°F-0.3°C 91% 5.5 mph SE8.9 kmh SE 9.0 mph14.5 kmh 29.95 in1014.2 mb 0.00 in0.0 mm 0.00 in0.0 mm 0.00 in0.0 mm
04:40 AM 33.8°F1.0°C 31.5°F-0.3°C 91% 5.8 mph SSE9.3 kmh SSE 8.0 mph12.9 kmh 29.96 in1014.6 mb 0.00 in0.0 mm 0.00 in0.0 mm 0.00 in0.0 mm
04:41 AM 33.8°F1.0°C 31.5°F-0.3°C 91% 4.8 mph SSE7.7 kmh SSE 8.0 mph12.9 kmh 29.96 in1014.6 mb 0.00 in0.0 mm 0.00 in0.0 mm 0.00 in0.0 mm
04:42 AM 33.8°F1.0°C 31.5°F-0.3°C 91% 6.1 mph SE9.8 kmh SE 8.0 mph12.9 kmh 29.96 in1014.6 mb 0.00 in0.0 mm 0.00 in0.0 mm 0.00 in0.0 mm
04:43 AM 33.8°F1.0°C 31.5°F-0.3°C 91% 5.7 mph SSE9.2 kmh SSE 8.0 mph12.9 kmh 29.96 in1014.6 mb 0.00 in0.0 mm 0.00 in0.0 mm 0.00 in0.0 mm
04:44 AM 33.8°F1.0°C 31.5°F-0.3°C 91% 7.4 mph SE11.9 kmh SE 10.0 mph16.1 kmh 29.96 in1014.6 mb 0.00 in0.0 mm 0.00 in0.0 mm 0.00 in0.0 mm
04:45 AM 33.8°F1.0°C 31.5°F-0.3°C 91% 6.3 mph SE10.1 kmh SE 10.0 mph16.1 kmh 29.96 in1014.6 mb 0.00 in0.0 mm 0.00 in0.0 mm 0.00 in0.0 mm
04:46 AM 33.8°F1.0°C 31.5°F-0.3°C 91% 8.7 mph SE14.0 kmh SE 12.0 mph19.3 kmh 29.96 in1014.6 mb 0.00 in0.0 mm 0.00 in0.0 mm 0.00 in0.0 mm
04:47 AM 33.9°F1.1°C 31.6°F-0.2°C 91% 6.5 mph SE10.5 kmh SE 12.0 mph19.3 kmh 29.96 in1014.6 mb 0.00 in0.0 mm 0.00 in0.0 mm 0.00 in0.0 mm
04:48 AM 33.8°F1.0°C 31.5°F-0.3°C 91% 8.3 mph SE13.4 kmh SE 11.0 mph17.7 kmh 29.96 in1014.6 mb 0.00 in0.0 mm 0.00 in0.0 mm 0.00 in0.0 mm
04:49 AM 33.8°F1.0°C 31.5°F-0.3°C 91% 5.8 mph SE9.3 kmh SE 11.0 mph17.7 kmh 29.95 in1014.2 mb 0.00 in0.0 mm 0.00 in0.0 mm 0.00 in0.0 mm
04:50 AM 33.8°F1.0°C 31.5°F-0.3°C 91% 6.9 mph SE11.1 kmh SE 11.0 mph17.7 kmh 29.96 in1014.6 mb 0.00 in0.0 mm 0.00 in0.0 mm 0.00 in0.0 mm
04:51 AM 33.8°F1.0°C 31.5°F-0.3°C 91% 8.2 mph SE13.2 kmh SE 11.0 mph17.7 kmh 29.96 in1014.6 mb 0.00 in0.0 mm 0.00 in0.0 mm 0.00 in0.0 mm
04:52 AM 33.8°F1.0°C 31.5°F-0.3°C 91% 6.3 mph SE10.1 kmh SE 10.0 mph16.1 kmh 29.96 in1014.6 mb 0.00 in0.0 mm 0.00 in0.0 mm 0.00 in0.0 mm
04:53 AM 33.8°F1.0°C 31.5°F-0.3°C 91% 6.5 mph SE10.5 kmh SE 10.0 mph16.1 kmh 29.96 in1014.6 mb 0.00 in0.0 mm 0.00 in0.0 mm 0.00 in0.0 mm
04:54 AM 33.9°F1.1°C 31.6°F-0.2°C 91% 7.9 mph SE12.7 kmh SE 10.0 mph16.1 kmh 29.96 in1014.6 mb 0.00 in0.0 mm 0.00 in0.0 mm 0.00 in0.0 mm
04:55 AM 33.8°F1.0°C 31.5°F-0.3°C 91% 6.6 mph SE10.6 kmh SE 10.0 mph16.1 kmh 29.96 in1014.6 mb 0.00 in0.0 mm 0.00 in0.0 mm 0.00 in0.0 mm
04:56 AM 33.8°F1.0°C 31.5°F-0.3°C 91% 5.3 mph SE8.5 kmh SE 10.0 mph16.1 kmh 29.96 in1014.6 mb 0.00 in0.0 mm 0.00 in0.0 mm 0.00 in0.0 mm
04:57 AM 33.8°F1.0°C 31.5°F-0.3°C 91% 4.6 mph SSE7.4 kmh SSE 8.0 mph12.9 kmh 29.96 in1014.6 mb 0.00 in0.0 mm 0.00 in0.0 mm 0.00 in0.0 mm
04:58 AM 33.7°F0.9°C 31.4°F-0.3°C 91% 4.0 mph SSE6.4 kmh SSE 8.0 mph12.9 kmh 29.96 in1014.6 mb 0.00 in0.0 mm 0.00 in0.0 mm 0.00 in0.0 mm
04:59 AM 33.8°F1.0°C 31.5°F-0.3°C 91% 5.7 mph SSE9.2 kmh SSE 9.0 mph14.5 kmh 29.96 in1014.6 mb 0.00 in0.0 mm 0.00 in0.0 mm 0.00 in0.0 mm
05:00 AM 33.9°F1.1°C 31.6°F-0.2°C 91% 5.3 mph SE8.5 kmh SE 9.0 mph14.5 kmh 29.96 in1014.6 mb 0.00 in0.0 mm 0.00 in0.0 mm 0.00 in0.0 mm
05:01 AM 33.8°F1.0°C 31.5°F-0.3°C 91% 5.2 mph SE8.4 kmh SE 8.0 mph12.9 kmh 29.96 in1014.6 mb 0.00 in0.0 mm 0.00 in0.0 mm 0.00 in0.0 mm
05:02 AM 33.8°F1.0°C 31.5°F-0.3°C 91% 5.4 mph SSE8.7 kmh SSE 8.0 mph12.9 kmh 29.96 in1014.6 mb 0.00 in0.0 mm 0.00 in0.0 mm 0.00 in0.0 mm
05:03 AM 33.8°F1.0°C 31.5°F-0.3°C 91% 7.5 mph SE12.1 kmh SE 12.0 mph19.3 kmh 29.96 in1014.6 mb 0.00 in0.0 mm 0.00 in0.0 mm 0.00 in0.0 mm
05:04 AM 33.9°F1.1°C 31.6°F-0.2°C 91% 7.6 mph SSE12.2 kmh SSE 12.0 mph19.3 kmh 29.96 in1014.6 mb 0.00 in0.0 mm 0.00 in0.0 mm 0.00 in0.0 mm
05:05 AM 33.8°F1.0°C 31.5°F-0.3°C 91% 5.3 mph SE8.5 kmh SE 11.0 mph17.7 kmh 29.96 in1014.6 mb 0.00 in0.0 mm 0.00 in0.0 mm 0.00 in0.0 mm
05:06 AM 33.8°F1.0°C 31.5°F-0.3°C 91% 7.2 mph SE11.6 kmh SE 11.0 mph17.7 kmh 29.96 in1014.6 mb 0.00 in0.0 mm 0.00 in0.0 mm 0.00 in0.0 mm
05:07 AM 33.8°F1.0°C 31.5°F-0.3°C 91% 5.5 mph SSE8.9 kmh SSE 11.0 mph17.7 kmh 29.96 in1014.6 mb 0.00 in0.0 mm 0.00 in0.0 mm 0.00 in0.0 mm
05:08 AM 33.8°F1.0°C 31.5°F-0.3°C 91% 6.9 mph SSE11.1 kmh SSE 9.0 mph14.5 kmh 29.96 in1014.6 mb 0.00 in0.0 mm 0.00 in0.0 mm 0.00 in0.0 mm
05:09 AM 33.9°F1.1°C 31.6°F-0.2°C 91% 7.5 mph SSE12.1 kmh SSE 11.0 mph17.7 kmh 29.96 in1014.6 mb 0.00 in0.0 mm 0.00 in0.0 mm 0.00 in0.0 mm
05:10 AM 33.8°F1.0°C 31.5°F-0.3°C 91% 5.0 mph SSE8.0 kmh SSE 11.0 mph17.7 kmh 29.96 in1014.6 mb 0.00 in0.0 mm 0.00 in0.0 mm 0.00 in0.0 mm
05:11 AM 33.8°F1.0°C 31.5°F-0.3°C 91% 6.0 mph SSE9.7 kmh SSE 9.0 mph14.5 kmh 29.96 in1014.6 mb 0.00 in0.0 mm 0.00 in0.0 mm 0.00 in0.0 mm
05:12 AM 33.9°F1.1°C 31.6°F-0.2°C 91% 8.4 mph SSE13.5 kmh SSE 10.0 mph16.1 kmh 29.96 in1014.6 mb 0.00 in0.0 mm 0.00 in0.0 mm 0.00 in0.0 mm
05:13 AM 33.8°F1.0°C 31.5°F-0.3°C 91% 6.5 mph SSE10.5 kmh SSE 10.0 mph16.1 kmh 29.96 in1014.6 mb 0.00 in0.0 mm 0.00 in0.0 mm 0.00 in0.0 mm
05:14 AM 33.8°F1.0°C 31.5°F-0.3°C 91% 6.4 mph SSE10.3 kmh SSE 10.0 mph16.1 kmh 29.96 in1014.6 mb 0.00 in0.0 mm 0.00 in0.0 mm 0.00 in0.0 mm
05:15 AM 33.9°F1.1°C 31.6°F-0.2°C 91% 5.6 mph SSE9.0 kmh SSE 10.0 mph16.1 kmh 29.96 in1014.6 mb 0.00 in0.0 mm 0.00 in0.0 mm 0.00 in0.0 mm
05:16 AM 33.8°F1.0°C 31.5°F-0.3°C 91% 5.2 mph SSE8.4 kmh SSE 10.0 mph16.1 kmh 29.96 in1014.6 mb 0.00 in0.0 mm 0.00 in0.0 mm 0.00 in0.0 mm
05:17 AM 33.8°F1.0°C 31.5°F-0.3°C 91% 3.9 mph SSE6.3 kmh SSE 8.0 mph12.9 kmh 29.96 in1014.6 mb 0.00 in0.0 mm 0.00 in0.0 mm 0.00 in0.0 mm
05:18 AM 33.8°F1.0°C 31.5°F-0.3°C 91% 6.4 mph SSE10.3 kmh SSE 8.0 mph12.9 kmh 29.96 in1014.6 mb 0.00 in0.0 mm 0.00 in0.0 mm 0.00 in0.0 mm
05:19 AM 33.8°F1.0°C 31.5°F-0.3°C 91% 5.6 mph SSE9.0 kmh SSE 9.0 mph14.5 kmh 29.96 in1014.6 mb 0.00 in0.0 mm 0.00 in0.0 mm 0.00 in0.0 mm
05:20 AM 33.9°F1.1°C 31.6°F-0.2°C 91% 6.1 mph SE9.8 kmh SE 9.0 mph14.5 kmh 29.96 in1014.6 mb 0.00 in0.0 mm 0.00 in0.0 mm 0.00 in0.0 mm
05:21 AM 33.8°F1.0°C 31.5°F-0.3°C 91% 5.2 mph SE8.4 kmh SE 9.0 mph14.5 kmh 29.96 in1014.6 mb 0.00 in0.0 mm 0.00 in0.0 mm 0.00 in0.0 mm
05:22 AM 33.8°F1.0°C 31.5°F-0.3°C 91% 6.2 mph SSE10.0 kmh SSE 9.0 mph14.5 kmh 29.96 in1014.6 mb 0.00 in0.0 mm 0.00 in0.0 mm 0.00 in0.0 mm
05:23 AM 33.8°F1.0°C 31.5°F-0.3°C 91% 6.1 mph SE9.8 kmh SE 8.0 mph12.9 kmh 29.96 in1014.6 mb 0.00 in0.0 mm 0.00 in0.0 mm 0.00 in0.0 mm
05:24 AM 33.8°F1.0°C 31.5°F-0.3°C 91% 5.7 mph SE9.2 kmh SE 8.0 mph12.9 kmh 29.96 in1014.6 mb 0.00 in0.0 mm 0.00 in0.0 mm 0.00 in0.0 mm
05:25 AM 33.8°F1.0°C 31.5°F-0.3°C 91% 5.8 mph SSE9.3 kmh SSE 9.0 mph14.5 kmh 29.96 in1014.6 mb 0.00 in0.0 mm 0.00 in0.0 mm 0.00 in0.0 mm
05:26 AM 33.8°F1.0°C 31.5°F-0.3°C 91% 6.0 mph SSE9.7 kmh SSE 10.0 mph16.1 kmh 29.96 in1014.6 mb 0.00 in0.0 mm 0.00 in0.0 mm 0.00 in0.0 mm
05:27 AM 33.8°F1.0°C 31.5°F-0.3°C 91% 7.0 mph SSE11.3 kmh SSE 10.0 mph16.1 kmh 29.96 in1014.6 mb 0.00 in0.0 mm 0.00 in0.0 mm 0.00 in0.0 mm
05:28 AM 33.8°F1.0°C 31.5°F-0.3°C 91% 8.5 mph SSE13.7 kmh SSE 10.0 mph16.1 kmh 29.96 in1014.6 mb 0.00 in0.0 mm 0.00 in0.0 mm 0.00 in0.0 mm
05:29 AM 33.8°F1.0°C 31.5°F-0.3°C 91% 5.7 mph SSE9.2 kmh SSE 11.0 mph17.7 kmh 29.96 in1014.6 mb 0.00 in0.0 mm 0.00 in0.0 mm 0.00 in0.0 mm
05:30 AM 33.8°F1.0°C 31.5°F-0.3°C 91% 7.7 mph SSE12.4 kmh SSE 10.0 mph16.1 kmh 29.96 in1014.6 mb 0.00 in0.0 mm 0.00 in0.0 mm 0.00 in0.0 mm
05:31 AM 33.8°F1.0°C 31.5°F-0.3°C 91% 4.8 mph SSE7.7 kmh SSE 10.0 mph16.1 kmh 29.96 in1014.6 mb 0.00 in0.0 mm 0.00 in0.0 mm 0.00 in0.0 mm
05:32 AM 33.8°F1.0°C 31.5°F-0.3°C 91% 7.5 mph SSE12.1 kmh SSE 10.0 mph16.1 kmh 29.96 in1014.6 mb 0.00 in0.0 mm 0.00 in0.0 mm 0.00 in0.0 mm
05:33 AM 33.8°F1.0°C 31.5°F-0.3°C 91% 6.5 mph SE10.5 kmh SE 11.0 mph17.7 kmh 29.96 in1014.6 mb 0.00 in0.0 mm 0.00 in0.0 mm 0.00 in0.0 mm
05:34 AM 33.8°F1.0°C 31.5°F-0.3°C 91% 6.5 mph SSE10.5 kmh SSE 11.0 mph17.7 kmh 29.96 in1014.6 mb 0.00 in0.0 mm 0.00 in0.0 mm 0.00 in0.0 mm
05:35 AM 33.7°F0.9°C 31.4°F-0.3°C 91% 7.8 mph SE12.6 kmh SE 10.0 mph16.1 kmh 29.96 in1014.6 mb 0.00 in0.0 mm 0.00 in0.0 mm 0.00 in0.0 mm
05:36 AM 33.8°F1.0°C 31.5°F-0.3°C 91% 6.0 mph SE9.7 kmh SE 10.0 mph16.1 kmh 29.96 in1014.6 mb 0.00 in0.0 mm 0.00 in0.0 mm 0.00 in0.0 mm
05:37 AM 33.7°F0.9°C 31.4°F-0.3°C 91% 4.4 mph SSE7.1 kmh SSE 8.0 mph12.9 kmh 29.96 in1014.6 mb 0.00 in0.0 mm 0.00 in0.0 mm 0.00 in0.0 mm
05:38 AM 33.8°F1.0°C 31.5°F-0.3°C 91% 4.9 mph SSE7.9 kmh SSE 7.0 mph11.3 kmh 29.96 in1014.6 mb 0.00 in0.0 mm 0.00 in0.0 mm 0.00 in0.0 mm
05:39 AM 33.8°F1.0°C 31.5°F-0.3°C 91% 6.5 mph SSE10.5 kmh SSE 9.0 mph14.5 kmh 29.96 in1014.6 mb 0.00 in0.0 mm 0.00 in0.0 mm 0.00 in0.0 mm
05:40 AM 33.7°F0.9°C 31.4°F-0.3°C 91% 5.6 mph SSE9.0 kmh SSE 9.0 mph14.5 kmh 29.96 in1014.6 mb 0.00 in0.0 mm 0.00 in0.0 mm 0.00 in0.0 mm
05:41 AM 33.7°F0.9°C 31.4°F-0.3°C 91% 6.2 mph SE10.0 kmh SE 9.0 mph14.5 kmh 29.96 in1014.6 mb 0.00 in0.0 mm 0.00 in0.0 mm 0.00 in0.0 mm
05:42 AM 33.7°F0.9°C 31.4°F-0.3°C 91% 4.9 mph SE7.9 kmh SE 9.0 mph14.5 kmh 29.96 in1014.6 mb 0.00 in0.0 mm 0.00 in0.0 mm 0.00 in0.0 mm
05:43 AM 33.7°F0.9°C 31.1°F-0.5°C 90% 5.4 mph SE8.7 kmh SE 8.0 mph12.9 kmh 29.96 in1014.6 mb 0.00 in0.0 mm 0.00 in0.0 mm 0.00 in0.0 mm
05:44 AM 33.7°F0.9°C 31.4°F-0.3°C 91% 6.9 mph SE11.1 kmh SE 10.0 mph16.1 kmh 29.96 in1014.6 mb 0.00 in0.0 mm 0.00 in0.0 mm 0.00 in0.0 mm
05:45 AM 33.8°F1.0°C 31.2°F-0.4°C 90% 8.7 mph SE14.0 kmh SE 12.0 mph19.3 kmh 29.96 in1014.6 mb 0.00 in0.0 mm 0.00 in0.0 mm 0.00 in0.0 mm
05:46 AM 33.8°F1.0°C 31.5°F-0.3°C 91% 5.6 mph SE9.0 kmh SE 12.0 mph19.3 kmh 29.96 in1014.6 mb 0.00 in0.0 mm 0.00 in0.0 mm 0.00 in0.0 mm
05:47 AM 33.8°F1.0°C 31.5°F-0.3°C 91% 7.9 mph SE12.7 kmh SE 11.0 mph17.7 kmh 29.96 in1014.6 mb 0.00 in0.0 mm 0.00 in0.0 mm 0.00 in0.0 mm
05:48 AM 33.8°F1.0°C 31.5°F-0.3°C 91% 7.9 mph SE12.7 kmh SE 11.0 mph17.7 kmh 29.96 in1014.6 mb 0.00 in0.0 mm 0.00 in0.0 mm 0.00 in0.0 mm
05:49 AM 33.9°F1.1°C 31.6°F-0.2°C 91% 7.8 mph SE12.6 kmh SE 10.0 mph16.1 kmh 29.96 in1014.6 mb 0.00 in0.0 mm 0.00 in0.0 mm 0.00 in0.0 mm
05:50 AM 33.8°F1.0°C 31.5°F-0.3°C 91% 9.4 mph SE15.1 kmh SE 13.0 mph20.9 kmh 29.96 in1014.6 mb 0.00 in0.0 mm 0.00 in0.0 mm 0.00 in0.0 mm
05:51 AM 33.8°F1.0°C 31.5°F-0.3°C 91% 6.6 mph SE10.6 kmh SE 13.0 mph20.9 kmh 29.96 in1014.6 mb 0.00 in0.0 mm 0.00 in0.0 mm 0.00 in0.0 mm
05:52 AM 33.9°F1.1°C 31.6°F-0.2°C 91% 6.6 mph SE10.6 kmh SE 11.0 mph17.7 kmh 29.96 in1014.6 mb 0.00 in0.0 mm 0.00 in0.0 mm 0.00 in0.0 mm
05:53 AM 33.9°F1.1°C 31.6°F-0.2°C 91% 8.7 mph SE14.0 kmh SE 12.0 mph19.3 kmh 29.96 in1014.6 mb 0.00 in0.0 mm 0.00 in0.0 mm 0.00 in0.0 mm
05:54 AM 33.9°F1.1°C 31.3°F-0.4°C 90% 7.9 mph SE12.7 kmh SE 12.0 mph19.3 kmh 29.96 in1014.6 mb 0.00 in0.0 mm 0.00 in0.0 mm 0.00 in0.0 mm
05:55 AM 33.9°F1.1°C 31.3°F-0.4°C 90% 7.1 mph SE11.4 kmh SE 11.0 mph17.7 kmh 29.96 in1014.6 mb 0.00 in0.0 mm 0.00 in0.0 mm 0.00 in0.0 mm
05:56 AM 33.9°F1.1°C 31.3°F-0.4°C 90% 6.3 mph SE10.1 kmh SE 10.0 mph16.1 kmh 29.96 in1014.6 mb 0.00 in0.0 mm 0.00 in0.0 mm 0.00 in0.0 mm
05:57 AM 33.9°F1.1°C 31.3°F-0.4°C 90% 7.4 mph SE11.9 kmh SE 10.0 mph16.1 kmh 29.96 in1014.6 mb 0.00 in0.0 mm 0.00 in0.0 mm 0.00 in0.0 mm
05:58 AM 34.0°F1.1°C 31.4°F-0.3°C 90% 5.9 mph SE9.5 kmh SE 10.0 mph16.1 kmh 29.96 in1014.6 mb 0.00 in0.0 mm 0.00 in0.0 mm 0.00 in0.0 mm
05:59 AM 34.0°F1.1°C 31.4°F-0.3°C 90% 9.2 mph SE14.8 kmh SE 13.0 mph20.9 kmh 29.96 in1014.6 mb 0.00 in0.0 mm 0.00 in0.0 mm 0.00 in0.0 mm
06:00 AM 33.9°F1.1°C 31.3°F-0.4°C 90% 6.9 mph SE11.1 kmh SE 13.0 mph20.9 kmh 29.96 in1014.6 mb 0.00 in0.0 mm 0.00 in0.0 mm 0.00 in0.0 mm
06:01 AM 33.9°F1.1°C 31.3°F-0.4°C 90% 7.0 mph SE11.3 kmh SE 10.0 mph16.1 kmh 29.96 in1014.6 mb 0.00 in0.0 mm 0.00 in0.0 mm 0.00 in0.0 mm
06:02 AM 34.0°F1.1°C 31.4°F-0.3°C 90% 7.5 mph SE12.1 kmh SE 12.0 mph19.3 kmh 29.96 in1014.6 mb 0.00 in0.0 mm 0.00 in0.0 mm 0.00 in0.0 mm
06:03 AM 33.9°F1.1°C 31.3°F-0.4°C 90% 8.1 mph SE13.0 kmh SE 12.0 mph19.3 kmh 29.96 in1014.6 mb 0.00 in0.0 mm 0.00 in0.0 mm 0.00 in0.0 mm
06:04 AM 34.0°F1.1°C 31.4°F-0.3°C 90% 7.8 mph SE12.6 kmh SE 11.0 mph17.7 kmh 29.96 in1014.6 mb 0.00 in0.0 mm 0.00 in0.0 mm 0.00 in0.0 mm
06:05 AM 33.9°F1.1°C 31.3°F-0.4°C 90% 7.0 mph SE11.3 kmh SE 10.0 mph16.1 kmh 29.96 in1014.6 mb 0.00 in0.0 mm 0.00 in0.0 mm 0.00 in0.0 mm
06:06 AM 33.9°F1.1°C 31.3°F-0.4°C 90% 8.7 mph SE14.0 kmh SE 11.0 mph17.7 kmh 29.96 in1014.6 mb 0.00 in0.0 mm 0.00 in0.0 mm 0.00 in0.0 mm
06:07 AM 34.0°F1.1°C 31.4°F-0.3°C 90% 8.4 mph SE13.5 kmh SE 12.0 mph19.3 kmh 29.96 in1014.6 mb 0.00 in0.0 mm 0.00 in0.0 mm 0.00 in0.0 mm
06:08 AM 34.0°F1.1°C 31.4°F-0.3°C 90% 10.0 mph SE16.1 kmh SE 13.0 mph20.9 kmh 29.96 in1014.6 mb 0.00 in0.0 mm 0.00 in0.0 mm 0.00 in0.0 mm
06:09 AM 34.0°F1.1°C 31.4°F-0.3°C 90% 7.5 mph SE12.1 kmh SE 13.0 mph20.9 kmh 29.96 in1014.6 mb 0.00 in0.0 mm 0.00 in0.0 mm 0.00 in0.0 mm
06:10 AM 33.9°F1.1°C 31.3°F-0.4°C 90% 7.2 mph SE11.6 kmh SE 11.0 mph17.7 kmh 29.96 in1014.6 mb 0.00 in0.0 mm 0.00 in0.0 mm 0.00 in0.0 mm
06:11 AM 34.0°F1.1°C 31.4°F-0.3°C 90% 8.9 mph SE14.3 kmh SE 12.0 mph19.3 kmh 29.96 in1014.6 mb 0.00 in0.0 mm 0.00 in0.0 mm 0.00 in0.0 mm
06:12 AM 34.0°F1.1°C 31.4°F-0.3°C 90% 6.9 mph SE11.1 kmh SE 12.0 mph19.3 kmh 29.96 in1014.6 mb 0.00 in0.0 mm 0.00 in0.0 mm 0.00 in0.0 mm
06:13 AM 34.0°F1.1°C 31.4°F-0.3°C 90% 8.4 mph SE13.5 kmh SE 10.0 mph16.1 kmh 29.96 in1014.6 mb 0.00 in0.0 mm 0.00 in0.0 mm 0.00 in0.0 mm
06:14 AM 34.0°F1.1°C 31.4°F-0.3°C 90% 6.0 mph SE9.7 kmh SE 10.0 mph16.1 kmh 29.96 in1014.6 mb 0.00 in0.0 mm 0.00 in0.0 mm 0.00 in0.0 mm
06:15 AM 34.0°F1.1°C 31.4°F-0.3°C 90% 7.0 mph SE11.3 kmh SE 11.0 mph17.7 kmh 29.96 in1014.6 mb 0.00 in0.0 mm 0.00 in0.0 mm 0.00 in0.0 mm
06:16 AM 34.0°F1.1°C 31.4°F-0.3°C 90% 7.0 mph SE11.3 kmh SE 11.0 mph17.7 kmh 29.96 in1014.6 mb 0.00 in0.0 mm 0.00 in0.0 mm 0.00 in0.0 mm
06:17 AM 33.9°F1.1°C 31.3°F-0.4°C 90% 9.8 mph SE15.8 kmh SE 12.0 mph19.3 kmh 29.96 in1014.6 mb 0.00 in0.0 mm 0.00 in0.0 mm 0.00 in0.0 mm
06:18 AM 34.0°F1.1°C 31.4°F-0.3°C 90% 10.7 mph SE17.2 kmh SE 13.0 mph20.9 kmh 29.96 in1014.6 mb 0.00 in0.0 mm 0.00 in0.0 mm 0.00 in0.0 mm
06:19 AM 33.9°F1.1°C 31.3°F-0.4°C 90% 8.5 mph SE13.7 kmh SE 13.0 mph20.9 kmh 29.96 in1014.6 mb 0.00 in0.0 mm 0.00 in0.0 mm 0.00 in0.0 mm
06:20 AM 34.0°F1.1°C 31.4°F-0.3°C 90% 5.5 mph SE8.9 kmh SE 12.0 mph19.3 kmh 29.96 in1014.6 mb 0.00 in0.0 mm 0.00 in0.0 mm 0.00 in0.0 mm
06:21 AM 34.0°F1.1°C 31.4°F-0.3°C 90% 7.0 mph SE11.3 kmh SE 10.0 mph16.1 kmh 29.96 in1014.6 mb 0.00 in0.0 mm 0.00 in0.0 mm 0.00 in0.0 mm
06:22 AM 34.0°F1.1°C 31.4°F-0.3°C 90% 7.8 mph SE12.6 kmh SE 11.0 mph17.7 kmh 29.96 in1014.6 mb 0.00 in0.0 mm 0.00 in0.0 mm 0.00 in0.0 mm
06:23 AM 34.0°F1.1°C 31.4°F-0.3°C 90% 7.0 mph SE11.3 kmh SE 11.0 mph17.7 kmh 29.96 in1014.6 mb 0.00 in0.0 mm 0.00 in0.0 mm 0.00 in0.0 mm
06:24 AM 34.0°F1.1°C 31.4°F-0.3°C 90% 8.5 mph SE13.7 kmh SE 10.0 mph16.1 kmh 29.96 in1014.6 mb 0.00 in0.0 mm 0.00 in0.0 mm 0.00 in0.0 mm
06:25 AM 34.0°F1.1°C 31.4°F-0.3°C 90% 7.0 mph SE11.3 kmh SE 10.0 mph16.1 kmh 29.96 in1014.6 mb 0.00 in0.0 mm 0.00 in0.0 mm 0.00 in0.0 mm
06:26 AM 34.0°F1.1°C 31.4°F-0.3°C 90% 9.9 mph SE15.9 kmh SE 12.0 mph19.3 kmh 29.96 in1014.6 mb 0.00 in0.0 mm 0.00 in0.0 mm 0.00 in0.0 mm
06:27 AM 34.0°F1.1°C 31.4°F-0.3°C 90% 10.4 mph SE16.7 kmh SE 13.0 mph20.9 kmh 29.96 in1014.6 mb 0.00 in0.0 mm 0.00 in0.0 mm 0.00 in0.0 mm
06:28 AM 34.0°F1.1°C 31.4°F-0.3°C 90% 8.7 mph SE14.0 kmh SE 13.0 mph20.9 kmh 29.96 in1014.6 mb 0.00 in0.0 mm 0.00 in0.0 mm 0.00 in0.0 mm
06:29 AM 34.0°F1.1°C 31.4°F-0.3°C 90% 8.2 mph SE13.2 kmh SE 11.0 mph17.7 kmh 29.96 in1014.6 mb 0.00 in0.0 mm 0.00 in0.0 mm 0.00 in0.0 mm
06:30 AM 34.0°F1.1°C 31.4°F-0.3°C 90% 7.6 mph SE12.2 kmh SE 11.0 mph17.7 kmh 29.96 in1014.6 mb 0.00 in0.0 mm 0.00 in0.0 mm 0.00 in0.0 mm
06:31 AM 34.0°F1.1°C 31.4°F-0.3°C 90% 8.0 mph SE12.9 kmh SE 11.0 mph17.7 kmh 29.96 in1014.6 mb 0.00 in0.0 mm 0.00 in0.0 mm 0.00 in0.0 mm
06:32 AM 34.0°F1.1°C 31.4°F-0.3°C 90% 8.2 mph SE13.2 kmh SE 11.0 mph17.7 kmh 29.96 in1014.6 mb 0.00 in0.0 mm 0.00 in0.0 mm 0.00 in0.0 mm
06:33 AM 34.1°F1.2°C 31.5°F-0.3°C 90% 8.9 mph SE14.3 kmh SE 12.0 mph19.3 kmh 29.96 in1014.6 mb 0.00 in0.0 mm 0.00 in0.0 mm 0.00 in0.0 mm
06:34 AM 34.1°F1.2°C 31.5°F-0.3°C 90% 9.4 mph SE15.1 kmh SE 12.0 mph19.3 kmh 29.96 in1014.6 mb 0.00 in0.0 mm 0.00 in0.0 mm 0.00 in0.0 mm
06:35 AM 34.1°F1.2°C 31.5°F-0.3°C 90% 6.8 mph SSE10.9 kmh SSE 11.0 mph17.7 kmh 29.96 in1014.6 mb 0.00 in0.0 mm 0.00 in0.0 mm 0.00 in0.0 mm
06:36 AM 34.1°F1.2°C 31.5°F-0.3°C 90% 8.1 mph SE13.0 kmh SE 11.0 mph17.7 kmh 29.96 in1014.6 mb 0.00 in0.0 mm 0.00 in0.0 mm 0.00 in0.0 mm
06:37 AM 34.1°F1.2°C 31.5°F-0.3°C 90% 8.1 mph SSE13.0 kmh SSE 12.0 mph19.3 kmh 29.96 in1014.6 mb 0.00 in0.0 mm 0.00 in0.0 mm 0.00 in0.0 mm
06:38 AM 34.1°F1.2°C 31.5°F-0.3°C 90% 7.3 mph SE11.7 kmh SE 12.0 mph19.3 kmh 29.96 in1014.6 mb 0.00 in0.0 mm 0.00 in0.0 mm 0.00 in0.0 mm
06:39 AM 34.1°F1.2°C 31.5°F-0.3°C 90% 7.0 mph SE11.3 kmh SE 10.0 mph16.1 kmh 29.96 in1014.6 mb 0.00 in0.0 mm 0.00 in0.0 mm 0.00 in0.0 mm
06:40 AM 34.1°F1.2°C 31.5°F-0.3°C 90% 8.5 mph SE13.7 kmh SE 11.0 mph17.7 kmh 29.96 in1014.6 mb 0.00 in0.0 mm 0.00 in0.0 mm 0.00 in0.0 mm
06:41 AM 34.2°F1.2°C 31.6°F-0.2°C 90% 7.5 mph SE12.1 kmh SE 11.0 mph17.7 kmh 29.96 in1014.6 mb 0.00 in0.0 mm 0.00 in0.0 mm 0.00 in0.0 mm
06:42 AM 34.1°F1.2°C 31.5°F-0.3°C 90% 8.6 mph SSE13.8 kmh SSE 13.0 mph20.9 kmh 29.97 in1014.9 mb 0.00 in0.0 mm 0.00 in0.0 mm 0.00 in0.0 mm
06:43 AM 34.1°F1.2°C 31.2°F-0.4°C 89% 7.1 mph SSE11.4 kmh SSE 13.0 mph20.9 kmh 29.97 in1014.9 mb 0.00 in0.0 mm 0.00 in0.0 mm 0.00 in0.0 mm
06:44 AM 34.2°F1.2°C 31.3°F-0.4°C 89% 6.4 mph SSE10.3 kmh SSE 10.0 mph16.1 kmh 29.97 in1014.9 mb 0.00 in0.0 mm 0.00 in0.0 mm 0.00 in0.0 mm
06:45 AM 34.1°F1.2°C 31.2°F-0.4°C 89% 5.8 mph SSE9.3 kmh SSE 10.0 mph16.1 kmh 29.97 in1014.9 mb 0.00 in0.0 mm 0.00 in0.0 mm 0.00 in0.0 mm
06:46 AM 34.1°F1.2°C 31.2°F-0.4°C 89% 4.9 mph SSE7.9 kmh SSE 8.0 mph12.9 kmh 29.97 in1014.9 mb 0.00 in0.0 mm 0.00 in0.0 mm 0.00 in0.0 mm
06:47 AM 34.2°F1.2°C 31.3°F-0.4°C 89% 5.5 mph SE8.9 kmh SE 9.0 mph14.5 kmh 29.97 in1014.9 mb 0.00 in0.0 mm 0.00 in0.0 mm 0.00 in0.0 mm
06:48 AM 34.1°F1.2°C 31.2°F-0.4°C 89% 6.5 mph SSE10.5 kmh SSE 9.0 mph14.5 kmh 29.97 in1014.9 mb 0.00 in0.0 mm 0.00 in0.0 mm 0.00 in0.0 mm
06:49 AM 34.1°F1.2°C 31.2°F-0.4°C 89% 8.1 mph SSE13.0 kmh SSE 12.0 mph19.3 kmh 29.97 in1014.9 mb 0.00 in0.0 mm 0.00 in0.0 mm 0.00 in0.0 mm
06:50 AM 34.2°F1.2°C 31.3°F-0.4°C 89% 4.9 mph SSE7.9 kmh SSE 12.0 mph19.3 kmh 29.97 in1014.9 mb 0.00 in0.0 mm 0.00 in0.0 mm 0.00 in0.0 mm
06:51 AM 34.2°F1.2°C 31.3°F-0.4°C 89% 8.3 mph SE13.4 kmh SE 10.0 mph16.1 kmh 29.97 in1014.9 mb 0.00 in0.0 mm 0.00 in0.0 mm 0.00 in0.0 mm
06:52 AM 34.2°F1.2°C 31.3°F-0.4°C 89% 8.8 mph SE14.2 kmh SE 11.0 mph17.7 kmh 29.97 in1014.9 mb 0.00 in0.0 mm 0.00 in0.0 mm 0.00 in0.0 mm
06:53 AM 34.2°F1.2°C 31.3°F-0.4°C 89% 8.6 mph SE13.8 kmh SE 12.0 mph19.3 kmh 29.97 in1014.9 mb 0.00 in0.0 mm 0.00 in0.0 mm 0.00 in0.0 mm
06:54 AM 34.1°F1.2°C 31.2°F-0.4°C 89% 8.9 mph SE14.3 kmh SE 12.0 mph19.3 kmh 29.97 in1014.9 mb 0.00 in0.0 mm 0.00 in0.0 mm 0.00 in0.0 mm
06:55 AM 34.1°F1.2°C 31.2°F-0.4°C 89% 7.5 mph SE12.1 kmh SE 11.0 mph17.7 kmh 29.97 in1014.9 mb 0.00 in0.0 mm 0.00 in0.0 mm 0.00 in0.0 mm
06:56 AM 34.1°F1.2°C 31.2°F-0.4°C 89% 6.8 mph SSE10.9 kmh SSE 11.0 mph17.7 kmh 29.97 in1014.9 mb 0.00 in0.0 mm 0.00 in0.0 mm 0.00 in0.0 mm
06:57 AM 34.1°F1.2°C 31.2°F-0.4°C 89% 6.3 mph SE10.1 kmh SE 10.0 mph16.1 kmh 29.97 in1014.9 mb 0.00 in0.0 mm 0.00 in0.0 mm 0.00 in0.0 mm
06:58 AM 34.1°F1.2°C 31.2°F-0.4°C 89% 7.4 mph SE11.9 kmh SE 9.0 mph14.5 kmh 29.97 in1014.9 mb 0.00 in0.0 mm 0.00 in0.0 mm 0.00 in0.0 mm
06:59 AM 34.1°F1.2°C 31.2°F-0.4°C 89% 7.2 mph SE11.6 kmh SE 11.0 mph17.7 kmh 29.97 in1014.9 mb 0.00 in0.0 mm 0.00 in0.0 mm 0.00 in0.0 mm
07:00 AM 34.1°F1.2°C 31.2°F-0.4°C 89% 6.2 mph SE10.0 kmh SE 11.0 mph17.7 kmh 29.97 in1014.9 mb 0.00 in0.0 mm 0.00 in0.0 mm 0.00 in0.0 mm
07:01 AM 34.1°F1.2°C 31.2°F-0.4°C 89% 7.8 mph SE12.6 kmh SE 11.0 mph17.7 kmh 29.97 in1014.9 mb 0.00 in0.0 mm 0.00 in0.0 mm 0.00 in0.0 mm
07:02 AM 34.1°F1.2°C 31.2°F-0.4°C 89% 8.9 mph SE14.3 kmh SE 13.0 mph20.9 kmh 29.97 in1014.9 mb 0.00 in0.0 mm 0.00 in0.0 mm 0.00 in0.0 mm
07:03 AM 34.1°F1.2°C 31.2°F-0.4°C 89% 7.6 mph SE12.2 kmh SE 13.0 mph20.9 kmh 29.97 in1014.9 mb 0.00 in0.0 mm 0.00 in0.0 mm 0.00 in0.0 mm
07:04 AM 34.1°F1.2°C 31.2°F-0.4°C 89% 8.1 mph SE13.0 kmh SE 11.0 mph17.7 kmh 29.97 in1014.9 mb 0.00 in0.0 mm 0.00 in0.0 mm 0.00 in0.0 mm
07:05 AM 34.1°F1.2°C 31.2°F-0.4°C 89% 7.3 mph SE11.7 kmh SE 11.0 mph17.7 kmh 29.97 in1014.9 mb 0.00 in0.0 mm 0.00 in0.0 mm 0.00 in0.0 mm
07:06 AM 34.1°F1.2°C 31.2°F-0.4°C 89% 8.5 mph SE13.7 kmh SE 11.0 mph17.7 kmh 29.97 in1014.9 mb 0.00 in0.0 mm 0.00 in0.0 mm 0.00 in0.0 mm
07:07 AM 34.2°F1.2°C 31.3°F-0.4°C 89% 7.0 mph SE11.3 kmh SE 10.0 mph16.1 kmh 29.97 in1014.9 mb 0.00 in0.0 mm 0.00 in0.0 mm 0.00 in0.0 mm
07:08 AM 34.1°F1.2°C 31.2°F-0.4°C 89% 7.2 mph SE11.6 kmh SE 10.0 mph16.1 kmh 29.97 in1014.9 mb 0.00 in0.0 mm 0.00 in0.0 mm 0.00 in0.0 mm
07:09 AM 34.2°F1.2°C 31.3°F-0.4°C 89% 6.6 mph SE10.6 kmh SE 10.0 mph16.1 kmh 29.97 in1014.9 mb 0.00 in0.0 mm 0.00 in0.0 mm 0.00 in0.0 mm
07:10 AM 34.1°F1.2°C 31.2°F-0.4°C 89% 6.4 mph SSE10.3 kmh SSE 9.0 mph14.5 kmh 29.97 in1014.9 mb 0.00 in0.0 mm 0.00 in0.0 mm 0.00 in0.0 mm
07:11 AM 34.2°F1.2°C 31.3°F-0.4°C 89% 5.8 mph SSE9.3 kmh SSE 9.0 mph14.5 kmh 29.97 in1014.9 mb 0.00 in0.0 mm 0.00 in0.0 mm 0.00 in0.0 mm
07:12 AM 34.2°F1.2°C 31.3°F-0.4°C 89% 6.5 mph SE10.5 kmh SE 9.0 mph14.5 kmh 29.97 in1014.9 mb 0.00 in0.0 mm 0.00 in0.0 mm 0.00 in0.0 mm
07:13 AM 34.2°F1.2°C 31.3°F-0.4°C 89% 8.8 mph SSE14.2 kmh SSE 13.0 mph20.9 kmh 29.97 in1014.9 mb 0.00 in0.0 mm 0.00 in0.0 mm 0.00 in0.0 mm
07:14 AM 34.2°F1.2°C 31.3°F-0.4°C 89% 6.5 mph SSE10.5 kmh SSE 13.0 mph20.9 kmh 29.97 in1014.9 mb 0.00 in0.0 mm 0.00 in0.0 mm 0.00 in0.0 mm
07:15 AM 34.3°F1.3°C 31.4°F-0.3°C 89% 5.9 mph SSE9.5 kmh SSE 10.0 mph16.1 kmh 29.97 in1014.9 mb 0.00 in0.0 mm 0.00 in0.0 mm 0.00 in0.0 mm
07:16 AM 34.2°F1.2°C 31.3°F-0.4°C 89% 6.5 mph SE10.5 kmh SE 10.0 mph16.1 kmh 29.97 in1014.9 mb 0.00 in0.0 mm 0.00 in0.0 mm 0.00 in0.0 mm
07:17 AM 34.2°F1.2°C 31.3°F-0.4°C 89% 7.1 mph SE11.4 kmh SE 10.0 mph16.1 kmh 29.97 in1014.9 mb 0.00 in0.0 mm 0.00 in0.0 mm 0.00 in0.0 mm
07:18 AM 34.3°F1.3°C 31.4°F-0.3°C 89% 5.0 mph SSE8.0 kmh SSE 10.0 mph16.1 kmh 29.97 in1014.9 mb 0.00 in0.0 mm 0.00 in0.0 mm 0.00 in0.0 mm
07:19 AM 34.3°F1.3°C 31.4°F-0.3°C 89% 5.6 mph SSE9.0 kmh SSE 8.0 mph12.9 kmh 29.97 in1014.9 mb 0.00 in0.0 mm 0.00 in0.0 mm 0.00 in0.0 mm
07:20 AM 34.3°F1.3°C 31.4°F-0.3°C 89% 4.8 mph SE7.7 kmh SE 8.0 mph12.9 kmh 29.97 in1014.9 mb 0.00 in0.0 mm 0.00 in0.0 mm 0.00 in0.0 mm
07:21 AM 34.3°F1.3°C 31.4°F-0.3°C 89% 9.7 mph SE15.6 kmh SE 12.0 mph19.3 kmh 29.97 in1014.9 mb 0.00 in0.0 mm 0.00 in0.0 mm 0.00 in0.0 mm
07:22 AM 34.3°F1.3°C 31.4°F-0.3°C 89% 8.4 mph SE13.5 kmh SE 12.0 mph19.3 kmh 29.97 in1014.9 mb 0.00 in0.0 mm 0.00 in0.0 mm 0.00 in0.0 mm
07:23 AM 34.3°F1.3°C 31.4°F-0.3°C 89% 8.5 mph SSE13.7 kmh SSE 12.0 mph19.3 kmh 29.97 in1014.9 mb 0.00 in0.0 mm 0.00 in0.0 mm 0.00 in0.0 mm
07:24 AM 34.3°F1.3°C 31.4°F-0.3°C 89% 7.5 mph SE12.1 kmh SE 11.0 mph17.7 kmh 29.97 in1014.9 mb 0.00 in0.0 mm 0.00 in0.0 mm 0.00 in0.0 mm
07:25 AM 34.4°F1.3°C 31.5°F-0.3°C 89% 5.1 mph SE8.2 kmh SE 10.0 mph16.1 kmh 29.96 in1014.6 mb 0.00 in0.0 mm 0.00 in0.0 mm 0.00 in0.0 mm
07:26 AM 34.4°F1.3°C 31.5°F-0.3°C 89% 8.1 mph SE13.0 kmh SE 11.0 mph17.7 kmh 29.96 in1014.6 mb 0.00 in0.0 mm 0.00 in0.0 mm 0.00 in0.0 mm
07:27 AM 34.3°F1.3°C 31.4°F-0.3°C 89% 8.4 mph SE13.5 kmh SE 11.0 mph17.7 kmh 29.96 in1014.6 mb 0.00 in0.0 mm 0.00 in0.0 mm 0.00 in0.0 mm
07:28 AM 34.4°F1.3°C 31.5°F-0.3°C 89% 9.8 mph SE15.8 kmh SE 13.0 mph20.9 kmh 29.96 in1014.6 mb 0.00 in0.0 mm 0.00 in0.0 mm 0.00 in0.0 mm
07:29 AM 34.4°F1.3°C 31.5°F-0.3°C 89% 10.8 mph SE17.4 kmh SE 13.0 mph20.9 kmh 29.96 in1014.6 mb 0.00 in0.0 mm 0.00 in0.0 mm 0.00 in0.0 mm
07:30 AM 34.4°F1.3°C 31.5°F-0.3°C 89% 7.7 mph SE12.4 kmh SE 12.0 mph19.3 kmh 29.96 in1014.6 mb 0.00 in0.0 mm 0.00 in0.0 mm 0.00 in0.0 mm
07:31 AM 34.4°F1.3°C 31.5°F-0.3°C 89% 8.5 mph SE13.7 kmh SE 11.0 mph17.7 kmh 29.96 in1014.6 mb 0.00 in0.0 mm 0.00 in0.0 mm 0.00 in0.0 mm
07:32 AM 34.4°F1.3°C 31.5°F-0.3°C 89% 9.5 mph SE15.3 kmh SE 12.0 mph19.3 kmh 29.96 in1014.6 mb 0.00 in0.0 mm 0.00 in0.0 mm 0.00 in0.0 mm
07:33 AM 34.4°F1.3°C 31.5°F-0.3°C 89% 8.8 mph SE14.2 kmh SE 12.0 mph19.3 kmh 29.96 in1014.6 mb 0.00 in0.0 mm 0.00 in0.0 mm 0.00 in0.0 mm
07:34 AM 34.4°F1.3°C 31.5°F-0.3°C 89% 8.1 mph SE13.0 kmh SE 12.0 mph19.3 kmh 29.96 in1014.6 mb 0.00 in0.0 mm 0.00 in0.0 mm 0.00 in0.0 mm
07:35 AM 34.4°F1.3°C 31.5°F-0.3°C 89% 7.7 mph SE12.4 kmh SE 10.0 mph16.1 kmh 29.96 in1014.6 mb 0.00 in0.0 mm 0.00 in0.0 mm 0.00 in0.0 mm
07:36 AM 34.3°F1.3°C 31.4°F-0.3°C 89% 9.3 mph SE15.0 kmh SE 11.0 mph17.7 kmh 29.96 in1014.6 mb 0.00 in0.0 mm 0.00 in0.0 mm 0.00 in0.0 mm
07:37 AM 34.3°F1.3°C 31.4°F-0.3°C 89% 7.5 mph SE12.1 kmh SE 11.0 mph17.7 kmh 29.96 in1014.6 mb 0.00 in0.0 mm 0.00 in0.0 mm 0.00 in0.0 mm
07:38 AM 34.3°F1.3°C 31.4°F-0.3°C 89% 8.4 mph SE13.5 kmh SE 11.0 mph17.7 kmh 29.96 in1014.6 mb 0.00 in0.0 mm 0.00 in0.0 mm 0.00 in0.0 mm
07:39 AM 34.3°F1.3°C 31.4°F-0.3°C 89% 7.8 mph SE12.6 kmh SE 11.0 mph17.7 kmh 29.96 in1014.6 mb 0.00 in0.0 mm 0.00 in0.0 mm 0.00 in0.0 mm
07:40 AM 34.3°F1.3°C 31.4°F-0.3°C 89% 8.9 mph SE14.3 kmh SE 12.0 mph19.3 kmh 29.96 in1014.6 mb 0.00 in0.0 mm 0.00 in0.0 mm 0.00 in0.0 mm
07:41 AM 34.3°F1.3°C 31.4°F-0.3°C 89% 9.5 mph SE15.3 kmh SE 12.0 mph19.3 kmh 29.96 in1014.6 mb 0.00 in0.0 mm 0.00 in0.0 mm 0.00 in0.0 mm
07:42 AM 34.3°F1.3°C 31.4°F-0.3°C 89% 10.5 mph SE16.9 kmh SE 13.0 mph20.9 kmh 29.96 in1014.6 mb 0.00 in0.0 mm 0.00 in0.0 mm 0.00 in0.0 mm
07:43 AM 34.2°F1.2°C 31.3°F-0.4°C 89% 9.6 mph SE15.4 kmh SE 13.0 mph20.9 kmh 29.96 in1014.6 mb 0.00 in0.0 mm 0.00 in0.0 mm 0.00 in0.0 mm
07:44 AM 34.3°F1.3°C 31.4°F-0.3°C 89% 8.5 mph SE13.7 kmh SE 13.0 mph20.9 kmh 29.96 in1014.6 mb 0.00 in0.0 mm 0.00 in0.0 mm 0.00 in0.0 mm
07:45 AM 34.3°F1.3°C 31.4°F-0.3°C 89% 8.0 mph SSE12.9 kmh SSE 13.0 mph20.9 kmh 29.96 in1014.6 mb 0.00 in0.0 mm 0.00 in0.0 mm 0.00 in0.0 mm
07:46 AM 34.2°F1.2°C 31.3°F-0.4°C 89% 9.7 mph SE15.6 kmh SE 14.0 mph22.5 kmh 29.96 in1014.6 mb 0.00 in0.0 mm 0.00 in0.0 mm 0.00 in0.0 mm
07:47 AM 34.3°F1.3°C 31.4°F-0.3°C 89% 8.8 mph SE14.2 kmh SE 14.0 mph22.5 kmh 29.96 in1014.6 mb 0.00 in0.0 mm 0.00 in0.0 mm 0.00 in0.0 mm
07:48 AM 34.3°F1.3°C 31.4°F-0.3°C 89% 7.5 mph SSE12.1 kmh SSE 12.0 mph19.3 kmh 29.96 in1014.6 mb 0.00 in0.0 mm 0.00 in0.0 mm 0.00 in0.0 mm
07:49 AM 34.3°F1.3°C 31.4°F-0.3°C 89% 10.2 mph SSE16.4 kmh SSE 14.0 mph22.5 kmh 29.96 in1014.6 mb 0.00 in0.0 mm 0.00 in0.0 mm 0.00 in0.0 mm
07:50 AM 34.3°F1.3°C 31.4°F-0.3°C 89% 7.0 mph SE11.3 kmh SE 14.0 mph22.5 kmh 29.96 in1014.6 mb 0.00 in0.0 mm 0.00 in0.0 mm 0.00 in0.0 mm
07:51 AM 34.3°F1.3°C 31.4°F-0.3°C 89% 7.1 mph SE11.4 kmh SE 10.0 mph16.1 kmh 29.96 in1014.6 mb 0.00 in0.0 mm 0.00 in0.0 mm 0.00 in0.0 mm
07:52 AM 34.3°F1.3°C 31.4°F-0.3°C 89% 8.5 mph SE13.7 kmh SE 14.0 mph22.5 kmh 29.96 in1014.6 mb 0.00 in0.0 mm 0.00 in0.0 mm 0.00 in0.0 mm
07:53 AM 34.3°F1.3°C 31.4°F-0.3°C 89% 8.2 mph SE13.2 kmh SE 14.0 mph22.5 kmh 29.96 in1014.6 mb 0.00 in0.0 mm 0.00 in0.0 mm 0.00 in0.0 mm
07:54 AM 34.3°F1.3°C 31.4°F-0.3°C 89% 8.2 mph SE13.2 kmh SE 12.0 mph19.3 kmh 29.96 in1014.6 mb 0.00 in0.0 mm 0.00 in0.0 mm 0.00 in0.0 mm
07:55 AM 34.3°F1.3°C 31.4°F-0.3°C 89% 5.7 mph SE9.2 kmh SE 11.0 mph17.7 kmh 29.96 in1014.6 mb 0.00 in0.0 mm 0.00 in0.0 mm 0.00 in0.0 mm
07:56 AM 34.3°F1.3°C 31.4°F-0.3°C 89% 6.5 mph SE10.5 kmh SE 8.0 mph12.9 kmh 29.96 in1014.6 mb 0.00 in0.0 mm 0.00 in0.0 mm 0.00 in0.0 mm
07:57 AM 34.3°F1.3°C 31.4°F-0.3°C 89% 8.9 mph SE14.3 kmh SE 12.0 mph19.3 kmh 29.96 in1014.6 mb 0.00 in0.0 mm 0.00 in0.0 mm 0.00 in0.0 mm
07:58 AM 34.4°F1.3°C 31.5°F-0.3°C 89% 8.4 mph SSE13.5 kmh SSE 12.0 mph19.3 kmh 29.96 in1014.6 mb 0.00 in0.0 mm 0.00 in0.0 mm 0.00 in0.0 mm
07:59 AM 34.3°F1.3°C 31.4°F-0.3°C 89% 8.6 mph SE13.8 kmh SE 13.0 mph20.9 kmh 29.96 in1014.6 mb 0.00 in0.0 mm 0.00 in0.0 mm 0.00 in0.0 mm
08:00 AM 34.3°F1.3°C 31.7°F-0.2°C 90% 7.7 mph SE12.4 kmh SE 13.0 mph20.9 kmh 29.96 in1014.6 mb 0.00 in0.0 mm 0.00 in0.0 mm 0.00 in0.0 mm
08:01 AM 34.3°F1.3°C 31.7°F-0.2°C 90% 9.3 mph SE15.0 kmh SE 12.0 mph19.3 kmh 29.96 in1014.6 mb 0.00 in0.0 mm 0.00 in0.0 mm 0.00 in0.0 mm
08:02 AM 34.3°F1.3°C 31.4°F-0.3°C 89% 9.1 mph SE14.6 kmh SE 12.0 mph19.3 kmh 29.96 in1014.6 mb 0.00 in0.0 mm 0.00 in0.0 mm 0.00 in0.0 mm
08:03 AM 34.3°F1.3°C 31.4°F-0.3°C 89% 9.1 mph SE14.6 kmh SE 12.0 mph19.3 kmh 29.96 in1014.6 mb 0.00 in0.0 mm 0.00 in0.0 mm 0.00 in0.0 mm
08:04 AM 34.3°F1.3°C 31.7°F-0.2°C 90% 8.9 mph SE14.3 kmh SE 14.0 mph22.5 kmh 29.96 in1014.6 mb 0.00 in0.0 mm 0.00 in0.0 mm 0.00 in0.0 mm
08:05 AM 34.3°F1.3°C 31.7°F-0.2°C 90% 8.3 mph SE13.4 kmh SE 14.0 mph22.5 kmh 29.96 in1014.6 mb 0.00 in0.0 mm 0.00 in0.0 mm 0.00 in0.0 mm
08:06 AM 34.3°F1.3°C 31.4°F-0.3°C 89% 9.4 mph SE15.1 kmh SE 13.0 mph20.9 kmh 29.96 in1014.6 mb 0.00 in0.0 mm 0.00 in0.0 mm 0.00 in0.0 mm
08:07 AM 34.3°F1.3°C 31.7°F-0.2°C 90% 9.3 mph SE15.0 kmh SE 13.0 mph20.9 kmh 29.96 in1014.6 mb 0.00 in0.0 mm 0.00 in0.0 mm 0.00 in0.0 mm
08:08 AM 34.3°F1.3°C 31.7°F-0.2°C 90% 9.8 mph SE15.8 kmh SE 14.0 mph22.5 kmh 29.96 in1014.6 mb 0.00 in0.0 mm 0.00 in0.0 mm 0.00 in0.0 mm
08:09 AM 34.3°F1.3°C 31.7°F-0.2°C 90% 8.5 mph SE13.7 kmh SE 14.0 mph22.5 kmh 29.96 in1014.6 mb 0.00 in0.0 mm 0.00 in0.0 mm 0.00 in0.0 mm
08:10 AM 34.4°F1.3°C 31.8°F-0.1°C 90% 8.7 mph SE14.0 kmh SE 13.0 mph20.9 kmh 29.96 in1014.6 mb 0.00 in0.0 mm 0.00 in0.0 mm 0.00 in0.0 mm
08:11 AM 34.3°F1.3°C 31.7°F-0.2°C 90% 9.1 mph SE14.6 kmh SE 12.0 mph19.3 kmh 29.96 in1014.6 mb 0.00 in0.0 mm 0.00 in0.0 mm 0.00 in0.0 mm
08:12 AM 34.3°F1.3°C 31.7°F-0.2°C 90% 7.5 mph SE12.1 kmh SE 12.0 mph19.3 kmh 29.96 in1014.6 mb 0.00 in0.0 mm 0.00 in0.0 mm 0.00 in0.0 mm
08:13 AM 34.3°F1.3°C 31.7°F-0.2°C 90% 7.2 mph SSE11.6 kmh SSE 10.0 mph16.1 kmh 29.96 in1014.6 mb 0.00 in0.0 mm 0.00 in0.0 mm 0.00 in0.0 mm
08:14 AM 34.3°F1.3°C 31.7°F-0.2°C 90% 6.3 mph SSE10.1 kmh SSE 9.0 mph14.5 kmh 29.96 in1014.6 mb 0.00 in0.0 mm 0.00 in0.0 mm 0.00 in0.0 mm
08:15 AM 34.4°F1.3°C 31.8°F-0.1°C 90% 6.9 mph SSE11.1 kmh SSE 10.0 mph16.1 kmh 29.97 in1014.9 mb 0.00 in0.0 mm 0.00 in0.0 mm 0.00 in0.0 mm
08:16 AM 34.4°F1.3°C 31.8°F-0.1°C 90% 6.2 mph SSE10.0 kmh SSE 10.0 mph16.1 kmh 29.97 in1014.9 mb 0.00 in0.0 mm 0.00 in0.0 mm 0.00 in0.0 mm
08:17 AM 34.4°F1.3°C 31.8°F-0.1°C 90% 7.9 mph SSE12.7 kmh SSE 12.0 mph19.3 kmh 29.97 in1014.9 mb 0.00 in0.0 mm 0.00 in0.0 mm 0.00 in0.0 mm
08:18 AM 34.4°F1.3°C 31.8°F-0.1°C 90% 6.5 mph S10.5 kmh S 12.0 mph19.3 kmh 29.97 in1014.9 mb 0.00 in0.0 mm 0.00 in0.0 mm 0.00 in0.0 mm
08:19 AM 34.4°F1.3°C 31.8°F-0.1°C 90% 5.5 mph SSE8.9 kmh SSE 11.0 mph17.7 kmh 29.97 in1014.9 mb 0.00 in0.0 mm 0.00 in0.0 mm 0.00 in0.0 mm
08:20 AM 34.4°F1.3°C 31.8°F-0.1°C 90% 5.7 mph SSE9.2 kmh SSE 10.0 mph16.1 kmh 29.97 in1014.9 mb 0.00 in0.0 mm 0.00 in0.0 mm 0.00 in0.0 mm
08:21 AM 34.4°F1.3°C 31.8°F-0.1°C 90% 8.8 mph SSE14.2 kmh SSE 14.0 mph22.5 kmh 29.97 in1014.9 mb 0.00 in0.0 mm 0.00 in0.0 mm 0.00 in0.0 mm
08:22 AM 34.4°F1.3°C 31.8°F-0.1°C 90% 5.7 mph SSE9.2 kmh SSE 14.0 mph22.5 kmh 29.97 in1014.9 mb 0.00 in0.0 mm 0.00 in0.0 mm 0.00 in0.0 mm
08:23 AM 34.4°F1.3°C 31.8°F-0.1°C 90% 8.8 mph SSE14.2 kmh SSE 13.0 mph20.9 kmh 29.97 in1014.9 mb 0.00 in0.0 mm 0.00 in0.0 mm 0.00 in0.0 mm
08:24 AM 34.4°F1.3°C 31.8°F-0.1°C 90% 7.6 mph S12.2 kmh S 13.0 mph20.9 kmh 29.97 in1014.9 mb 0.00 in0.0 mm 0.00 in0.0 mm 0.00 in0.0 mm
08:25 AM 34.4°F1.3°C 31.8°F-0.1°C 90% 5.8 mph SSE9.3 kmh SSE 11.0 mph17.7 kmh 29.97 in1014.9 mb 0.00 in0.0 mm 0.00 in0.0 mm 0.00 in0.0 mm
08:26 AM 34.4°F1.3°C 31.8°F-0.1°C 90% 6.0 mph SSE9.7 kmh SSE 11.0 mph17.7 kmh 29.97 in1014.9 mb 0.00 in0.0 mm 0.00 in0.0 mm 0.00 in0.0 mm
08:27 AM 34.4°F1.3°C 31.8°F-0.1°C 90% 5.6 mph S9.0 kmh S 11.0 mph17.7 kmh 29.97 in1014.9 mb 0.00 in0.0 mm 0.00 in0.0 mm 0.00 in0.0 mm
08:28 AM 34.4°F1.3°C 31.8°F-0.1°C 90% 8.4 mph S13.5 kmh S 12.0 mph19.3 kmh 29.97 in1014.9 mb 0.00 in0.0 mm 0.00 in0.0 mm 0.00 in0.0 mm
08:29 AM 34.4°F1.3°C 31.8°F-0.1°C 90% 7.0 mph S11.3 kmh S 12.0 mph19.3 kmh 29.97 in1014.9 mb 0.00 in0.0 mm 0.00 in0.0 mm 0.00 in0.0 mm
08:30 AM 34.4°F1.3°C 31.8°F-0.1°C 90% 6.0 mph S9.7 kmh S 10.0 mph16.1 kmh 29.97 in1014.9 mb 0.00 in0.0 mm 0.00 in0.0 mm 0.00 in0.0 mm
08:31 AM 34.4°F1.3°C 31.8°F-0.1°C 90% 6.4 mph S10.3 kmh S 9.0 mph14.5 kmh 29.97 in1014.9 mb 0.00 in0.0 mm 0.00 in0.0 mm 0.00 in0.0 mm
08:32 AM 34.4°F1.3°C 31.8°F-0.1°C 90% 7.8 mph S12.6 kmh S 10.0 mph16.1 kmh 29.97 in1014.9 mb 0.00 in0.0 mm 0.00 in0.0 mm 0.00 in0.0 mm
08:33 AM 34.4°F1.3°C 31.5°F-0.3°C 89% 5.7 mph S9.2 kmh S 10.0 mph16.1 kmh 29.97 in1014.9 mb 0.00 in0.0 mm 0.00 in0.0 mm 0.00 in0.0 mm
08:34 AM 34.4°F1.3°C 31.8°F-0.1°C 90% 5.7 mph S9.2 kmh S 10.0 mph16.1 kmh 29.97 in1014.9 mb 0.00 in0.0 mm 0.00 in0.0 mm 0.00 in0.0 mm
08:35 AM 34.4°F1.3°C 31.8°F-0.1°C 90% 8.8 mph SSE14.2 kmh SSE 12.0 mph19.3 kmh 29.97 in1014.9 mb 0.00 in0.0 mm 0.00 in0.0 mm 0.00 in0.0 mm
08:36 AM 34.4°F1.3°C 31.8°F-0.1°C 90% 7.8 mph S12.6 kmh S 12.0 mph19.3 kmh 29.97 in1014.9 mb 0.00 in0.0 mm 0.00 in0.0 mm 0.00 in0.0 mm
08:37 AM 34.4°F1.3°C 31.8°F-0.1°C 90% 7.2 mph SSE11.6 kmh SSE 12.0 mph19.3 kmh 29.97 in1014.9 mb 0.00 in0.0 mm 0.00 in0.0 mm 0.00 in0.0 mm
08:38 AM 34.3°F1.3°C 31.7°F-0.2°C 90% 7.1 mph S11.4 kmh S 12.0 mph19.3 kmh 29.97 in1014.9 mb 0.00 in0.0 mm 0.00 in0.0 mm 0.00 in0.0 mm
08:39 AM 34.3°F1.3°C 31.7°F-0.2°C 90% 7.4 mph S11.9 kmh S 12.0 mph19.3 kmh 29.97 in1014.9 mb 0.00 in0.0 mm 0.00 in0.0 mm 0.00 in0.0 mm
08:40 AM 34.3°F1.3°C 31.7°F-0.2°C 90% 6.5 mph SSE10.5 kmh SSE 12.0 mph19.3 kmh 29.97 in1014.9 mb 0.00 in0.0 mm 0.00 in0.0 mm 0.00 in0.0 mm
08:41 AM 34.3°F1.3°C 31.7°F-0.2°C 90% 5.2 mph S8.4 kmh S 9.0 mph14.5 kmh 29.97 in1014.9 mb 0.00 in0.0 mm 0.00 in0.0 mm 0.00 in0.0 mm
08:42 AM 34.3°F1.3°C 31.7°F-0.2°C 90% 6.7 mph S10.8 kmh S 10.0 mph16.1 kmh 29.97 in1014.9 mb 0.00 in0.0 mm 0.00 in0.0 mm 0.00 in0.0 mm
08:43 AM 34.3°F1.3°C 31.4°F-0.3°C 89% 6.3 mph S10.1 kmh S 10.0 mph16.1 kmh 29.97 in1014.9 mb 0.00 in0.0 mm 0.00 in0.0 mm 0.00 in0.0 mm
08:44 AM 34.3°F1.3°C 31.4°F-0.3°C 89% 8.6 mph S13.8 kmh S 12.0 mph19.3 kmh 29.97 in1014.9 mb 0.00 in0.0 mm 0.00 in0.0 mm 0.00 in0.0 mm
08:45 AM 34.3°F1.3°C 31.4°F-0.3°C 89% 6.0 mph S9.7 kmh S 12.0 mph19.3 kmh 29.97 in1014.9 mb 0.00 in0.0 mm 0.00 in0.0 mm 0.00 in0.0 mm
08:46 AM 34.3°F1.3°C 31.4°F-0.3°C 89% 5.5 mph S8.9 kmh S 11.0 mph17.7 kmh 29.97 in1014.9 mb 0.00 in0.0 mm 0.00 in0.0 mm 0.00 in0.0 mm
08:47 AM 34.2°F1.2°C 31.3°F-0.4°C 89% 7.4 mph S11.9 kmh S 11.0 mph17.7 kmh 29.97 in1014.9 mb 0.00 in0.0 mm 0.00 in0.0 mm 0.00 in0.0 mm
08:48 AM 34.2°F1.2°C 31.3°F-0.4°C 89% 8.8 mph SSE14.2 kmh SSE 12.0 mph19.3 kmh 29.97 in1014.9 mb 0.00 in0.0 mm 0.00 in0.0 mm 0.00 in0.0 mm
08:49 AM 34.2°F1.2°C 31.3°F-0.4°C 89% 6.3 mph SSE10.1 kmh SSE 12.0 mph19.3 kmh 29.97 in1014.9 mb 0.00 in0.0 mm 0.00 in0.0 mm 0.00 in0.0 mm
08:50 AM 34.2°F1.2°C 31.3°F-0.4°C 89% 7.8 mph S12.6 kmh S 12.0 mph19.3 kmh 29.97 in1014.9 mb 0.00 in0.0 mm 0.00 in0.0 mm 0.00 in0.0 mm
08:51 AM 34.2°F1.2°C 31.3°F-0.4°C 89% 6.5 mph SSE10.5 kmh SSE 12.0 mph19.3 kmh 29.97 in1014.9 mb 0.00 in0.0 mm 0.00 in0.0 mm 0.00 in0.0 mm
08:52 AM 34.2°F1.2°C 31.3°F-0.4°C 89% 6.0 mph S9.7 kmh S 9.0 mph14.5 kmh 29.97 in1014.9 mb 0.00 in0.0 mm 0.00 in0.0 mm 0.00 in0.0 mm
08:53 AM 34.2°F1.2°C 31.3°F-0.4°C 89% 5.4 mph SSE8.7 kmh SSE 8.0 mph12.9 kmh 29.97 in1014.9 mb 0.00 in0.0 mm 0.00 in0.0 mm 0.00 in0.0 mm
08:54 AM 34.1°F1.2°C 31.2°F-0.4°C 89% 8.9 mph SSE14.3 kmh SSE 14.0 mph22.5 kmh 29.97 in1014.9 mb 0.00 in0.0 mm 0.00 in0.0 mm 0.00 in0.0 mm
08:55 AM 34.2°F1.2°C 31.3°F-0.4°C 89% 6.1 mph S9.8 kmh S 14.0 mph22.5 kmh 29.97 in1014.9 mb 0.00 in0.0 mm 0.00 in0.0 mm 0.00 in0.0 mm
08:56 AM 34.1°F1.2°C 31.2°F-0.4°C 89% 10.1 mph SSE16.3 kmh SSE 13.0 mph20.9 kmh 29.97 in1014.9 mb 0.00 in0.0 mm 0.00 in0.0 mm 0.00 in0.0 mm
08:57 AM 34.1°F1.2°C 31.2°F-0.4°C 89% 8.4 mph SSE13.5 kmh SSE 14.0 mph22.5 kmh 29.97 in1014.9 mb 0.00 in0.0 mm 0.00 in0.0 mm 0.00 in0.0 mm
08:58 AM 34.1°F1.2°C 31.2°F-0.4°C 89% 8.7 mph SSE14.0 kmh SSE 14.0 mph22.5 kmh 29.97 in1014.9 mb 0.00 in0.0 mm 0.00 in0.0 mm 0.00 in0.0 mm
08:59 AM 34.1°F1.2°C 31.2°F-0.4°C 89% 6.6 mph S10.6 kmh S 12.0 mph19.3 kmh 29.97 in1014.9 mb 0.00 in0.0 mm 0.00 in0.0 mm 0.00 in0.0 mm
09:00 AM 34.2°F1.2°C 31.3°F-0.4°C 89% 6.8 mph SSE10.9 kmh SSE 10.0 mph16.1 kmh 29.97 in1014.9 mb 0.00 in0.0 mm 0.00 in0.0 mm 0.00 in0.0 mm
09:01 AM 34.2°F1.2°C 31.3°F-0.4°C 89% 7.0 mph SSE11.3 kmh SSE 12.0 mph19.3 kmh 29.97 in1014.9 mb 0.00 in0.0 mm 0.00 in0.0 mm 0.00 in0.0 mm
09:02 AM 34.2°F1.2°C 31.3°F-0.4°C 89% 6.2 mph S10.0 kmh S 12.0 mph19.3 kmh 29.97 in1014.9 mb 0.00 in0.0 mm 0.00 in0.0 mm 0.00 in0.0 mm
09:03 AM 34.2°F1.2°C 31.6°F-0.2°C 90% 6.9 mph S11.1 kmh S 11.0 mph17.7 kmh 29.97 in1014.9 mb 0.00 in0.0 mm 0.00 in0.0 mm 0.00 in0.0 mm
09:04 AM 34.2°F1.2°C 31.6°F-0.2°C 90% 7.4 mph S11.9 kmh S 11.0 mph17.7 kmh 29.97 in1014.9 mb 0.00 in0.0 mm 0.00 in0.0 mm 0.00 in0.0 mm
09:05 AM 34.2°F1.2°C 31.6°F-0.2°C 90% 5.9 mph S9.5 kmh S 13.0 mph20.9 kmh 29.97 in1014.9 mb 0.00 in0.0 mm 0.00 in0.0 mm 0.00 in0.0 mm
09:06 AM 34.2°F1.2°C 31.6°F-0.2°C 90% 7.5 mph S12.1 kmh S 13.0 mph20.9 kmh 29.97 in1014.9 mb 0.00 in0.0 mm 0.00 in0.0 mm 0.00 in0.0 mm
09:07 AM 34.2°F1.2°C 31.6°F-0.2°C 90% 7.2 mph S11.6 kmh S 11.0 mph17.7 kmh 29.97 in1014.9 mb 0.00 in0.0 mm 0.00 in0.0 mm 0.00 in0.0 mm
09:08 AM 34.2°F1.2°C 31.6°F-0.2°C 90% 8.4 mph S13.5 kmh S 13.0 mph20.9 kmh 29.97 in1014.9 mb 0.00 in0.0 mm 0.00 in0.0 mm 0.00 in0.0 mm
09:09 AM 34.2°F1.2°C 31.6°F-0.2°C 90% 8.4 mph S13.5 kmh S 13.0 mph20.9 kmh 29.97 in1014.9 mb 0.00 in0.0 mm 0.00 in0.0 mm 0.00 in0.0 mm
09:10 AM 34.2°F1.2°C 31.6°F-0.2°C 90% 7.1 mph S11.4 kmh S 12.0 mph19.3 kmh 29.97 in1014.9 mb 0.00 in0.0 mm 0.00 in0.0 mm 0.00 in0.0 mm
09:11 AM 34.2°F1.2°C 31.6°F-0.2°C 90% 6.7 mph S10.8 kmh S 13.0 mph20.9 kmh 29.97 in1014.9 mb 0.00 in0.0 mm 0.00 in0.0 mm 0.00 in0.0 mm
09:12 AM 34.2°F1.2°C 31.6°F-0.2°C 90% 6.7 mph SSE10.8 kmh SSE 13.0 mph20.9 kmh 29.97 in1014.9 mb 0.00 in0.0 mm 0.00 in0.0 mm 0.00 in0.0 mm
09:13 AM 34.2°F1.2°C 31.6°F-0.2°C 90% 6.7 mph S10.8 kmh S 11.0 mph17.7 kmh 29.97 in1014.9 mb 0.00 in0.0 mm 0.00 in0.0 mm 0.00 in0.0 mm
09:14 AM 34.2°F1.2°C 31.6°F-0.2°C 90% 7.9 mph S12.7 kmh S 14.0 mph22.5 kmh 29.97 in1014.9 mb 0.00 in0.0 mm 0.00 in0.0 mm 0.00 in0.0 mm
09:15 AM 34.2°F1.2°C 31.6°F-0.2°C 90% 6.0 mph S9.7 kmh S 14.0 mph22.5 kmh 29.97 in1014.9 mb 0.00 in0.0 mm 0.00 in0.0 mm 0.00 in0.0 mm
09:16 AM 34.3°F1.3°C 31.7°F-0.2°C 90% 6.0 mph S9.7 kmh S 9.0 mph14.5 kmh 29.97 in1014.9 mb 0.00 in0.0 mm 0.00 in0.0 mm 0.00 in0.0 mm
09:17 AM 34.3°F1.3°C 31.7°F-0.2°C 90% 6.4 mph S10.3 kmh S 9.0 mph14.5 kmh 29.97 in1014.9 mb 0.00 in0.0 mm 0.00 in0.0 mm 0.00 in0.0 mm
09:18 AM 34.2°F1.2°C 31.6°F-0.2°C 90% 8.4 mph SSE13.5 kmh SSE 12.0 mph19.3 kmh 29.98 in1015.2 mb 0.00 in0.0 mm 0.00 in0.0 mm 0.00 in0.0 mm
09:19 AM 34.3°F1.3°C 31.7°F-0.2°C 90% 5.7 mph SSE9.2 kmh SSE 12.0 mph19.3 kmh 29.98 in1015.2 mb 0.00 in0.0 mm 0.00 in0.0 mm 0.00 in0.0 mm
09:20 AM 34.2°F1.2°C 31.6°F-0.2°C 90% 7.5 mph SSE12.1 kmh SSE 10.0 mph16.1 kmh 29.98 in1015.2 mb 0.00 in0.0 mm 0.00 in0.0 mm 0.00 in0.0 mm
09:21 AM 34.3°F1.3°C 31.7°F-0.2°C 90% 5.5 mph S8.9 kmh S 10.0 mph16.1 kmh 29.98 in1015.2 mb 0.00 in0.0 mm 0.00 in0.0 mm 0.00 in0.0 mm
09:22 AM 34.3°F1.3°C 31.7°F-0.2°C 90% 7.9 mph SSE12.7 kmh SSE 13.0 mph20.9 kmh 29.98 in1015.2 mb 0.00 in0.0 mm 0.00 in0.0 mm 0.00 in0.0 mm
09:23 AM 34.3°F1.3°C 31.7°F-0.2°C 90% 7.7 mph SSE12.4 kmh SSE 13.0 mph20.9 kmh 29.98 in1015.2 mb 0.00 in0.0 mm 0.00 in0.0 mm 0.00 in0.0 mm
09:24 AM 34.3°F1.3°C 31.7°F-0.2°C 90% 8.9 mph SSE14.3 kmh SSE 11.0 mph17.7 kmh 29.98 in1015.2 mb 0.00 in0.0 mm 0.00 in0.0 mm 0.00 in0.0 mm
09:25 AM 34.3°F1.3°C 31.7°F-0.2°C 90% 8.0 mph SSE12.9 kmh SSE 11.0 mph17.7 kmh 29.97 in1014.9 mb 0.00 in0.0 mm 0.00 in0.0 mm 0.00 in0.0 mm
09:26 AM 34.3°F1.3°C 31.7°F-0.2°C 90% 8.4 mph SSE13.5 kmh SSE 12.0 mph19.3 kmh 29.97 in1014.9 mb 0.00 in0.0 mm 0.00 in0.0 mm 0.00 in0.0 mm
09:27 AM 34.2°F1.2°C 31.6°F-0.2°C 90% 10.3 mph SSE16.6 kmh SSE 14.0 mph22.5 kmh 29.97 in1014.9 mb 0.00 in0.0 mm 0.00 in0.0 mm 0.00 in0.0 mm
09:28 AM 34.3°F1.3°C 31.7°F-0.2°C 90% 9.8 mph SE15.8 kmh SE 14.0 mph22.5 kmh 29.97 in1014.9 mb 0.00 in0.0 mm 0.00 in0.0 mm 0.00 in0.0 mm
09:29 AM 34.3°F1.3°C 31.7°F-0.2°C 90% 9.0 mph SSE14.5 kmh SSE 16.0 mph25.7 kmh 29.97 in1014.9 mb 0.00 in0.0 mm 0.00 in0.0 mm 0.00 in0.0 mm
09:30 AM 34.3°F1.3°C 31.7°F-0.2°C 90% 8.9 mph SSE14.3 kmh SSE 16.0 mph25.7 kmh 29.97 in1014.9 mb 0.00 in0.0 mm 0.00 in0.0 mm 0.00 in0.0 mm
09:31 AM 34.3°F1.3°C 31.7°F-0.2°C 90% 9.8 mph SE15.8 kmh SE 14.0 mph22.5 kmh 29.97 in1014.9 mb 0.00 in0.0 mm 0.00 in0.0 mm 0.00 in0.0 mm
09:32 AM 34.3°F1.3°C 31.7°F-0.2°C 90% 8.7 mph SSE14.0 kmh SSE 14.0 mph22.5 kmh 29.97 in1014.9 mb 0.00 in0.0 mm 0.00 in0.0 mm 0.00 in0.0 mm
09:33 AM 34.3°F1.3°C 31.7°F-0.2°C 90% 7.8 mph SSE12.6 kmh SSE 12.0 mph19.3 kmh 29.97 in1014.9 mb 0.00 in0.0 mm 0.00 in0.0 mm 0.00 in0.0 mm
09:34 AM 34.3°F1.3°C 31.7°F-0.2°C 90% 7.7 mph SSE12.4 kmh SSE 14.0 mph22.5 kmh 29.97 in1014.9 mb 0.00 in0.0 mm 0.00 in0.0 mm 0.00 in0.0 mm
09:35 AM 34.3°F1.3°C 31.7°F-0.2°C 90% 7.2 mph SSE11.6 kmh SSE 14.0 mph22.5 kmh 29.97 in1014.9 mb 0.00 in0.0 mm 0.00 in0.0 mm 0.00 in0.0 mm
09:36 AM 34.3°F1.3°C 31.7°F-0.2°C 90% 8.7 mph SSE14.0 kmh SSE 11.0 mph17.7 kmh 29.97 in1014.9 mb 0.00 in0.0 mm 0.00 in0.0 mm 0.00 in0.0 mm
09:37 AM 34.3°F1.3°C 31.7°F-0.2°C 90% 8.6 mph SSE13.8 kmh SSE 11.0 mph17.7 kmh 29.97 in1014.9 mb 0.00 in0.0 mm 0.00 in0.0 mm 0.00 in0.0 mm
09:38 AM 34.3°F1.3°C 31.7°F-0.2°C 90% 8.5 mph SSE13.7 kmh SSE 11.0 mph17.7 kmh 29.97 in1014.9 mb 0.00 in0.0 mm 0.00 in0.0 mm 0.00 in0.0 mm
09:39 AM 34.3°F1.3°C 31.7°F-0.2°C 90% 7.7 mph SSE12.4 kmh SSE 11.0 mph17.7 kmh 29.97 in1014.9 mb 0.00 in0.0 mm 0.00 in0.0 mm 0.00 in0.0 mm
09:40 AM 34.3°F1.3°C 31.7°F-0.2°C 90% 6.9 mph SSE11.1 kmh SSE 11.0 mph17.7 kmh 29.97 in1014.9 mb 0.00 in0.0 mm 0.00 in0.0 mm 0.00 in0.0 mm
09:41 AM 34.2°F1.2°C 31.6°F-0.2°C 90% 9.0 mph SE14.5 kmh SE 13.0 mph20.9 kmh 29.97 in1014.9 mb 0.00 in0.0 mm 0.00 in0.0 mm 0.00 in0.0 mm
09:42 AM 34.3°F1.3°C 31.7°F-0.2°C 90% 7.3 mph SSE11.7 kmh SSE 13.0 mph20.9 kmh 29.97 in1014.9 mb 0.00 in0.0 mm 0.00 in0.0 mm 0.00 in0.0 mm
09:43 AM 34.2°F1.2°C 31.6°F-0.2°C 90% 8.1 mph SSE13.0 kmh SSE 14.0 mph22.5 kmh 29.97 in1014.9 mb 0.00 in0.0 mm 0.00 in0.0 mm 0.00 in0.0 mm
09:44 AM 34.2°F1.2°C 31.6°F-0.2°C 90% 8.5 mph SSE13.7 kmh SSE 14.0 mph22.5 kmh 29.96 in1014.6 mb 0.00 in0.0 mm 0.00 in0.0 mm 0.00 in0.0 mm
09:45 AM 34.2°F1.2°C 31.6°F-0.2°C 90% 7.1 mph SE11.4 kmh SE 12.0 mph19.3 kmh 29.96 in1014.6 mb 0.00 in0.0 mm 0.00 in0.0 mm 0.00 in0.0 mm
09:46 AM 34.2°F1.2°C 31.6°F-0.2°C 90% 9.3 mph SSE15.0 kmh SSE 12.0 mph19.3 kmh 29.96 in1014.6 mb 0.00 in0.0 mm 0.00 in0.0 mm 0.00 in0.0 mm
09:47 AM 34.2°F1.2°C 31.6°F-0.2°C 90% 9.5 mph SE15.3 kmh SE 12.0 mph19.3 kmh 29.96 in1014.6 mb 0.00 in0.0 mm 0.00 in0.0 mm 0.00 in0.0 mm
09:48 AM 34.2°F1.2°C 31.6°F-0.2°C 90% 7.5 mph SE12.1 kmh SE 12.0 mph19.3 kmh 29.96 in1014.6 mb 0.00 in0.0 mm 0.00 in0.0 mm 0.00 in0.0 mm
09:49 AM 34.2°F1.2°C 31.6°F-0.2°C 90% 8.3 mph SE13.4 kmh SE 10.0 mph16.1 kmh 29.96 in1014.6 mb 0.00 in0.0 mm 0.00 in0.0 mm 0.00 in0.0 mm
09:50 AM 34.2°F1.2°C 31.6°F-0.2°C 90% 8.9 mph SE14.3 kmh SE 13.0 mph20.9 kmh 29.96 in1014.6 mb 0.00 in0.0 mm 0.00 in0.0 mm 0.00 in0.0 mm
09:51 AM 34.2°F1.2°C 31.6°F-0.2°C 90% 8.5 mph SE13.7 kmh SE 13.0 mph20.9 kmh 29.95 in1014.2 mb 0.00 in0.0 mm 0.00 in0.0 mm 0.00 in0.0 mm
09:52 AM 34.2°F1.2°C 31.6°F-0.2°C 90% 11.0 mph SE17.7 kmh SE 15.0 mph24.1 kmh 29.95 in1014.2 mb 0.00 in0.0 mm 0.00 in0.0 mm 0.00 in0.0 mm
09:53 AM 34.2°F1.2°C 31.6°F-0.2°C 90% 8.1 mph SSE13.0 kmh SSE 15.0 mph24.1 kmh 29.95 in1014.2 mb 0.00 in0.0 mm 0.00 in0.0 mm 0.00 in0.0 mm
09:54 AM 34.2°F1.2°C 31.6°F-0.2°C 90% 10.2 mph SSE16.4 kmh SSE 13.0 mph20.9 kmh 29.95 in1014.2 mb 0.00 in0.0 mm 0.00 in0.0 mm 0.00 in0.0 mm
09:55 AM 34.2°F1.2°C 31.6°F-0.2°C 90% 11.4 mph SSE18.3 kmh SSE 17.0 mph27.4 kmh 29.95 in1014.2 mb 0.00 in0.0 mm 0.00 in0.0 mm 0.00 in0.0 mm
09:56 AM 34.2°F1.2°C 31.6°F-0.2°C 90% 8.5 mph SSE13.7 kmh SSE 17.0 mph27.4 kmh 29.96 in1014.6 mb 0.00 in0.0 mm 0.00 in0.0 mm 0.00 in0.0 mm
09:57 AM 34.2°F1.2°C 31.6°F-0.2°C 90% 7.3 mph SSE11.7 kmh SSE 13.0 mph20.9 kmh 29.95 in1014.2 mb 0.00 in0.0 mm 0.00 in0.0 mm 0.00 in0.0 mm
09:58 AM 34.2°F1.2°C 31.6°F-0.2°C 90% 9.3 mph SSE15.0 kmh SSE 16.0 mph25.7 kmh 29.95 in1014.2 mb 0.00 in0.0 mm 0.00 in0.0 mm 0.00 in0.0 mm
09:59 AM 34.2°F1.2°C 31.6°F-0.2°C 90% 6.7 mph SE10.8 kmh SE 16.0 mph25.7 kmh 29.95 in1014.2 mb 0.00 in0.0 mm 0.00 in0.0 mm 0.00 in0.0 mm
10:00 AM 34.2°F1.2°C 31.6°F-0.2°C 90% 8.8 mph SSE14.2 kmh SSE 12.0 mph19.3 kmh 29.95 in1014.2 mb 0.00 in0.0 mm 0.00 in0.0 mm 0.00 in0.0 mm
10:01 AM 34.3°F1.3°C 32.0°F0.0°C 91% 11.9 mph SSE19.2 kmh SSE 15.0 mph24.1 kmh 29.95 in1014.2 mb 0.00 in0.0 mm 0.00 in0.0 mm 0.00 in0.0 mm
10:02 AM 34.2°F1.2°C 31.9°F-0.1°C 91% 8.4 mph SSE13.5 kmh SSE 15.0 mph24.1 kmh 29.95 in1014.2 mb 0.00 in0.0 mm 0.00 in0.0 mm 0.00 in0.0 mm
10:03 AM 34.2°F1.2°C 31.9°F-0.1°C 91% 9.5 mph SE15.3 kmh SE 14.0 mph22.5 kmh 29.95 in1014.2 mb 0.00 in0.0 mm 0.00 in0.0 mm 0.00 in0.0 mm
10:04 AM 34.2°F1.2°C 31.9°F-0.1°C 91% 9.5 mph SE15.3 kmh SE 16.0 mph25.7 kmh 29.95 in1014.2 mb 0.00 in0.0 mm 0.00 in0.0 mm 0.00 in0.0 mm
10:05 AM 34.2°F1.2°C 31.9°F-0.1°C 91% 10.5 mph SE16.9 kmh SE 16.0 mph25.7 kmh 29.95 in1014.2 mb 0.00 in0.0 mm 0.00 in0.0 mm 0.00 in0.0 mm
10:06 AM 34.2°F1.2°C 31.9°F-0.1°C 91% 10.3 mph SE16.6 kmh SE 14.0 mph22.5 kmh 29.95 in1014.2 mb 0.00 in0.0 mm 0.00 in0.0 mm 0.00 in0.0 mm
10:07 AM 34.2°F1.2°C 31.9°F-0.1°C 91% 10.8 mph SE17.4 kmh SE 14.0 mph22.5 kmh 29.95 in1014.2 mb 0.00 in0.0 mm 0.00 in0.0 mm 0.00 in0.0 mm
10:08 AM 34.3°F1.3°C 32.0°F0.0°C 91% 9.6 mph SE15.4 kmh SE 13.0 mph20.9 kmh 29.95 in1014.2 mb 0.00 in0.0 mm 0.00 in0.0 mm 0.00 in0.0 mm
10:09 AM 34.2°F1.2°C 31.9°F-0.1°C 91% 10.1 mph SE16.3 kmh SE 13.0 mph20.9 kmh 29.95 in1014.2 mb 0.00 in0.0 mm 0.00 in0.0 mm 0.00 in0.0 mm
10:10 AM 34.2°F1.2°C 31.9°F-0.1°C 91% 9.0 mph SE14.5 kmh SE 14.0 mph22.5 kmh 29.95 in1014.2 mb 0.00 in0.0 mm 0.00 in0.0 mm 0.00 in0.0 mm
10:11 AM 34.2°F1.2°C 31.9°F-0.1°C 91% 8.3 mph SSE13.4 kmh SSE 15.0 mph24.1 kmh 29.95 in1014.2 mb 0.00 in0.0 mm 0.00 in0.0 mm 0.00 in0.0 mm
10:12 AM 34.2°F1.2°C 31.9°F-0.1°C 91% 10.4 mph SE16.7 kmh SE 15.0 mph24.1 kmh 29.95 in1014.2 mb 0.00 in0.0 mm 0.00 in0.0 mm 0.00 in0.0 mm
10:13 AM 34.2°F1.2°C 31.9°F-0.1°C 91% 9.8 mph SSE15.8 kmh SSE 15.0 mph24.1 kmh 29.95 in1014.2 mb 0.00 in0.0 mm 0.00 in0.0 mm 0.00 in0.0 mm
10:14 AM 34.2°F1.2°C 31.9°F-0.1°C 91% 11.0 mph SE17.7 kmh SE 16.0 mph25.7 kmh 29.95 in1014.2 mb 0.00 in0.0 mm 0.00 in0.0 mm 0.00 in0.0 mm
10:15 AM 34.2°F1.2°C 31.9°F-0.1°C 91% 9.7 mph SSE15.6 kmh SSE 16.0 mph25.7 kmh 29.95 in1014.2 mb 0.00 in0.0 mm 0.00 in0.0 mm 0.00 in0.0 mm
10:16 AM 34.3°F1.3°C 32.0°F0.0°C 91% 10.9 mph SSE17.5 kmh SSE 15.0 mph24.1 kmh 29.95 in1014.2 mb 0.00 in0.0 mm 0.00 in0.0 mm 0.00 in0.0 mm
10:17 AM 34.2°F1.2°C 31.9°F-0.1°C 91% 7.5 mph SE12.1 kmh SE 15.0 mph24.1 kmh 29.95 in1014.2 mb 0.00 in0.0 mm 0.00 in0.0 mm 0.00 in0.0 mm
10:18 AM 34.3°F1.3°C 32.0°F0.0°C 91% 9.4 mph SE15.1 kmh SE 14.0 mph22.5 kmh 29.95 in1014.2 mb 0.00 in0.0 mm 0.00 in0.0 mm 0.00 in0.0 mm
10:19 AM 34.3°F1.3°C 32.0°F0.0°C 91% 9.3 mph SE15.0 kmh SE 14.0 mph22.5 kmh 29.95 in1014.2 mb 0.00 in0.0 mm 0.00 in0.0 mm 0.00 in0.0 mm
10:20 AM 34.3°F1.3°C 32.0°F0.0°C 91% 9.9 mph SSE15.9 kmh SSE 12.0 mph19.3 kmh 29.95 in1014.2 mb 0.00 in0.0 mm 0.00 in0.0 mm 0.00 in0.0 mm
10:21 AM 34.3°F1.3°C 32.0°F0.0°C 91% 8.9 mph SE14.3 kmh SE 13.0 mph20.9 kmh 29.95 in1014.2 mb 0.00 in0.0 mm 0.00 in0.0 mm 0.00 in0.0 mm
10:22 AM 34.3°F1.3°C 32.0°F0.0°C 91% 10.4 mph SSE16.7 kmh SSE 14.0 mph22.5 kmh 29.95 in1014.2 mb 0.00 in0.0 mm 0.00 in0.0 mm 0.00 in0.0 mm
10:23 AM 34.3°F1.3°C 32.0°F0.0°C 91% 11.6 mph SSE18.7 kmh SSE 17.0 mph27.4 kmh 29.95 in1014.2 mb 0.00 in0.0 mm 0.00 in0.0 mm 0.00 in0.0 mm
10:24 AM 34.4°F1.3°C 32.1°F0.1°C 91% 11.0 mph SE17.7 kmh SE 17.0 mph27.4 kmh 29.95 in1014.2 mb 0.00 in0.0 mm 0.00 in0.0 mm 0.00 in0.0 mm
10:25 AM 34.3°F1.3°C 32.0°F0.0°C 91% 11.3 mph SE18.2 kmh SE 16.0 mph25.7 kmh 29.95 in1014.2 mb 0.00 in0.0 mm 0.00 in0.0 mm 0.00 in0.0 mm
10:26 AM 34.3°F1.3°C 32.0°F0.0°C 91% 8.6 mph SSE13.8 kmh SSE 15.0 mph24.1 kmh 29.95 in1014.2 mb 0.00 in0.0 mm 0.00 in0.0 mm 0.00 in0.0 mm
10:27 AM 34.4°F1.3°C 32.1°F0.1°C 91% 8.0 mph SE12.9 kmh SE 12.0 mph19.3 kmh 29.95 in1014.2 mb 0.00 in0.0 mm 0.00 in0.0 mm 0.00 in0.0 mm
10:28 AM 34.3°F1.3°C 32.0°F0.0°C 91% 11.6 mph SSE18.7 kmh SSE 16.0 mph25.7 kmh 29.95 in1014.2 mb 0.00 in0.0 mm 0.00 in0.0 mm 0.00 in0.0 mm
10:29 AM 34.4°F1.3°C 32.1°F0.1°C 91% 11.2 mph SSE18.0 kmh SSE 16.0 mph25.7 kmh 29.95 in1014.2 mb 0.00 in0.0 mm 0.00 in0.0 mm 0.00 in0.0 mm
10:30 AM 34.4°F1.3°C 32.1°F0.1°C 91% 12.0 mph SSE19.3 kmh SSE 16.0 mph25.7 kmh 29.95 in1014.2 mb 0.00 in0.0 mm 0.00 in0.0 mm 0.00 in0.0 mm
10:31 AM 34.4°F1.3°C 32.1°F0.1°C 91% 8.7 mph SSE14.0 kmh SSE 15.0 mph24.1 kmh 29.95 in1014.2 mb 0.00 in0.0 mm 0.00 in0.0 mm 0.00 in0.0 mm
10:32 AM 34.4°F1.3°C 32.1°F0.1°C 91% 12.1 mph SSE19.5 kmh SSE 16.0 mph25.7 kmh 29.95 in1014.2 mb 0.00 in0.0 mm 0.00 in0.0 mm 0.00 in0.0 mm
10:33 AM 34.4°F1.3°C 32.1°F0.1°C 91% 8.1 mph SSE13.0 kmh SSE 16.0 mph25.7 kmh 29.95 in1014.2 mb 0.00 in0.0 mm 0.00 in0.0 mm 0.00 in0.0 mm
10:34 AM 34.4°F1.3°C 32.1°F0.1°C 91% 11.7 mph SSE18.8 kmh SSE 17.0 mph27.4 kmh 29.95 in1014.2 mb 0.00 in0.0 mm 0.00 in0.0 mm 0.00 in0.0 mm
10:35 AM 34.5°F1.4°C 32.1°F0.1°C 91% 10.7 mph SSE17.2 kmh SSE 17.0 mph27.4 kmh 29.95 in1014.2 mb 0.00 in0.0 mm 0.00 in0.0 mm 0.00 in0.0 mm
10:36 AM 34.5°F1.4°C 32.1°F0.1°C 91% 10.9 mph SSE17.5 kmh SSE 17.0 mph27.4 kmh 29.95 in1014.2 mb 0.00 in0.0 mm 0.00 in0.0 mm 0.00 in0.0 mm
10:37 AM 34.6°F1.4°C 32.2°F0.1°C 91% 11.0 mph SSE17.7 kmh SSE 15.0 mph24.1 kmh 29.95 in1014.2 mb 0.00 in0.0 mm 0.00 in0.0 mm 0.00 in0.0 mm
10:38 AM 34.5°F1.4°C 32.1°F0.1°C 91% 10.6 mph SSE17.1 kmh SSE 16.0 mph25.7 kmh 29.95 in1014.2 mb 0.00 in0.0 mm 0.00 in0.0 mm 0.00 in0.0 mm
10:39 AM 34.6°F1.4°C 32.2°F0.1°C 91% 11.9 mph SSE19.2 kmh SSE 17.0 mph27.4 kmh 29.95 in1014.2 mb 0.00 in0.0 mm 0.00 in0.0 mm 0.00 in0.0 mm
10:40 AM 34.6°F1.4°C 32.2°F0.1°C 91% 10.5 mph S16.9 kmh S 18.0 mph29.0 kmh 29.95 in1014.2 mb 0.00 in0.0 mm 0.00 in0.0 mm 0.00 in0.0 mm
10:41 AM 34.6°F1.4°C 32.2°F0.1°C 91% 10.0 mph SSE16.1 kmh SSE 17.0 mph27.4 kmh 29.95 in1014.2 mb 0.00 in0.0 mm 0.00 in0.0 mm 0.00 in0.0 mm
10:42 AM 34.6°F1.4°C 32.2°F0.1°C 91% 10.8 mph SSE17.4 kmh SSE 17.0 mph27.4 kmh 29.95 in1014.2 mb 0.00 in0.0 mm 0.00 in0.0 mm 0.00 in0.0 mm
10:43 AM 34.6°F1.4°C 32.2°F0.1°C 91% 11.4 mph SSE18.3 kmh SSE 17.0 mph27.4 kmh 29.95 in1014.2 mb 0.00 in0.0 mm 0.00 in0.0 mm 0.00 in0.0 mm
10:44 AM 34.6°F1.4°C 32.2°F0.1°C 91% 8.8 mph SE14.2 kmh SE 15.0 mph24.1 kmh 29.95 in1014.2 mb 0.00 in0.0 mm 0.00 in0.0 mm 0.00 in0.0 mm
10:45 AM 34.7°F1.5°C 32.3°F0.2°C 91% 8.2 mph SSE13.2 kmh SSE 17.0 mph27.4 kmh 29.95 in1014.2 mb 0.00 in0.0 mm 0.00 in0.0 mm 0.00 in0.0 mm
10:46 AM 34.7°F1.5°C 32.3°F0.2°C 91% 12.6 mph SSE20.3 kmh SSE 17.0 mph27.4 kmh 29.95 in1014.2 mb 0.00 in0.0 mm 0.00 in0.0 mm 0.00 in0.0 mm
10:47 AM 34.7°F1.5°C 32.3°F0.2°C 91% 10.7 mph SSE17.2 kmh SSE 16.0 mph25.7 kmh 29.95 in1014.2 mb 0.00 in0.0 mm 0.00 in0.0 mm 0.00 in0.0 mm
10:48 AM 34.7°F1.5°C 32.3°F0.2°C 91% 12.2 mph SSE19.6 kmh SSE 16.0 mph25.7 kmh 29.95 in1014.2 mb 0.00 in0.0 mm 0.00 in0.0 mm 0.00 in0.0 mm
10:49 AM 34.7°F1.5°C 32.3°F0.2°C 91% 8.4 mph SE13.5 kmh SE 16.0 mph25.7 kmh 29.95 in1014.2 mb 0.00 in0.0 mm 0.00 in0.0 mm 0.00 in0.0 mm
10:50 AM 34.7°F1.5°C 32.3°F0.2°C 91% 11.0 mph SSE17.7 kmh SSE 13.0 mph20.9 kmh 29.95 in1014.2 mb 0.00 in0.0 mm 0.00 in0.0 mm 0.00 in0.0 mm
10:51 AM 34.8°F1.6°C 32.4°F0.2°C 91% 9.8 mph SSE15.8 kmh SSE 18.0 mph29.0 kmh 29.95 in1014.2 mb 0.00 in0.0 mm 0.00 in0.0 mm 0.00 in0.0 mm
10:52 AM 34.8°F1.6°C 32.4°F0.2°C 91% 9.3 mph SSE15.0 kmh SSE 18.0 mph29.0 kmh 29.95 in1014.2 mb 0.00 in0.0 mm 0.00 in0.0 mm 0.00 in0.0 mm
10:53 AM 34.8°F1.6°C 32.4°F0.2°C 91% 9.8 mph SE15.8 kmh SE 15.0 mph24.1 kmh 29.95 in1014.2 mb 0.00 in0.0 mm 0.00 in0.0 mm 0.00 in0.0 mm
10:54 AM 34.8°F1.6°C 32.4°F0.2°C 91% 12.1 mph SSE19.5 kmh SSE 17.0 mph27.4 kmh 29.95 in1014.2 mb 0.00 in0.0 mm 0.00 in0.0 mm 0.00 in0.0 mm
10:55 AM 34.8°F1.6°C 32.4°F0.2°C 91% 11.3 mph SSE18.2 kmh SSE 17.0 mph27.4 kmh 29.95 in1014.2 mb 0.00 in0.0 mm 0.00 in0.0 mm 0.00 in0.0 mm
10:56 AM 34.8°F1.6°C 32.4°F0.2°C 91% 10.4 mph SSE16.7 kmh SSE 17.0 mph27.4 kmh 29.95 in1014.2 mb 0.00 in0.0 mm 0.00 in0.0 mm 0.00 in0.0 mm
10:57 AM 34.9°F1.6°C 32.5°F0.3°C 91% 11.6 mph SSE18.7 kmh SSE 16.0 mph25.7 kmh 29.95 in1014.2 mb 0.00 in0.0 mm 0.00 in0.0 mm 0.00 in0.0 mm
10:58 AM 34.9°F1.6°C 32.5°F0.3°C 91% 9.4 mph SSE15.1 kmh SSE 16.0 mph25.7 kmh 29.95 in1014.2 mb 0.00 in0.0 mm 0.00 in0.0 mm 0.00 in0.0 mm
10:59 AM 34.9°F1.6°C 32.5°F0.3°C 91% 11.1 mph SSE17.9 kmh SSE 14.0 mph22.5 kmh 29.95 in1014.2 mb 0.00 in0.0 mm 0.00 in0.0 mm 0.00 in0.0 mm
11:00 AM 34.9°F1.6°C 32.5°F0.3°C 91% 10.2 mph SSE16.4 kmh SSE 14.0 mph22.5 kmh 29.95 in1014.2 mb 0.00 in0.0 mm 0.00 in0.0 mm 0.00 in0.0 mm
11:01 AM 34.9°F1.6°C 32.5°F0.3°C 91% 10.4 mph SSE16.7 kmh SSE 15.0 mph24.1 kmh 29.95 in1014.2 mb 0.00 in0.0 mm 0.00 in0.0 mm 0.00 in0.0 mm
11:02 AM 34.9°F1.6°C 32.5°F0.3°C 91% 12.6 mph SE20.3 kmh SE 15.0 mph24.1 kmh 29.95 in1014.2 mb 0.00 in0.0 mm 0.00 in0.0 mm 0.00 in0.0 mm
11:03 AM 35.0°F1.7°C 32.6°F0.3°C 91% 8.6 mph SSE13.8 kmh SSE 15.0 mph24.1 kmh 29.95 in1014.2 mb 0.00 in0.0 mm 0.00 in0.0 mm 0.00 in0.0 mm
11:04 AM 35.0°F1.7°C 32.6°F0.3°C 91% 10.9 mph SE17.5 kmh SE 16.0 mph25.7 kmh 29.95 in1014.2 mb 0.00 in0.0 mm 0.00 in0.0 mm 0.00 in0.0 mm
11:05 AM 35.0°F1.7°C 32.6°F0.3°C 91% 13.7 mph SSE22.0 kmh SSE 18.0 mph29.0 kmh 29.95 in1014.2 mb 0.00 in0.0 mm 0.00 in0.0 mm 0.00 in0.0 mm
11:06 AM 35.0°F1.7°C 32.4°F0.2°C 90% 13.9 mph SSE22.4 kmh SSE 20.0 mph32.2 kmh 29.95 in1014.2 mb 0.00 in0.0 mm 0.00 in0.0 mm 0.00 in0.0 mm
11:07 AM 35.1°F1.7°C 32.5°F0.3°C 90% 9.2 mph SSE14.8 kmh SSE 20.0 mph32.2 kmh 29.95 in1014.2 mb 0.00 in0.0 mm 0.00 in0.0 mm 0.00 in0.0 mm
11:08 AM 35.1°F1.7°C 32.5°F0.3°C 90% 10.7 mph SE17.2 kmh SE 14.0 mph22.5 kmh 29.95 in1014.2 mb 0.00 in0.0 mm 0.00 in0.0 mm 0.00 in0.0 mm
11:09 AM 35.1°F1.7°C 32.5°F0.3°C 90% 11.2 mph SSE18.0 kmh SSE 16.0 mph25.7 kmh 29.95 in1014.2 mb 0.00 in0.0 mm 0.00 in0.0 mm 0.00 in0.0 mm
11:10 AM 35.1°F1.7°C 32.5°F0.3°C 90% 7.5 mph SSE12.1 kmh SSE 16.0 mph25.7 kmh 29.95 in1014.2 mb 0.00 in0.0 mm 0.00 in0.0 mm 0.00 in0.0 mm
11:11 AM 35.2°F1.8°C 32.6°F0.3°C 90% 10.4 mph SSE16.7 kmh SSE 14.0 mph22.5 kmh 29.95 in1014.2 mb 0.00 in0.0 mm 0.00 in0.0 mm 0.00 in0.0 mm
11:12 AM 35.2°F1.8°C 32.6°F0.3°C 90% 10.2 mph SSE16.4 kmh SSE 15.0 mph24.1 kmh 29.95 in1014.2 mb 0.00 in0.0 mm 0.00 in0.0 mm 0.00 in0.0 mm
11:13 AM 35.2°F1.8°C 32.6°F0.3°C 90% 10.7 mph SSE17.2 kmh SSE 18.0 mph29.0 kmh 29.95 in1014.2 mb 0.00 in0.0 mm 0.00 in0.0 mm 0.00 in0.0 mm
11:14 AM 35.2°F1.8°C 32.6°F0.3°C 90% 11.0 mph SSE17.7 kmh SSE 18.0 mph29.0 kmh 29.95 in1014.2 mb 0.00 in0.0 mm 0.00 in0.0 mm 0.00 in0.0 mm
11:15 AM 35.2°F1.8°C 32.6°F0.3°C 90% 8.2 mph SSE13.2 kmh SSE 13.0 mph20.9 kmh 29.95 in1014.2 mb 0.00 in0.0 mm 0.00 in0.0 mm 0.00 in0.0 mm
11:16 AM 35.3°F1.8°C 32.7°F0.4°C 90% 7.4 mph S11.9 kmh S 12.0 mph19.3 kmh 29.95 in1014.2 mb 0.00 in0.0 mm 0.00 in0.0 mm 0.00 in0.0 mm
11:17 AM 35.3°F1.8°C 32.7°F0.4°C 90% 8.9 mph SSE14.3 kmh SSE 14.0 mph22.5 kmh 29.95 in1014.2 mb 0.00 in0.0 mm 0.00 in0.0 mm 0.00 in0.0 mm
11:18 AM 35.3°F1.8°C 32.7°F0.4°C 90% 8.3 mph SSE13.4 kmh SSE 14.0 mph22.5 kmh 29.95 in1014.2 mb 0.00 in0.0 mm 0.00 in0.0 mm 0.00 in0.0 mm
11:19 AM 35.4°F1.9°C 32.8°F0.4°C 90% 13.4 mph SSE21.6 kmh SSE 18.0 mph29.0 kmh 29.95 in1014.2 mb 0.00 in0.0 mm 0.00 in0.0 mm 0.00 in0.0 mm
11:20 AM 35.4°F1.9°C 32.8°F0.4°C 90% 10.5 mph SSE16.9 kmh SSE 18.0 mph29.0 kmh 29.95 in1014.2 mb 0.00 in0.0 mm 0.00 in0.0 mm 0.00 in0.0 mm
11:21 AM 35.4°F1.9°C 32.8°F0.4°C 90% 10.7 mph S17.2 kmh S 16.0 mph25.7 kmh 29.95 in1014.2 mb 0.00 in0.0 mm 0.00 in0.0 mm 0.00 in0.0 mm
11:22 AM 35.5°F1.9°C 32.9°F0.5°C 90% 9.4 mph SSE15.1 kmh SSE 16.0 mph25.7 kmh 29.95 in1014.2 mb 0.00 in0.0 mm 0.00 in0.0 mm 0.00 in0.0 mm
11:23 AM 35.5°F1.9°C 32.9°F0.5°C 90% 9.5 mph SSE15.3 kmh SSE 15.0 mph24.1 kmh 29.95 in1014.2 mb 0.00 in0.0 mm 0.00 in0.0 mm 0.00 in0.0 mm
11:24 AM 35.5°F1.9°C 32.9°F0.5°C 90% 8.6 mph SSE13.8 kmh SSE 14.0 mph22.5 kmh 29.95 in1014.2 mb 0.00 in0.0 mm 0.00 in0.0 mm 0.00 in0.0 mm
11:25 AM 35.5°F1.9°C 32.9°F0.5°C 90% 9.2 mph SSE14.8 kmh SSE 12.0 mph19.3 kmh 29.95 in1014.2 mb 0.00 in0.0 mm 0.00 in0.0 mm 0.00 in0.0 mm
11:26 AM 35.5°F1.9°C 32.9°F0.5°C 90% 8.8 mph SSE14.2 kmh SSE 14.0 mph22.5 kmh 29.95 in1014.2 mb 0.00 in0.0 mm 0.00 in0.0 mm 0.00 in0.0 mm
11:27 AM 35.5°F1.9°C 32.9°F0.5°C 90% 10.4 mph SSE16.7 kmh SSE 14.0 mph22.5 kmh 29.95 in1014.2 mb 0.00 in0.0 mm 0.00 in0.0 mm 0.00 in0.0 mm
11:28 AM 35.5°F1.9°C 32.9°F0.5°C 90% 10.2 mph SSE16.4 kmh SSE 15.0 mph24.1 kmh 29.95 in1014.2 mb 0.00 in0.0 mm 0.00 in0.0 mm 0.00 in0.0 mm
11:29 AM 35.5°F1.9°C 32.9°F0.5°C 90% 10.5 mph SSE16.9 kmh SSE 17.0 mph27.4 kmh 29.95 in1014.2 mb 0.00 in0.0 mm 0.00 in0.0 mm 0.00 in0.0 mm
11:30 AM 35.6°F2.0°C 33.0°F0.6°C 90% 10.6 mph SE17.1 kmh SE 17.0 mph27.4 kmh 29.95 in1014.2 mb 0.00 in0.0 mm 0.00 in0.0 mm 0.00 in0.0 mm
11:31 AM 35.6°F2.0°C 33.0°F0.6°C 90% 11.0 mph SE17.7 kmh SE 15.0 mph24.1 kmh 29.95 in1014.2 mb 0.00 in0.0 mm 0.00 in0.0 mm 0.00 in0.0 mm
11:32 AM 35.5°F1.9°C 32.9°F0.5°C 90% 11.4 mph SSE18.3 kmh SSE 16.0 mph25.7 kmh 29.94 in1013.9 mb 0.00 in0.0 mm 0.00 in0.0 mm 0.00 in0.0 mm
11:33 AM 35.6°F2.0°C 33.0°F0.6°C 90% 9.2 mph SE14.8 kmh SE 16.0 mph25.7 kmh 29.94 in1013.9 mb 0.00 in0.0 mm 0.00 in0.0 mm 0.00 in0.0 mm
11:34 AM 35.6°F2.0°C 33.0°F0.6°C 90% 12.6 mph SSE20.3 kmh SSE 17.0 mph27.4 kmh 29.94 in1013.9 mb 0.00 in0.0 mm 0.00 in0.0 mm 0.00 in0.0 mm
11:35 AM 35.6°F2.0°C 33.0°F0.6°C 90% 10.5 mph SSE16.9 kmh SSE 17.0 mph27.4 kmh 29.94 in1013.9 mb 0.00 in0.0 mm 0.00 in0.0 mm 0.00 in0.0 mm
11:36 AM 35.6°F2.0°C 33.0°F0.6°C 90% 8.9 mph SSE14.3 kmh SSE 15.0 mph24.1 kmh 29.94 in1013.9 mb 0.00 in0.0 mm 0.00 in0.0 mm 0.00 in0.0 mm
11:37 AM 35.7°F2.1°C 33.1°F0.6°C 90% 8.0 mph SSE12.9 kmh SSE 12.0 mph19.3 kmh 29.94 in1013.9 mb 0.00 in0.0 mm 0.00 in0.0 mm 0.00 in0.0 mm
11:38 AM 35.6°F2.0°C 33.0°F0.6°C 90% 11.8 mph SSE19.0 kmh SSE 16.0 mph25.7 kmh 29.94 in1013.9 mb 0.00 in0.0 mm 0.00 in0.0 mm 0.00 in0.0 mm
11:39 AM 35.6°F2.0°C 33.0°F0.6°C 90% 9.0 mph SSE14.5 kmh SSE 16.0 mph25.7 kmh 29.94 in1013.9 mb 0.00 in0.0 mm 0.00 in0.0 mm 0.00 in0.0 mm
11:40 AM 35.6°F2.0°C 33.0°F0.6°C 90% 9.0 mph SSE14.5 kmh SSE 15.0 mph24.1 kmh 29.94 in1013.9 mb 0.00 in0.0 mm 0.00 in0.0 mm 0.00 in0.0 mm
11:41 AM 35.7°F2.1°C 33.1°F0.6°C 90% 11.2 mph SE18.0 kmh SE 15.0 mph24.1 kmh 29.94 in1013.9 mb 0.00 in0.0 mm 0.00 in0.0 mm 0.00 in0.0 mm
11:42 AM 35.7°F2.1°C 33.1°F0.6°C 90% 11.8 mph SSE19.0 kmh SSE 15.0 mph24.1 kmh 29.94 in1013.9 mb 0.00 in0.0 mm 0.00 in0.0 mm 0.00 in0.0 mm
11:43 AM 35.6°F2.0°C 33.0°F0.6°C 90% 10.3 mph SSE16.6 kmh SSE 15.0 mph24.1 kmh 29.94 in1013.9 mb 0.00 in0.0 mm 0.00 in0.0 mm 0.00 in0.0 mm
11:44 AM 35.7°F2.1°C 33.1°F0.6°C 90% 9.1 mph SSE14.6 kmh SSE 15.0 mph24.1 kmh 29.94 in1013.9 mb 0.00 in0.0 mm 0.00 in0.0 mm 0.00 in0.0 mm
11:45 AM 35.7°F2.1°C 33.1°F0.6°C 90% 11.3 mph SSE18.2 kmh SSE 16.0 mph25.7 kmh 29.94 in1013.9 mb 0.00 in0.0 mm 0.00 in0.0 mm 0.00 in0.0 mm
11:46 AM 35.7°F2.1°C 33.1°F0.6°C 90% 13.5 mph SSE21.7 kmh SSE 19.0 mph30.6 kmh 29.94 in1013.9 mb 0.00 in0.0 mm 0.00 in0.0 mm 0.00 in0.0 mm
11:47 AM 35.7°F2.1°C 33.1°F0.6°C 90% 8.8 mph SSE14.2 kmh SSE 19.0 mph30.6 kmh 29.94 in1013.9 mb 0.00 in0.0 mm 0.00 in0.0 mm 0.00 in0.0 mm
11:48 AM 35.7°F2.1°C 33.1°F0.6°C 90% 11.3 mph SE18.2 kmh SE 15.0 mph24.1 kmh 29.94 in1013.9 mb 0.00 in0.0 mm 0.00 in0.0 mm 0.00 in0.0 mm
11:49 AM 35.7°F2.1°C 33.1°F0.6°C 90% 10.7 mph SSE17.2 kmh SSE 15.0 mph24.1 kmh 29.94 in1013.9 mb 0.00 in0.0 mm 0.00 in0.0 mm 0.00 in0.0 mm
11:50 AM 35.7°F2.1°C 33.1°F0.6°C 90% 9.9 mph SSE15.9 kmh SSE 15.0 mph24.1 kmh 29.94 in1013.9 mb 0.00 in0.0 mm 0.00 in0.0 mm 0.00 in0.0 mm
11:51 AM 35.7°F2.1°C 33.1°F0.6°C 90% 10.3 mph SE16.6 kmh SE 15.0 mph24.1 kmh 29.94 in1013.9 mb 0.00 in0.0 mm 0.00 in0.0 mm 0.00 in0.0 mm
11:52 AM 35.7°F2.1°C 33.1°F0.6°C 90% 8.2 mph SSE13.2 kmh SSE 15.0 mph24.1 kmh 29.94 in1013.9 mb 0.00 in0.0 mm 0.00 in0.0 mm 0.00 in0.0 mm
11:53 AM 35.7°F2.1°C 33.1°F0.6°C 90% 6.7 mph SSE10.8 kmh SSE 11.0 mph17.7 kmh 29.94 in1013.9 mb 0.00 in0.0 mm 0.00 in0.0 mm 0.00 in0.0 mm
11:54 AM 35.8°F2.1°C 33.2°F0.7°C 90% 10.5 mph SSE16.9 kmh SSE 17.0 mph27.4 kmh 29.94 in1013.9 mb 0.00 in0.0 mm 0.00 in0.0 mm 0.00 in0.0 mm
11:55 AM 35.8°F2.1°C 33.2°F0.7°C 90% 9.4 mph SSE15.1 kmh SSE 17.0 mph27.4 kmh 29.94 in1013.9 mb 0.00 in0.0 mm 0.00 in0.0 mm 0.00 in0.0 mm
11:56 AM 35.8°F2.1°C 33.2°F0.7°C 90% 8.7 mph SSE14.0 kmh SSE 12.0 mph19.3 kmh 29.94 in1013.9 mb 0.00 in0.0 mm 0.00 in0.0 mm 0.00 in0.0 mm
11:57 AM 35.8°F2.1°C 33.2°F0.7°C 90% 7.6 mph SSE12.2 kmh SSE 12.0 mph19.3 kmh 29.94 in1013.9 mb 0.00 in0.0 mm 0.00 in0.0 mm 0.00 in0.0 mm
11:58 AM 35.9°F2.2°C 33.3°F0.7°C 90% 7.3 mph SSE11.7 kmh SSE 11.0 mph17.7 kmh 29.94 in1013.9 mb 0.00 in0.0 mm 0.00 in0.0 mm 0.00 in0.0 mm
11:59 AM 35.9°F2.2°C 33.3°F0.7°C 90% 9.2 mph SSE14.8 kmh SSE 17.0 mph27.4 kmh 29.94 in1013.9 mb 0.00 in0.0 mm 0.00 in0.0 mm 0.00 in0.0 mm
12:00 PM 35.9°F2.2°C 33.3°F0.7°C 90% 8.5 mph SSE13.7 kmh SSE 17.0 mph27.4 kmh 29.94 in1013.9 mb 0.00 in0.0 mm 0.00 in0.0 mm 0.00 in0.0 mm
12:01 PM 36.0°F2.2°C 33.4°F0.8°C 90% 8.4 mph SSE13.5 kmh SSE 13.0 mph20.9 kmh 29.94 in1013.9 mb 0.00 in0.0 mm 0.00 in0.0 mm 0.00 in0.0 mm
12:02 PM 36.0°F2.2°C 33.4°F0.8°C 90% 10.0 mph SSE16.1 kmh SSE 13.0 mph20.9 kmh 29.94 in1013.9 mb 0.00 in0.0 mm 0.00 in0.0 mm 0.00 in0.0 mm
12:03 PM 36.0°F2.2°C 33.4°F0.8°C 90% 8.4 mph SSE13.5 kmh SSE 14.0 mph22.5 kmh 29.94 in1013.9 mb 0.00 in0.0 mm 0.00 in0.0 mm 0.00 in0.0 mm
12:04 PM 36.0°F2.2°C 33.4°F0.8°C 90% 7.1 mph SSE11.4 kmh SSE 14.0 mph22.5 kmh 29.94 in1013.9 mb 0.00 in0.0 mm 0.00 in0.0 mm 0.00 in0.0 mm
12:05 PM 36.1°F2.3°C 33.5°F0.8°C 90% 7.7 mph SSE12.4 kmh SSE 12.0 mph19.3 kmh 29.94 in1013.9 mb 0.00 in0.0 mm 0.00 in0.0 mm 0.00 in0.0 mm
12:06 PM 36.0°F2.2°C 33.4°F0.8°C 90% 6.8 mph SSE10.9 kmh SSE 12.0 mph19.3 kmh 29.94 in1013.9 mb 0.00 in0.0 mm 0.00 in0.0 mm 0.00 in0.0 mm
12:07 PM 36.0°F2.2°C 33.4°F0.8°C 90% 10.1 mph SSE16.3 kmh SSE 13.0 mph20.9 kmh 29.94 in1013.9 mb 0.00 in0.0 mm 0.00 in0.0 mm 0.00 in0.0 mm
12:08 PM 36.1°F2.3°C 33.5°F0.8°C 90% 9.1 mph SSE14.6 kmh SSE 13.0 mph20.9 kmh 29.94 in1013.9 mb 0.00 in0.0 mm 0.00 in0.0 mm 0.00 in0.0 mm
12:09 PM 36.0°F2.2°C 33.4°F0.8°C 90% 10.2 mph SE16.4 kmh SE 14.0 mph22.5 kmh 29.94 in1013.9 mb 0.00 in0.0 mm 0.00 in0.0 mm 0.00 in0.0 mm
12:10 PM 36.1°F2.3°C 33.5°F0.8°C 90% 7.9 mph SSE12.7 kmh SSE 14.0 mph22.5 kmh 29.93 in1013.5 mb 0.00 in0.0 mm 0.00 in0.0 mm 0.00 in0.0 mm
12:11 PM 36.1°F2.3°C 33.5°F0.8°C 90% 9.7 mph SSE15.6 kmh SSE 14.0 mph22.5 kmh 29.93 in1013.5 mb 0.00 in0.0 mm 0.00 in0.0 mm 0.00 in0.0 mm
12:12 PM 36.1°F2.3°C 33.5°F0.8°C 90% 10.3 mph SSE16.6 kmh SSE 13.0 mph20.9 kmh 29.93 in1013.5 mb 0.00 in0.0 mm 0.00 in0.0 mm 0.00 in0.0 mm
12:13 PM 36.1°F2.3°C 33.5°F0.8°C 90% 9.4 mph SSE15.1 kmh SSE 13.0 mph20.9 kmh 29.93 in1013.5 mb 0.00 in0.0 mm 0.00 in0.0 mm 0.00 in0.0 mm
12:14 PM 36.1°F2.3°C 33.5°F0.8°C 90% 10.5 mph SE16.9 kmh SE 15.0 mph24.1 kmh 29.93 in1013.5 mb 0.00 in0.0 mm 0.00 in0.0 mm 0.00 in0.0 mm
12:15 PM 36.2°F2.3°C 33.6°F0.9°C 90% 10.1 mph SE16.3 kmh SE 15.0 mph24.1 kmh 29.93 in1013.5 mb 0.00 in0.0 mm 0.00 in0.0 mm 0.00 in0.0 mm
12:16 PM 36.1°F2.3°C 33.5°F0.8°C 90% 11.4 mph SSE18.3 kmh SSE 15.0 mph24.1 kmh 29.93 in1013.5 mb 0.00 in0.0 mm 0.00 in0.0 mm 0.00 in0.0 mm
12:17 PM 36.1°F2.3°C 33.5°F0.8°C 90% 10.9 mph SSE17.5 kmh SSE 16.0 mph25.7 kmh 29.93 in1013.5 mb 0.00 in0.0 mm 0.00 in0.0 mm 0.00 in0.0 mm
12:18 PM 36.1°F2.3°C 33.5°F0.8°C 90% 9.4 mph SSE15.1 kmh SSE 16.0 mph25.7 kmh 29.93 in1013.5 mb 0.00 in0.0 mm 0.00 in0.0 mm 0.00 in0.0 mm
12:19 PM 36.2°F2.3°C 33.6°F0.9°C 90% 8.3 mph SSE13.4 kmh SSE 14.0 mph22.5 kmh 29.93 in1013.5 mb 0.00 in0.0 mm 0.00 in0.0 mm 0.00 in0.0 mm
12:20 PM 36.2°F2.3°C 33.6°F0.9°C 90% 6.2 mph S10.0 kmh S 14.0 mph22.5 kmh 29.93 in1013.5 mb 0.00 in0.0 mm 0.00 in0.0 mm 0.00 in0.0 mm
12:21 PM 36.2°F2.3°C 33.6°F0.9°C 90% 9.8 mph SSE15.8 kmh SSE 15.0 mph24.1 kmh 29.93 in1013.5 mb 0.00 in0.0 mm 0.00 in0.0 mm 0.00 in0.0 mm
12:22 PM 36.2°F2.3°C 33.6°F0.9°C 90% 11.0 mph SSE17.7 kmh SSE 16.0 mph25.7 kmh 29.93 in1013.5 mb 0.00 in0.0 mm 0.00 in0.0 mm 0.00 in0.0 mm
12:23 PM 36.2°F2.3°C 33.6°F0.9°C 90% 9.3 mph SSE15.0 kmh SSE 16.0 mph25.7 kmh 29.93 in1013.5 mb 0.00 in0.0 mm 0.00 in0.0 mm 0.00 in0.0 mm
12:24 PM 36.2°F2.3°C 33.6°F0.9°C 90% 8.9 mph SSE14.3 kmh SSE 15.0 mph24.1 kmh 29.93 in1013.5 mb 0.00 in0.0 mm 0.00 in0.0 mm 0.00 in0.0 mm
12:25 PM 36.2°F2.3°C 33.6°F0.9°C 90% 8.3 mph SSE13.4 kmh SSE 13.0 mph20.9 kmh 29.93 in1013.5 mb 0.00 in0.0 mm 0.00 in0.0 mm 0.00 in0.0 mm
12:26 PM 36.2°F2.3°C 33.6°F0.9°C 90% 8.2 mph SSE13.2 kmh SSE 13.0 mph20.9 kmh 29.93 in1013.5 mb 0.00 in0.0 mm 0.00 in0.0 mm 0.00 in0.0 mm
12:27 PM 36.2°F2.3°C 33.6°F0.9°C 90% 8.6 mph SSE13.8 kmh SSE 14.0 mph22.5 kmh 29.93 in1013.5 mb 0.00 in0.0 mm 0.00 in0.0 mm 0.00 in0.0 mm
12:28 PM 36.2°F2.3°C 33.6°F0.9°C 90% 7.4 mph SSE11.9 kmh SSE 14.0 mph22.5 kmh 29.93 in1013.5 mb 0.00 in0.0 mm 0.00 in0.0 mm 0.00 in0.0 mm
12:29 PM 36.3°F2.4°C 33.7°F0.9°C 90% 5.6 mph SSE9.0 kmh SSE 11.0 mph17.7 kmh 29.93 in1013.5 mb 0.00 in0.0 mm 0.00 in0.0 mm 0.00 in0.0 mm
12:30 PM 36.3°F2.4°C 33.7°F0.9°C 90% 9.0 mph SSE14.5 kmh SSE 12.0 mph19.3 kmh 29.92 in1013.2 mb 0.00 in0.0 mm 0.00 in0.0 mm 0.00 in0.0 mm
12:31 PM 36.3°F2.4°C 33.7°F0.9°C 90% 6.1 mph S9.8 kmh S 12.0 mph19.3 kmh 29.92 in1013.2 mb 0.00 in0.0 mm 0.00 in0.0 mm 0.00 in0.0 mm
12:32 PM 36.3°F2.4°C 33.7°F0.9°C 90% 7.5 mph SSE12.1 kmh SSE 12.0 mph19.3 kmh 29.92 in1013.2 mb 0.00 in0.0 mm 0.00 in0.0 mm 0.00 in0.0 mm
12:33 PM 36.4°F2.4°C 33.8°F1.0°C 90% 6.4 mph SSE10.3 kmh SSE 12.0 mph19.3 kmh 29.92 in1013.2 mb 0.00 in0.0 mm 0.00 in0.0 mm 0.00 in0.0 mm
12:34 PM 36.4°F2.4°C 33.8°F1.0°C 90% 6.6 mph SSE10.6 kmh SSE 10.0 mph16.1 kmh 29.92 in1013.2 mb 0.00 in0.0 mm 0.00 in0.0 mm 0.00 in0.0 mm
12:35 PM 36.4°F2.4°C 33.8°F1.0°C 90% 6.0 mph SSE9.7 kmh SSE 10.0 mph16.1 kmh 29.92 in1013.2 mb 0.00 in0.0 mm 0.00 in0.0 mm 0.00 in0.0 mm
12:36 PM 36.4°F2.4°C 33.8°F1.0°C 90% 5.6 mph S9.0 kmh S 9.0 mph14.5 kmh 29.92 in1013.2 mb 0.00 in0.0 mm 0.00 in0.0 mm 0.00 in0.0 mm
12:37 PM 36.5°F2.5°C 33.9°F1.1°C 90% 5.4 mph S8.7 kmh S 8.0 mph12.9 kmh 29.92 in1013.2 mb 0.00 in0.0 mm 0.00 in0.0 mm 0.00 in0.0 mm
12:38 PM 36.5°F2.5°C 33.9°F1.1°C 90% 5.8 mph S9.3 kmh S 8.0 mph12.9 kmh 29.92 in1013.2 mb 0.00 in0.0 mm 0.00 in0.0 mm 0.00 in0.0 mm
12:39 PM 36.6°F2.6°C 33.9°F1.1°C 90% 4.8 mph S7.7 kmh S 7.0 mph11.3 kmh 29.92 in1013.2 mb 0.00 in0.0 mm 0.00 in0.0 mm 0.00 in0.0 mm
12:40 PM 36.6°F2.6°C 33.9°F1.1°C 90% 4.8 mph S7.7 kmh S 8.0 mph12.9 kmh 29.92 in1013.2 mb 0.00 in0.0 mm 0.00 in0.0 mm 0.00 in0.0 mm
12:41 PM 36.7°F2.6°C 34.0°F1.1°C 90% 6.0 mph SSE9.7 kmh SSE 9.0 mph14.5 kmh 29.92 in1013.2 mb 0.00 in0.0 mm 0.00 in0.0 mm 0.00 in0.0 mm
12:42 PM 36.7°F2.6°C 34.0°F1.1°C 90% 5.6 mph S9.0 kmh S 9.0 mph14.5 kmh 29.92 in1013.2 mb 0.00 in0.0 mm 0.00 in0.0 mm 0.00 in0.0 mm
12:43 PM 36.7°F2.6°C 34.0°F1.1°C 90% 6.6 mph S10.6 kmh S 11.0 mph17.7 kmh 29.92 in1013.2 mb 0.00 in0.0 mm 0.00 in0.0 mm 0.00 in0.0 mm
12:44 PM 36.8°F2.7°C 34.4°F1.3°C 91% 5.2 mph SSE8.4 kmh SSE 11.0 mph17.7 kmh 29.92 in1013.2 mb 0.00 in0.0 mm 0.00 in0.0 mm 0.00 in0.0 mm
12:45 PM 36.8°F2.7°C 34.4°F1.3°C 91% 6.3 mph S10.1 kmh S 9.0 mph14.5 kmh 29.92 in1013.2 mb 0.00 in0.0 mm 0.00 in0.0 mm 0.00 in0.0 mm
12:46 PM 36.8°F2.7°C 34.4°F1.3°C 91% 5.5 mph S8.9 kmh S 9.0 mph14.5 kmh 29.92 in1013.2 mb 0.00 in0.0 mm 0.00 in0.0 mm 0.00 in0.0 mm
12:47 PM 36.9°F2.7°C 34.5°F1.4°C 91% 10.0 mph S16.1 kmh S 13.0 mph20.9 kmh 29.92 in1013.2 mb 0.00 in0.0 mm 0.00 in0.0 mm 0.00 in0.0 mm
12:48 PM 37.0°F2.8°C 34.6°F1.4°C 91% 9.0 mph S14.5 kmh S 13.0 mph20.9 kmh 29.92 in1013.2 mb 0.00 in0.0 mm 0.00 in0.0 mm 0.00 in0.0 mm
12:49 PM 37.0°F2.8°C 34.6°F1.4°C 91% 7.9 mph S12.7 kmh S 13.0 mph20.9 kmh 29.93 in1013.5 mb 0.00 in0.0 mm 0.00 in0.0 mm 0.00 in0.0 mm
12:50 PM 37.0°F2.8°C 34.6°F1.4°C 91% 8.9 mph S14.3 kmh S 14.0 mph22.5 kmh 29.92 in1013.2 mb 0.00 in0.0 mm 0.00 in0.0 mm 0.00 in0.0 mm
12:51 PM 37.1°F2.8°C 34.7°F1.5°C 91% 8.8 mph S14.2 kmh S 14.0 mph22.5 kmh 29.93 in1013.5 mb 0.00 in0.0 mm 0.00 in0.0 mm 0.00 in0.0 mm
12:52 PM 37.1°F2.8°C 34.7°F1.5°C 91% 9.1 mph S14.6 kmh S 12.0 mph19.3 kmh 29.93 in1013.5 mb 0.00 in0.0 mm 0.00 in0.0 mm 0.00 in0.0 mm
12:53 PM 37.1°F2.8°C 34.7°F1.5°C 91% 8.4 mph S13.5 kmh S 11.0 mph17.7 kmh 29.93 in1013.5 mb 0.00 in0.0 mm 0.00 in0.0 mm 0.00 in0.0 mm
12:54 PM 37.2°F2.9°C 34.8°F1.6°C 91% 7.7 mph S12.4 kmh S 11.0 mph17.7 kmh 29.93 in1013.5 mb 0.00 in0.0 mm 0.00 in0.0 mm 0.00 in0.0 mm
12:55 PM 37.2°F2.9°C 34.8°F1.6°C 91% 7.6 mph S12.2 kmh S 13.0 mph20.9 kmh 29.93 in1013.5 mb 0.00 in0.0 mm 0.00 in0.0 mm 0.00 in0.0 mm
12:56 PM 37.3°F2.9°C 34.9°F1.6°C 91% 8.6 mph S13.8 kmh S 13.0 mph20.9 kmh 29.93 in1013.5 mb 0.00 in0.0 mm 0.00 in0.0 mm 0.00 in0.0 mm
12:57 PM 37.3°F2.9°C 34.9°F1.6°C 91% 8.4 mph S13.5 kmh S 13.0 mph20.9 kmh 29.92 in1013.2 mb 0.00 in0.0 mm 0.00 in0.0 mm 0.00 in0.0 mm
12:58 PM 37.3°F2.9°C 34.9°F1.6°C 91% 5.8 mph S9.3 kmh S 13.0 mph20.9 kmh 29.92 in1013.2 mb 0.00 in0.0 mm 0.00 in0.0 mm 0.00 in0.0 mm
12:59 PM 37.4°F3.0°C 35.0°F1.7°C 91% 7.8 mph S12.6 kmh S 11.0 mph17.7 kmh 29.92 in1013.2 mb 0.00 in0.0 mm 0.00 in0.0 mm 0.00 in0.0 mm
01:00 PM 37.4°F3.0°C 35.0°F1.7°C 91% 9.5 mph S15.3 kmh S 14.0 mph22.5 kmh 29.92 in1013.2 mb 0.00 in0.0 mm 0.00 in0.0 mm 0.00 in0.0 mm
01:01 PM 37.5°F3.1°C 35.1°F1.7°C 91% 9.3 mph S15.0 kmh S 14.0 mph22.5 kmh 29.92 in1013.2 mb 0.00 in0.0 mm 0.00 in0.0 mm 0.00 in0.0 mm
01:02 PM 37.5°F3.1°C 35.1°F1.7°C 91% 6.8 mph S10.9 kmh S 13.0 mph20.9 kmh 29.92 in1013.2 mb 0.00 in0.0 mm 0.00 in0.0 mm 0.00 in0.0 mm
01:03 PM 37.5°F3.1°C 35.1°F1.7°C 91% 9.5 mph S15.3 kmh S 16.0 mph25.7 kmh 29.92 in1013.2 mb 0.00 in0.0 mm 0.00 in0.0 mm 0.00 in0.0 mm
01:04 PM 37.5°F3.1°C 35.1°F1.7°C 91% 6.8 mph S10.9 kmh S 16.0 mph25.7 kmh 29.92 in1013.2 mb 0.00 in0.0 mm 0.00 in0.0 mm 0.00 in0.0 mm
01:05 PM 37.5°F3.1°C 35.1°F1.7°C 91% 8.1 mph S13.0 kmh S 11.0 mph17.7 kmh 29.92 in1013.2 mb 0.00 in0.0 mm 0.00 in0.0 mm 0.00 in0.0 mm
01:06 PM 37.5°F3.1°C 35.1°F1.7°C 91% 9.2 mph S14.8 kmh S 12.0 mph19.3 kmh 29.92 in1013.2 mb 0.00 in0.0 mm 0.00 in0.0 mm 0.00 in0.0 mm
01:07 PM 37.5°F3.1°C 35.1°F1.7°C 91% 8.8 mph S14.2 kmh S 13.0 mph20.9 kmh 29.92 in1013.2 mb 0.00 in0.0 mm 0.00 in0.0 mm 0.00 in0.0 mm
01:08 PM 37.6°F3.1°C 35.2°F1.8°C 91% 8.3 mph S13.4 kmh S 13.0 mph20.9 kmh 29.92 in1013.2 mb 0.00 in0.0 mm 0.00 in0.0 mm 0.00 in0.0 mm
01:09 PM 37.6°F3.1°C 35.2°F1.8°C 91% 8.9 mph S14.3 kmh S 12.0 mph19.3 kmh 29.92 in1013.2 mb 0.00 in0.0 mm 0.00 in0.0 mm 0.00 in0.0 mm
01:10 PM 37.6°F3.1°C 35.2°F1.8°C 91% 7.9 mph SSE12.7 kmh SSE 12.0 mph19.3 kmh 29.92 in1013.2 mb 0.00 in0.0 mm 0.00 in0.0 mm 0.00 in0.0 mm
01:11 PM 37.6°F3.1°C 35.2°F1.8°C 91% 8.2 mph S13.2 kmh S 11.0 mph17.7 kmh 29.92 in1013.2 mb 0.00 in0.0 mm 0.00 in0.0 mm 0.00 in0.0 mm
01:12 PM 37.6°F3.1°C 35.2°F1.8°C 91% 6.5 mph S10.5 kmh S 11.0 mph17.7 kmh 29.92 in1013.2 mb 0.00 in0.0 mm 0.00 in0.0 mm 0.00 in0.0 mm
01:13 PM 37.6°F3.1°C 35.2°F1.8°C 91% 8.7 mph S14.0 kmh S 15.0 mph24.1 kmh 29.92 in1013.2 mb 0.00 in0.0 mm 0.00 in0.0 mm 0.00 in0.0 mm
01:14 PM 37.6°F3.1°C 35.2°F1.8°C 91% 9.4 mph S15.1 kmh S 15.0 mph24.1 kmh 29.92 in1013.2 mb 0.00 in0.0 mm 0.00 in0.0 mm 0.00 in0.0 mm
01:15 PM 37.7°F3.2°C 35.3°F1.8°C 91% 11.5 mph S18.5 kmh S 17.0 mph27.4 kmh 29.92 in1013.2 mb 0.00 in0.0 mm 0.00 in0.0 mm 0.00 in0.0 mm
01:16 PM 37.6°F3.1°C 35.2°F1.8°C 91% 7.6 mph S12.2 kmh S 17.0 mph27.4 kmh 29.92 in1013.2 mb 0.00 in0.0 mm 0.00 in0.0 mm 0.00 in0.0 mm
01:17 PM 37.7°F3.2°C 35.3°F1.8°C 91% 7.8 mph SSE12.6 kmh SSE 15.0 mph24.1 kmh 29.92 in1013.2 mb 0.00 in0.0 mm 0.00 in0.0 mm 0.00 in0.0 mm
01:18 PM 37.7°F3.2°C 35.3°F1.8°C 91% 7.5 mph S12.1 kmh S 15.0 mph24.1 kmh 29.91 in1012.9 mb 0.00 in0.0 mm 0.00 in0.0 mm 0.00 in0.0 mm
01:19 PM 37.7°F3.2°C 35.3°F1.8°C 91% 7.6 mph S12.2 kmh S 11.0 mph17.7 kmh 29.92 in1013.2 mb 0.00 in0.0 mm 0.00 in0.0 mm 0.00 in0.0 mm
01:20 PM 37.7°F3.2°C 35.3°F1.8°C 91% 7.3 mph S11.7 kmh S 12.0 mph19.3 kmh 29.92 in1013.2 mb 0.00 in0.0 mm 0.00 in0.0 mm 0.00 in0.0 mm
01:21 PM 37.7°F3.2°C 35.3°F1.8°C 91% 9.6 mph S15.4 kmh S 16.0 mph25.7 kmh 29.91 in1012.9 mb 0.00 in0.0 mm 0.00 in0.0 mm 0.00 in0.0 mm
01:22 PM 37.8°F3.2°C 35.4°F1.9°C 91% 8.1 mph S13.0 kmh S 16.0 mph25.7 kmh 29.91 in1012.9 mb 0.00 in0.0 mm 0.00 in0.0 mm 0.00 in0.0 mm
01:23 PM 37.8°F3.2°C 35.4°F1.9°C 91% 6.9 mph S11.1 kmh S 12.0 mph19.3 kmh 29.91 in1012.9 mb 0.00 in0.0 mm 0.00 in0.0 mm 0.00 in0.0 mm
01:24 PM 37.8°F3.2°C 35.4°F1.9°C 91% 7.0 mph SSE11.3 kmh SSE 11.0 mph17.7 kmh 29.91 in1012.9 mb 0.00 in0.0 mm 0.00 in0.0 mm 0.00 in0.0 mm
01:25 PM 37.8°F3.2°C 35.4°F1.9°C 91% 8.4 mph S13.5 kmh S 11.0 mph17.7 kmh 29.91 in1012.9 mb 0.00 in0.0 mm 0.00 in0.0 mm 0.00 in0.0 mm
01:26 PM 37.8°F3.2°C 35.4°F1.9°C 91% 7.2 mph S11.6 kmh S 11.0 mph17.7 kmh 29.91 in1012.9 mb 0.00 in0.0 mm 0.00 in0.0 mm 0.00 in0.0 mm
01:27 PM 37.8°F3.2°C 35.4°F1.9°C 91% 7.1 mph S11.4 kmh S 11.0 mph17.7 kmh 29.91 in1012.9 mb 0.00 in0.0 mm 0.00 in0.0 mm 0.00 in0.0 mm
01:28 PM 37.8°F3.2°C 35.4°F1.9°C 91% 5.9 mph S9.5 kmh S 11.0 mph17.7 kmh 29.91 in1012.9 mb 0.00 in0.0 mm 0.00 in0.0 mm 0.00 in0.0 mm
01:29 PM 37.8°F3.2°C 35.4°F1.9°C 91% 5.6 mph SSE9.0 kmh SSE 10.0 mph16.1 kmh 29.91 in1012.9 mb 0.00 in0.0 mm 0.00 in0.0 mm 0.00 in0.0 mm
01:30 PM 37.8°F3.2°C 35.4°F1.9°C 91% 6.4 mph SSE10.3 kmh SSE 11.0 mph17.7 kmh 29.91 in1012.9 mb 0.00 in0.0 mm 0.00 in0.0 mm 0.00 in0.0 mm
01:31 PM 37.9°F3.3°C 35.5°F1.9°C 91% 6.1 mph S9.8 kmh S 11.0 mph17.7 kmh 29.91 in1012.9 mb 0.00 in0.0 mm 0.00 in0.0 mm 0.00 in0.0 mm
01:32 PM 37.8°F3.2°C 35.4°F1.9°C 91% 6.8 mph S10.9 kmh S 12.0 mph19.3 kmh 29.91 in1012.9 mb 0.00 in0.0 mm 0.00 in0.0 mm 0.00 in0.0 mm
01:33 PM 37.9°F3.3°C 35.5°F1.9°C 91% 8.1 mph S13.0 kmh S 12.0 mph19.3 kmh 29.91 in1012.9 mb 0.00 in0.0 mm 0.00 in0.0 mm 0.00 in0.0 mm
01:34 PM 37.9°F3.3°C 35.5°F1.9°C 91% 6.5 mph S10.5 kmh S 10.0 mph16.1 kmh 29.91 in1012.9 mb 0.00 in0.0 mm 0.00 in0.0 mm 0.00 in0.0 mm
01:35 PM 37.9°F3.3°C 35.5°F1.9°C 91% 7.7 mph S12.4 kmh S 15.0 mph24.1 kmh 29.91 in1012.9 mb 0.00 in0.0 mm 0.00 in0.0 mm 0.00 in0.0 mm
01:36 PM 37.9°F3.3°C 35.5°F1.9°C 91% 8.4 mph S13.5 kmh S 15.0 mph24.1 kmh 29.91 in1012.9 mb 0.00 in0.0 mm 0.00 in0.0 mm 0.00 in0.0 mm
01:37 PM 37.9°F3.3°C 35.5°F1.9°C 91% 9.5 mph S15.3 kmh S 13.0 mph20.9 kmh 29.91 in1012.9 mb 0.00 in0.0 mm 0.00 in0.0 mm 0.00 in0.0 mm
01:38 PM 37.9°F3.3°C 35.5°F1.9°C 91% 9.0 mph S14.5 kmh S 14.0 mph22.5 kmh 29.91 in1012.9 mb 0.00 in0.0 mm 0.00 in0.0 mm 0.00 in0.0 mm
01:39 PM 37.9°F3.3°C 35.5°F1.9°C 91% 9.4 mph S15.1 kmh S 15.0 mph24.1 kmh 29.91 in1012.9 mb 0.00 in0.0 mm 0.00 in0.0 mm 0.00 in0.0 mm
01:40 PM 37.9°F3.3°C 35.5°F1.9°C 91% 8.4 mph S13.5 kmh S 15.0 mph24.1 kmh 29.91 in1012.9 mb 0.00 in0.0 mm 0.00 in0.0 mm 0.00 in0.0 mm
01:41 PM 37.9°F3.3°C 35.5°F1.9°C 91% 7.5 mph S12.1 kmh S 12.0 mph19.3 kmh 29.91 in1012.9 mb 0.00 in0.0 mm 0.00 in0.0 mm 0.00 in0.0 mm
01:42 PM 38.0°F3.3°C 35.6°F2.0°C 91% 6.2 mph S10.0 kmh S 12.0 mph19.3 kmh 29.91 in1012.9 mb 0.00 in0.0 mm 0.00 in0.0 mm 0.00 in0.0 mm
01:43 PM 38.0°F3.3°C 35.6°F2.0°C 91% 6.8 mph SSE10.9 kmh SSE 11.0 mph17.7 kmh 29.90 in1012.5 mb 0.00 in0.0 mm 0.00 in0.0 mm 0.00 in0.0 mm
01:44 PM 38.0°F3.3°C 35.6°F2.0°C 91% 8.6 mph S13.8 kmh S 11.0 mph17.7 kmh 29.90 in1012.5 mb 0.00 in0.0 mm 0.00 in0.0 mm 0.00 in0.0 mm
01:45 PM 38.0°F3.3°C 35.6°F2.0°C 91% 9.7 mph S15.6 kmh S 13.0 mph20.9 kmh 29.90 in1012.5 mb 0.00 in0.0 mm 0.00 in0.0 mm 0.00 in0.0 mm
01:46 PM 38.0°F3.3°C 35.6°F2.0°C 91% 11.6 mph S18.7 kmh S 16.0 mph25.7 kmh 29.90 in1012.5 mb 0.00 in0.0 mm 0.00 in0.0 mm 0.00 in0.0 mm
01:47 PM 38.0°F3.3°C 35.6°F2.0°C 91% 10.1 mph S16.3 kmh S 17.0 mph27.4 kmh 29.90 in1012.5 mb 0.00 in0.0 mm 0.00 in0.0 mm 0.00 in0.0 mm
01:48 PM 38.1°F3.4°C 35.7°F2.1°C 91% 7.6 mph S12.2 kmh S 17.0 mph27.4 kmh 29.90 in1012.5 mb 0.00 in0.0 mm 0.00 in0.0 mm 0.00 in0.0 mm
01:49 PM 38.1°F3.4°C 35.7°F2.1°C 91% 6.1 mph S9.8 kmh S 12.0 mph19.3 kmh 29.90 in1012.5 mb 0.00 in0.0 mm 0.00 in0.0 mm 0.00 in0.0 mm
01:50 PM 38.1°F3.4°C 35.7°F2.1°C 91% 7.2 mph SSE11.6 kmh SSE 12.0 mph19.3 kmh 29.90 in1012.5 mb 0.00 in0.0 mm 0.00 in0.0 mm 0.00 in0.0 mm
01:51 PM 38.1°F3.4°C 35.7°F2.1°C 91% 9.2 mph SSE14.8 kmh SSE 12.0 mph19.3 kmh 29.89 in1012.2 mb 0.00 in0.0 mm 0.00 in0.0 mm 0.00 in0.0 mm
01:52 PM 38.1°F3.4°C 35.7°F2.1°C 91% 6.6 mph SSE10.6 kmh SSE 12.0 mph19.3 kmh 29.89 in1012.2 mb 0.00 in0.0 mm 0.00 in0.0 mm 0.00 in0.0 mm
01:53 PM 38.2°F3.4°C 35.8°F2.1°C 91% 7.8 mph S12.6 kmh S 12.0 mph19.3 kmh 29.89 in1012.2 mb 0.00 in0.0 mm 0.00 in0.0 mm 0.00 in0.0 mm
01:54 PM 38.2°F3.4°C 35.8°F2.1°C 91% 6.7 mph S10.8 kmh S 12.0 mph19.3 kmh 29.89 in1012.2 mb 0.00 in0.0 mm 0.00 in0.0 mm 0.00 in0.0 mm
01:55 PM 38.2°F3.4°C 35.8°F2.1°C 91% 4.7 mph S7.6 kmh S 9.0 mph14.5 kmh 29.89 in1012.2 mb 0.00 in0.0 mm 0.00 in0.0 mm 0.00 in0.0 mm
01:56 PM 38.2°F3.4°C 35.8°F2.1°C 91% 8.2 mph S13.2 kmh S 11.0 mph17.7 kmh 29.89 in1012.2 mb 0.00 in0.0 mm 0.00 in0.0 mm 0.00 in0.0 mm
01:57 PM 38.2°F3.4°C 35.8°F2.1°C 91% 10.5 mph S16.9 kmh S 15.0 mph24.1 kmh 29.89 in1012.2 mb 0.00 in0.0 mm 0.00 in0.0 mm 0.00 in0.0 mm
01:58 PM 38.3°F3.5°C 36.2°F2.3°C 92% 9.0 mph S14.5 kmh S 15.0 mph24.1 kmh 29.89 in1012.2 mb 0.00 in0.0 mm 0.00 in0.0 mm 0.00 in0.0 mm
01:59 PM 38.3°F3.5°C 36.2°F2.3°C 92% 8.1 mph S13.0 kmh S 13.0 mph20.9 kmh 29.89 in1012.2 mb 0.00 in0.0 mm 0.00 in0.0 mm 0.00 in0.0 mm
02:00 PM 38.3°F3.5°C 35.9°F2.2°C 91% 10.3 mph S16.6 kmh S 15.0 mph24.1 kmh 29.89 in1012.2 mb 0.00 in0.0 mm 0.00 in0.0 mm 0.00 in0.0 mm
02:01 PM 38.4°F3.6°C 36.0°F2.2°C 91% 7.9 mph S12.7 kmh S 15.0 mph24.1 kmh 29.89 in1012.2 mb 0.00 in0.0 mm 0.00 in0.0 mm 0.00 in0.0 mm
02:02 PM 38.4°F3.6°C 36.0°F2.2°C 91% 8.4 mph S13.5 kmh S 12.0 mph19.3 kmh 29.89 in1012.2 mb 0.00 in0.0 mm 0.00 in0.0 mm 0.00 in0.0 mm
02:03 PM 38.4°F3.6°C 36.0°F2.2°C 91% 8.1 mph S13.0 kmh S 11.0 mph17.7 kmh 29.89 in1012.2 mb 0.00 in0.0 mm 0.00 in0.0 mm 0.00 in0.0 mm
02:04 PM 38.5°F3.6°C 36.1°F2.3°C 91% 8.2 mph S13.2 kmh S 12.0 mph19.3 kmh 29.89 in1012.2 mb 0.00 in0.0 mm 0.00 in0.0 mm 0.00 in0.0 mm
02:05 PM 38.5°F3.6°C 36.1°F2.3°C 91% 9.7 mph S15.6 kmh S 13.0 mph20.9 kmh 29.90 in1012.5 mb 0.00 in0.0 mm 0.00 in0.0 mm 0.00 in0.0 mm
02:06 PM 38.5°F3.6°C 36.4°F2.4°C 92% 11.4 mph S18.3 kmh S 17.0 mph27.4 kmh 29.89 in1012.2 mb 0.00 in0.0 mm 0.00 in0.0 mm 0.00 in0.0 mm
02:07 PM 38.6°F3.7°C 36.5°F2.5°C 92% 10.5 mph S16.9 kmh S 17.0 mph27.4 kmh 29.89 in1012.2 mb 0.00 in0.0 mm 0.00 in0.0 mm 0.00 in0.0 mm
02:08 PM 38.5°F3.6°C 36.4°F2.4°C 92% 13.9 mph S22.4 kmh S 19.0 mph30.6 kmh 29.89 in1012.2 mb 0.00 in0.0 mm 0.00 in0.0 mm 0.00 in0.0 mm
02:09 PM 38.6°F3.7°C 36.5°F2.5°C 92% 10.8 mph S17.4 kmh S 19.0 mph30.6 kmh 29.89 in1012.2 mb 0.00 in0.0 mm 0.00 in0.0 mm 0.00 in0.0 mm
02:10 PM 38.6°F3.7°C 36.5°F2.5°C 92% 11.2 mph S18.0 kmh S 16.0 mph25.7 kmh 29.89 in1012.2 mb 0.00 in0.0 mm 0.00 in0.0 mm 0.00 in0.0 mm
02:11 PM 38.6°F3.7°C 36.5°F2.5°C 92% 10.8 mph S17.4 kmh S 17.0 mph27.4 kmh 29.89 in1012.2 mb 0.00 in0.0 mm 0.00 in0.0 mm 0.00 in0.0 mm
02:12 PM 38.6°F3.7°C 36.2°F2.3°C 91% 9.6 mph S15.4 kmh S 17.0 mph27.4 kmh 29.89 in1012.2 mb 0.00 in0.0 mm 0.00 in0.0 mm 0.00 in0.0 mm
02:13 PM 38.6°F3.7°C 36.5°F2.5°C 92% 11.6 mph S18.7 kmh S 18.0 mph29.0 kmh 29.89 in1012.2 mb 0.00 in0.0 mm 0.00 in0.0 mm 0.00 in0.0 mm
02:14 PM 38.6°F3.7°C 36.5°F2.5°C 92% 12.5 mph S20.1 kmh S 18.0 mph29.0 kmh 29.89 in1012.2 mb 0.00 in0.0 mm 0.00 in0.0 mm 0.00 in0.0 mm
02:15 PM 38.6°F3.7°C 36.5°F2.5°C 92% 11.1 mph S17.9 kmh S 19.0 mph30.6 kmh 29.89 in1012.2 mb 0.00 in0.0 mm 0.00 in0.0 mm 0.00 in0.0 mm
02:16 PM 38.7°F3.7°C 36.6°F2.6°C 92% 10.4 mph S16.7 kmh S 19.0 mph30.6 kmh 29.89 in1012.2 mb 0.00 in0.0 mm 0.00 in0.0 mm 0.00 in0.0 mm
02:17 PM 38.6°F3.7°C 36.5°F2.5°C 92% 11.1 mph S17.9 kmh S 18.0 mph29.0 kmh 29.89 in1012.2 mb 0.00 in0.0 mm 0.00 in0.0 mm 0.00 in0.0 mm
02:18 PM 38.6°F3.7°C 36.2°F2.3°C 91% 10.3 mph S16.6 kmh S 18.0 mph29.0 kmh 29.89 in1012.2 mb 0.00 in0.0 mm 0.00 in0.0 mm 0.00 in0.0 mm
02:19 PM 38.7°F3.7°C 36.6°F2.6°C 92% 10.7 mph S17.2 kmh S 17.0 mph27.4 kmh 29.89 in1012.2 mb 0.00 in0.0 mm 0.00 in0.0 mm 0.00 in0.0 mm
02:20 PM 38.7°F3.7°C 36.6°F2.6°C 92% 11.2 mph S18.0 kmh S 17.0 mph27.4 kmh 29.89 in1012.2 mb 0.00 in0.0 mm 0.00 in0.0 mm 0.00 in0.0 mm
02:21 PM 38.7°F3.7°C 36.6°F2.6°C 92% 10.9 mph S17.5 kmh S 17.0 mph27.4 kmh 29.88 in1011.9 mb 0.00 in0.0 mm 0.00 in0.0 mm 0.00 in0.0 mm
02:22 PM 38.7°F3.7°C 36.6°F2.6°C 92% 10.5 mph S16.9 kmh S 17.0 mph27.4 kmh 29.88 in1011.9 mb 0.00 in0.0 mm 0.00 in0.0 mm 0.00 in0.0 mm
02:23 PM 38.8°F3.8°C 36.7°F2.6°C 92% 9.5 mph S15.3 kmh S 16.0 mph25.7 kmh 29.88 in1011.9 mb 0.00 in0.0 mm 0.00 in0.0 mm 0.00 in0.0 mm
02:24 PM 38.8°F3.8°C 36.7°F2.6°C 92% 11.2 mph S18.0 kmh S 16.0 mph25.7 kmh 29.88 in1011.9 mb 0.00 in0.0 mm 0.00 in0.0 mm 0.00 in0.0 mm
02:25 PM 38.8°F3.8°C 36.7°F2.6°C 92% 13.0 mph S20.9 kmh S 22.0 mph35.4 kmh 29.88 in1011.9 mb 0.00 in0.0 mm 0.00 in0.0 mm 0.00 in0.0 mm
02:26 PM 38.8°F3.8°C 36.7°F2.6°C 92% 10.8 mph S17.4 kmh S 22.0 mph35.4 kmh 29.88 in1011.9 mb 0.00 in0.0 mm 0.00 in0.0 mm 0.00 in0.0 mm
02:27 PM 38.8°F3.8°C 36.7°F2.6°C 92% 9.6 mph S15.4 kmh S 15.0 mph24.1 kmh 29.88 in1011.9 mb 0.00 in0.0 mm 0.00 in0.0 mm 0.00 in0.0 mm
02:28 PM 38.8°F3.8°C 36.7°F2.6°C 92% 12.0 mph S19.3 kmh S 20.0 mph32.2 kmh 29.88 in1011.9 mb 0.00 in0.0 mm 0.00 in0.0 mm 0.00 in0.0 mm
02:29 PM 38.8°F3.8°C 36.7°F2.6°C 92% 10.5 mph S16.9 kmh S 20.0 mph32.2 kmh 29.88 in1011.9 mb 0.00 in0.0 mm 0.00 in0.0 mm 0.00 in0.0 mm
02:30 PM 38.8°F3.8°C 36.7°F2.6°C 92% 12.0 mph S19.3 kmh S 17.0 mph27.4 kmh 29.88 in1011.9 mb 0.00 in0.0 mm 0.00 in0.0 mm 0.00 in0.0 mm
02:31 PM 38.8°F3.8°C 36.7°F2.6°C 92% 9.7 mph S15.6 kmh S 17.0 mph27.4 kmh 29.88 in1011.9 mb 0.00 in0.0 mm 0.00 in0.0 mm 0.00 in0.0 mm
02:32 PM 38.8°F3.8°C 36.7°F2.6°C 92% 10.4 mph S16.7 kmh S 21.0 mph33.8 kmh 29.88 in1011.9 mb 0.00 in0.0 mm 0.00 in0.0 mm 0.00 in0.0 mm
02:33 PM 38.8°F3.8°C 36.7°F2.6°C 92% 10.4 mph S16.7 kmh S 21.0 mph33.8 kmh 29.88 in1011.9 mb 0.00 in0.0 mm 0.00 in0.0 mm 0.00 in0.0 mm
02:34 PM 38.8°F3.8°C 36.7°F2.6°C 92% 8.9 mph S14.3 kmh S 18.0 mph29.0 kmh 29.88 in1011.9 mb 0.00 in0.0 mm 0.00 in0.0 mm 0.00 in0.0 mm
02:35 PM 38.8°F3.8°C 36.7°F2.6°C 92% 10.7 mph S17.2 kmh S 15.0 mph24.1 kmh 29.88 in1011.9 mb 0.00 in0.0 mm 0.00 in0.0 mm 0.00 in0.0 mm
02:36 PM 38.8°F3.8°C 36.7°F2.6°C 92% 10.9 mph S17.5 kmh S 15.0 mph24.1 kmh 29.88 in1011.9 mb 0.00 in0.0 mm 0.00 in0.0 mm 0.00 in0.0 mm
02:37 PM 38.8°F3.8°C 36.7°F2.6°C 92% 9.5 mph S15.3 kmh S 18.0 mph29.0 kmh 29.88 in1011.9 mb 0.00 in0.0 mm 0.00 in0.0 mm 0.00 in0.0 mm
02:38 PM 38.8°F3.8°C 36.7°F2.6°C 92% 11.5 mph S18.5 kmh S 16.0 mph25.7 kmh 29.88 in1011.9 mb 0.00 in0.0 mm 0.00 in0.0 mm 0.00 in0.0 mm
02:39 PM 38.8°F3.8°C 36.7°F2.6°C 92% 12.1 mph S19.5 kmh S 16.0 mph25.7 kmh 29.88 in1011.9 mb 0.00 in0.0 mm 0.00 in0.0 mm 0.00 in0.0 mm
02:40 PM 38.8°F3.8°C 36.7°F2.6°C 92% 14.6 mph S23.5 kmh S 19.0 mph30.6 kmh 29.88 in1011.9 mb 0.00 in0.0 mm 0.00 in0.0 mm 0.00 in0.0 mm
02:41 PM 38.8°F3.8°C 36.7°F2.6°C 92% 9.2 mph S14.8 kmh S 19.0 mph30.6 kmh 29.88 in1011.9 mb 0.00 in0.0 mm 0.00 in0.0 mm 0.00 in0.0 mm
02:42 PM 38.9°F3.8°C 36.8°F2.7°C 92% 9.3 mph S15.0 kmh S 13.0 mph20.9 kmh 29.88 in1011.9 mb 0.00 in0.0 mm 0.00 in0.0 mm 0.00 in0.0 mm
02:43 PM 38.8°F3.8°C 36.7°F2.6°C 92% 9.6 mph S15.4 kmh S 15.0 mph24.1 kmh 29.87 in1011.5 mb 0.00 in0.0 mm 0.00 in0.0 mm 0.00 in0.0 mm
02:44 PM 38.8°F3.8°C 36.7°F2.6°C 92% 9.8 mph S15.8 kmh S 15.0 mph24.1 kmh 29.87 in1011.5 mb 0.00 in0.0 mm 0.00 in0.0 mm 0.00 in0.0 mm
02:45 PM 38.8°F3.8°C 36.7°F2.6°C 92% 9.4 mph S15.1 kmh S 13.0 mph20.9 kmh 29.87 in1011.5 mb 0.00 in0.0 mm 0.00 in0.0 mm 0.00 in0.0 mm
02:46 PM 38.9°F3.8°C 36.8°F2.7°C 92% 8.8 mph S14.2 kmh S 13.0 mph20.9 kmh 29.87 in1011.5 mb 0.00 in0.0 mm 0.00 in0.0 mm 0.00 in0.0 mm
02:47 PM 38.9°F3.8°C 36.8°F2.7°C 92% 11.8 mph S19.0 kmh S 15.0 mph24.1 kmh 29.87 in1011.5 mb 0.00 in0.0 mm 0.00 in0.0 mm 0.00 in0.0 mm
02:48 PM 38.9°F3.8°C 36.8°F2.7°C 92% 11.2 mph S18.0 kmh S 16.0 mph25.7 kmh 29.87 in1011.5 mb 0.00 in0.0 mm 0.00 in0.0 mm 0.00 in0.0 mm
02:49 PM 38.9°F3.8°C 36.8°F2.7°C 92% 9.2 mph S14.8 kmh S 16.0 mph25.7 kmh 29.87 in1011.5 mb 0.00 in0.0 mm 0.00 in0.0 mm 0.00 in0.0 mm
02:50 PM 38.9°F3.8°C 36.8°F2.7°C 92% 10.7 mph S17.2 kmh S 15.0 mph24.1 kmh 29.87 in1011.5 mb 0.00 in0.0 mm 0.00 in0.0 mm 0.00 in0.0 mm
02:51 PM 38.9°F3.8°C 36.8°F2.7°C 92% 11.5 mph S18.5 kmh S 15.0 mph24.1 kmh 29.87 in1011.5 mb 0.00 in0.0 mm 0.00 in0.0 mm 0.00 in0.0 mm
02:52 PM 39.0°F3.9°C 36.9°F2.7°C 92% 13.3 mph S21.4 kmh S 20.0 mph32.2 kmh 29.87 in1011.5 mb 0.00 in0.0 mm 0.00 in0.0 mm 0.00 in0.0 mm
02:53 PM 39.1°F3.9°C 37.0°F2.8°C 92% 10.9 mph S17.5 kmh S 20.0 mph32.2 kmh 29.87 in1011.5 mb 0.00 in0.0 mm 0.00 in0.0 mm 0.00 in0.0 mm
02:54 PM 39.1°F3.9°C 37.0°F2.8°C 92% 12.6 mph S20.3 kmh S 17.0 mph27.4 kmh 29.87 in1011.5 mb 0.00 in0.0 mm 0.00 in0.0 mm 0.00 in0.0 mm
02:55 PM 39.1°F3.9°C 37.0°F2.8°C 92% 10.0 mph S16.1 kmh S 17.0 mph27.4 kmh 29.87 in1011.5 mb 0.00 in0.0 mm 0.00 in0.0 mm 0.00 in0.0 mm
02:56 PM 39.2°F4.0°C 37.1°F2.8°C 92% 8.3 mph S13.4 kmh S 17.0 mph27.4 kmh 29.87 in1011.5 mb 0.00 in0.0 mm 0.00 in0.0 mm 0.00 in0.0 mm
02:57 PM 39.1°F3.9°C 37.0°F2.8°C 92% 6.9 mph S11.1 kmh S 12.0 mph19.3 kmh 29.87 in1011.5 mb 0.00 in0.0 mm 0.00 in0.0 mm 0.00 in0.0 mm
02:58 PM 39.1°F3.9°C 37.0°F2.8°C 92% 10.6 mph S17.1 kmh S 17.0 mph27.4 kmh 29.87 in1011.5 mb 0.00 in0.0 mm 0.00 in0.0 mm 0.00 in0.0 mm
02:59 PM 39.2°F4.0°C 37.1°F2.8°C 92% 13.4 mph S21.6 kmh S 17.0 mph27.4 kmh 29.86 in1011.2 mb 0.00 in0.0 mm 0.00 in0.0 mm 0.00 in0.0 mm
03:00 PM 39.2°F4.0°C 37.1°F2.8°C 92% 9.4 mph S15.1 kmh S 17.0 mph27.4 kmh 29.86 in1011.2 mb 0.00 in0.0 mm 0.00 in0.0 mm 0.00 in0.0 mm
03:01 PM 39.3°F4.1°C 37.2°F2.9°C 92% 7.4 mph S11.9 kmh S 17.0 mph27.4 kmh 29.86 in1011.2 mb 0.00 in0.0 mm 0.00 in0.0 mm 0.00 in0.0 mm
03:02 PM 39.2°F4.0°C 37.1°F2.8°C 92% 8.7 mph S14.0 kmh S 17.0 mph27.4 kmh 29.86 in1011.2 mb 0.00 in0.0 mm 0.00 in0.0 mm 0.00 in0.0 mm
03:03 PM 39.3°F4.1°C 37.2°F2.9°C 92% 11.1 mph S17.9 kmh S 15.0 mph24.1 kmh 29.86 in1011.2 mb 0.00 in0.0 mm 0.00 in0.0 mm 0.00 in0.0 mm
03:04 PM 39.3°F4.1°C 37.2°F2.9°C 92% 10.1 mph S16.3 kmh S 15.0 mph24.1 kmh 29.86 in1011.2 mb 0.00 in0.0 mm 0.00 in0.0 mm 0.00 in0.0 mm
03:05 PM 39.3°F4.1°C 37.2°F2.9°C 92% 11.1 mph S17.9 kmh S 17.0 mph27.4 kmh 29.86 in1011.2 mb 0.00 in0.0 mm 0.00 in0.0 mm 0.00 in0.0 mm
03:06 PM 39.3°F4.1°C 37.2°F2.9°C 92% 11.7 mph S18.8 kmh S 17.0 mph27.4 kmh 29.86 in1011.2 mb 0.00 in0.0 mm 0.00 in0.0 mm 0.00 in0.0 mm
03:07 PM 39.3°F4.1°C 37.2°F2.9°C 92% 11.4 mph S18.3 kmh S 17.0 mph27.4 kmh 29.86 in1011.2 mb 0.00 in0.0 mm 0.00 in0.0 mm 0.00 in0.0 mm
03:08 PM 39.3°F4.1°C 37.2°F2.9°C 92% 10.1 mph S16.3 kmh S 17.0 mph27.4 kmh 29.86 in1011.2 mb 0.00 in0.0 mm 0.00 in0.0 mm 0.00 in0.0 mm
03:09 PM 39.4°F4.1°C 37.3°F2.9°C 92% 11.7 mph S18.8 kmh S 16.0 mph25.7 kmh 29.85 in1010.8 mb 0.00 in0.0 mm 0.00 in0.0 mm 0.00 in0.0 mm
03:10 PM 39.4°F4.1°C 37.3°F2.9°C 92% 11.8 mph S19.0 kmh S 22.0 mph35.4 kmh 29.85 in1010.8 mb 0.00 in0.0 mm 0.00 in0.0 mm 0.00 in0.0 mm
03:11 PM 39.4°F4.1°C 37.3°F2.9°C 92% 11.8 mph S19.0 kmh S 22.0 mph35.4 kmh 29.85 in1010.8 mb 0.00 in0.0 mm 0.00 in0.0 mm 0.00 in0.0 mm
03:12 PM 39.4°F4.1°C 37.3°F2.9°C 92% 12.8 mph S20.6 kmh S 20.0 mph32.2 kmh 29.85 in1010.8 mb 0.00 in0.0 mm 0.00 in0.0 mm 0.00 in0.0 mm
03:13 PM 39.4°F4.1°C 37.3°F2.9°C 92% 9.4 mph S15.1 kmh S 20.0 mph32.2 kmh 29.85 in1010.8 mb 0.00 in0.0 mm 0.00 in0.0 mm 0.00 in0.0 mm
03:14 PM 39.4°F4.1°C 37.3°F2.9°C 92% 7.3 mph S11.7 kmh S 12.0 mph19.3 kmh 29.85 in1010.8 mb 0.00 in0.0 mm 0.00 in0.0 mm 0.00 in0.0 mm
03:15 PM 39.4°F4.1°C 37.3°F2.9°C 92% 13.4 mph S21.6 kmh S 18.0 mph29.0 kmh 29.85 in1010.8 mb 0.00 in0.0 mm 0.00 in0.0 mm 0.00 in0.0 mm
03:16 PM 39.5°F4.2°C 37.4°F3.0°C 92% 12.1 mph S19.5 kmh S 18.0 mph29.0 kmh 29.85 in1010.8 mb 0.00 in0.0 mm 0.00 in0.0 mm 0.00 in0.0 mm
03:17 PM 39.4°F4.1°C 37.3°F2.9°C 92% 9.2 mph S14.8 kmh S 16.0 mph25.7 kmh 29.85 in1010.8 mb 0.00 in0.0 mm 0.00 in0.0 mm 0.00 in0.0 mm
03:18 PM 39.5°F4.2°C 37.4°F3.0°C 92% 12.4 mph S20.0 kmh S 23.0 mph37.0 kmh 29.85 in1010.8 mb 0.00 in0.0 mm 0.00 in0.0 mm 0.00 in0.0 mm
03:19 PM 39.5°F4.2°C 37.4°F3.0°C 92% 12.8 mph S20.6 kmh S 23.0 mph37.0 kmh 29.85 in1010.8 mb 0.00 in0.0 mm 0.00 in0.0 mm 0.00 in0.0 mm
03:20 PM 39.5°F4.2°C 37.4°F3.0°C 92% 13.4 mph S21.6 kmh S 21.0 mph33.8 kmh 29.85 in1010.8 mb 0.00 in0.0 mm 0.00 in0.0 mm 0.00 in0.0 mm
03:21 PM 39.6°F4.2°C 37.5°F3.1°C 92% 12.7 mph S20.4 kmh S 19.0 mph30.6 kmh 29.85 in1010.8 mb 0.00 in0.0 mm 0.00 in0.0 mm 0.00 in0.0 mm
03:22 PM 39.6°F4.2°C 37.5°F3.1°C 92% 11.9 mph S19.2 kmh S 21.0 mph33.8 kmh 29.85 in1010.8 mb 0.00 in0.0 mm 0.00 in0.0 mm 0.00 in0.0 mm
03:23 PM 39.6°F4.2°C 37.5°F3.1°C 92% 10.5 mph S16.9 kmh S 21.0 mph33.8 kmh 29.84 in1010.5 mb 0.00 in0.0 mm 0.00 in0.0 mm 0.00 in0.0 mm
03:24 PM 39.6°F4.2°C 37.5°F3.1°C 92% 10.5 mph S16.9 kmh S 21.0 mph33.8 kmh 29.84 in1010.5 mb 0.00 in0.0 mm 0.00 in0.0 mm 0.00 in0.0 mm
03:25 PM 39.6°F4.2°C 37.5°F3.1°C 92% 11.7 mph S18.8 kmh S 21.0 mph33.8 kmh 29.84 in1010.5 mb 0.00 in0.0 mm 0.00 in0.0 mm 0.00 in0.0 mm
03:26 PM 39.6°F4.2°C 37.5°F3.1°C 92% 10.9 mph S17.5 kmh S 18.0 mph29.0 kmh 29.84 in1010.5 mb 0.00 in0.0 mm 0.00 in0.0 mm 0.00 in0.0 mm
03:27 PM 39.7°F4.3°C 37.6°F3.1°C 92% 13.4 mph S21.6 kmh S 20.0 mph32.2 kmh 29.84 in1010.5 mb 0.00 in0.0 mm 0.00 in0.0 mm 0.00 in0.0 mm
03:28 PM 39.7°F4.3°C 37.6°F3.1°C 92% 13.0 mph S20.9 kmh S 20.0 mph32.2 kmh 29.84 in1010.5 mb 0.00 in0.0 mm 0.00 in0.0 mm 0.00 in0.0 mm
03:29 PM 39.7°F4.3°C 37.6°F3.1°C 92% 10.5 mph S16.9 kmh S 16.0 mph25.7 kmh 29.84 in1010.5 mb 0.00 in0.0 mm 0.00 in0.0 mm 0.00 in0.0 mm
03:30 PM 39.7°F4.3°C 37.6°F3.1°C 92% 10.6 mph S17.1 kmh S 16.0 mph25.7 kmh 29.84 in1010.5 mb 0.00 in0.0 mm 0.00 in0.0 mm 0.00 in0.0 mm
03:31 PM 39.7°F4.3°C 37.6°F3.1°C 92% 14.1 mph S22.7 kmh S 19.0 mph30.6 kmh 29.84 in1010.5 mb 0.00 in0.0 mm 0.00 in0.0 mm 0.00 in0.0 mm
03:32 PM 39.8°F4.3°C 37.7°F3.2°C 92% 11.3 mph S18.2 kmh S 19.0 mph30.6 kmh 29.84 in1010.5 mb 0.00 in0.0 mm 0.00 in0.0 mm 0.00 in0.0 mm
03:33 PM 39.7°F4.3°C 37.6°F3.1°C 92% 13.0 mph S20.9 kmh S 16.0 mph25.7 kmh 29.84 in1010.5 mb 0.00 in0.0 mm 0.00 in0.0 mm 0.00 in0.0 mm
03:34 PM 39.8°F4.3°C 37.7°F3.2°C 92% 11.1 mph S17.9 kmh S 21.0 mph33.8 kmh 29.84 in1010.5 mb 0.00 in0.0 mm 0.00 in0.0 mm 0.00 in0.0 mm
03:35 PM 39.8°F4.3°C 37.7°F3.2°C 92% 10.3 mph S16.6 kmh S 21.0 mph33.8 kmh 29.84 in1010.5 mb 0.00 in0.0 mm 0.00 in0.0 mm 0.00 in0.0 mm
03:36 PM 39.8°F4.3°C 37.7°F3.2°C 92% 9.1 mph S14.6 kmh S 19.0 mph30.6 kmh 29.84 in1010.5 mb 0.00 in0.0 mm 0.00 in0.0 mm 0.00 in0.0 mm
03:37 PM 39.8°F4.3°C 37.7°F3.2°C 92% 11.9 mph S19.2 kmh S 16.0 mph25.7 kmh 29.84 in1010.5 mb 0.00 in0.0 mm 0.00 in0.0 mm 0.00 in0.0 mm
03:38 PM 39.9°F4.4°C 37.8°F3.2°C 92% 13.0 mph S20.9 kmh S 20.0 mph32.2 kmh 29.84 in1010.5 mb 0.00 in0.0 mm 0.00 in0.0 mm 0.00 in0.0 mm
03:39 PM 39.8°F4.3°C 37.7°F3.2°C 92% 13.5 mph S21.7 kmh S 20.0 mph32.2 kmh 29.84 in1010.5 mb 0.00 in0.0 mm 0.00 in0.0 mm 0.00 in0.0 mm
03:40 PM 39.8°F4.3°C 37.7°F3.2°C 92% 11.2 mph S18.0 kmh S 19.0 mph30.6 kmh 29.84 in1010.5 mb 0.00 in0.0 mm 0.00 in0.0 mm 0.00 in0.0 mm
03:41 PM 39.9°F4.4°C 37.8°F3.2°C 92% 12.7 mph S20.4 kmh S 18.0 mph29.0 kmh 29.83 in1010.2 mb 0.00 in0.0 mm 0.00 in0.0 mm 0.00 in0.0 mm
03:42 PM 39.9°F4.4°C 37.8°F3.2°C 92% 11.5 mph S18.5 kmh S 18.0 mph29.0 kmh 29.83 in1010.2 mb 0.00 in0.0 mm 0.00 in0.0 mm 0.00 in0.0 mm
03:43 PM 39.9°F4.4°C 37.5°F3.1°C 91% 10.2 mph S16.4 kmh S 17.0 mph27.4 kmh 29.83 in1010.2 mb 0.00 in0.0 mm 0.00 in0.0 mm 0.00 in0.0 mm
03:44 PM 39.8°F4.3°C 37.4°F3.0°C 91% 8.9 mph S14.3 kmh S 17.0 mph27.4 kmh 29.83 in1010.2 mb 0.00 in0.0 mm 0.00 in0.0 mm 0.00 in0.0 mm
03:45 PM 39.9°F4.4°C 37.5°F3.1°C 91% 12.7 mph S20.4 kmh S 19.0 mph30.6 kmh 29.83 in1010.2 mb 0.00 in0.0 mm 0.00 in0.0 mm 0.00 in0.0 mm
03:46 PM 39.9°F4.4°C 37.5°F3.1°C 91% 14.4 mph S23.2 kmh S 19.0 mph30.6 kmh 29.83 in1010.2 mb 0.00 in0.0 mm 0.00 in0.0 mm 0.00 in0.0 mm
03:47 PM 40.0°F4.4°C 37.6°F3.1°C 91% 12.7 mph S20.4 kmh S 19.0 mph30.6 kmh 29.83 in1010.2 mb 0.00 in0.0 mm 0.00 in0.0 mm 0.00 in0.0 mm
03:48 PM 40.0°F4.4°C 37.6°F3.1°C 91% 13.0 mph S20.9 kmh S 19.0 mph30.6 kmh 29.83 in1010.2 mb 0.00 in0.0 mm 0.00 in0.0 mm 0.00 in0.0 mm
03:49 PM 40.0°F4.4°C 37.6°F3.1°C 91% 13.1 mph S21.1 kmh S 18.0 mph29.0 kmh 29.83 in1010.2 mb 0.00 in0.0 mm 0.00 in0.0 mm 0.00 in0.0 mm
03:50 PM 40.0°F4.4°C 37.6°F3.1°C 91% 10.3 mph S16.6 kmh S 17.0 mph27.4 kmh 29.83 in1010.2 mb 0.00 in0.0 mm 0.00 in0.0 mm 0.00 in0.0 mm
03:51 PM 40.0°F4.4°C 37.6°F3.1°C 91% 13.3 mph S21.4 kmh S 20.0 mph32.2 kmh 29.83 in1010.2 mb 0.00 in0.0 mm 0.00 in0.0 mm 0.00 in0.0 mm
03:52 PM 40.0°F4.4°C 37.6°F3.1°C 91% 12.2 mph S19.6 kmh S 20.0 mph32.2 kmh 29.83 in1010.2 mb 0.00 in0.0 mm 0.00 in0.0 mm 0.00 in0.0 mm
03:53 PM 40.0°F4.4°C 37.6°F3.1°C 91% 11.2 mph S18.0 kmh S 18.0 mph29.0 kmh 29.83 in1010.2 mb 0.00 in0.0 mm 0.00 in0.0 mm 0.00 in0.0 mm
03:54 PM 40.0°F4.4°C 37.6°F3.1°C 91% 11.6 mph S18.7 kmh S 21.0 mph33.8 kmh 29.83 in1010.2 mb 0.00 in0.0 mm 0.00 in0.0 mm 0.00 in0.0 mm
03:55 PM 40.0°F4.4°C 37.6°F3.1°C 91% 14.1 mph S22.7 kmh S 21.0 mph33.8 kmh 29.83 in1010.2 mb 0.00 in0.0 mm 0.00 in0.0 mm 0.00 in0.0 mm
03:56 PM 40.1°F4.5°C 37.7°F3.2°C 91% 13.4 mph S21.6 kmh S 21.0 mph33.8 kmh 29.83 in1010.2 mb 0.00 in0.0 mm 0.00 in0.0 mm 0.00 in0.0 mm
03:57 PM 40.1°F4.5°C 37.7°F3.2°C 91% 9.4 mph S15.1 kmh S 18.0 mph29.0 kmh 29.83 in1010.2 mb 0.00 in0.0 mm 0.00 in0.0 mm 0.00 in0.0 mm
03:58 PM 40.1°F4.5°C 37.7°F3.2°C 91% 12.4 mph S20.0 kmh S 20.0 mph32.2 kmh 29.83 in1010.2 mb 0.00 in0.0 mm 0.00 in0.0 mm 0.00 in0.0 mm
03:59 PM 40.1°F4.5°C 37.7°F3.2°C 91% 10.9 mph S17.5 kmh S 20.0 mph32.2 kmh 29.83 in1010.2 mb 0.00 in0.0 mm 0.00 in0.0 mm 0.00 in0.0 mm
04:00 PM 40.1°F4.5°C 37.7°F3.2°C 91% 14.5 mph S23.3 kmh S 21.0 mph33.8 kmh 29.83 in1010.2 mb 0.00 in0.0 mm 0.00 in0.0 mm 0.00 in0.0 mm
04:01 PM 40.1°F4.5°C 37.7°F3.2°C 91% 11.0 mph S17.7 kmh S 21.0 mph33.8 kmh 29.83 in1010.2 mb 0.00 in0.0 mm 0.00 in0.0 mm 0.00 in0.0 mm
04:02 PM 40.0°F4.4°C 37.6°F3.1°C 91% 10.0 mph S16.1 kmh S 15.0 mph24.1 kmh 29.83 in1010.2 mb 0.00 in0.0 mm 0.00 in0.0 mm 0.00 in0.0 mm
04:03 PM 40.0°F4.4°C 37.6°F3.1°C 91% 10.5 mph S16.9 kmh S 19.0 mph30.6 kmh 29.83 in1010.2 mb 0.00 in0.0 mm 0.00 in0.0 mm 0.00 in0.0 mm
04:04 PM 40.0°F4.4°C 37.6°F3.1°C 91% 12.7 mph S20.4 kmh S 19.0 mph30.6 kmh 29.83 in1010.2 mb 0.00 in0.0 mm 0.00 in0.0 mm 0.00 in0.0 mm
04:05 PM 40.0°F4.4°C 37.6°F3.1°C 91% 10.5 mph S16.9 kmh S 16.0 mph25.7 kmh 29.83 in1010.2 mb 0.00 in0.0 mm 0.00 in0.0 mm 0.00 in0.0 mm
04:06 PM 40.0°F4.4°C 37.6°F3.1°C 91% 12.0 mph S19.3 kmh S 16.0 mph25.7 kmh 29.83 in1010.2 mb 0.00 in0.0 mm 0.00 in0.0 mm 0.00 in0.0 mm
04:07 PM 40.0°F4.4°C 37.6°F3.1°C 91% 13.6 mph S21.9 kmh S 18.0 mph29.0 kmh 29.83 in1010.2 mb 0.00 in0.0 mm 0.00 in0.0 mm 0.00 in0.0 mm
04:08 PM 40.1°F4.5°C 37.7°F3.2°C 91% 13.3 mph S21.4 kmh S 22.0 mph35.4 kmh 29.83 in1010.2 mb 0.00 in0.0 mm 0.00 in0.0 mm 0.00 in0.0 mm
04:09 PM 40.0°F4.4°C 37.3°F2.9°C 90% 13.8 mph S22.2 kmh S 22.0 mph35.4 kmh 29.83 in1010.2 mb 0.00 in0.0 mm 0.00 in0.0 mm 0.00 in0.0 mm
04:10 PM 40.1°F4.5°C 37.4°F3.0°C 90% 11.9 mph S19.2 kmh S 19.0 mph30.6 kmh 29.83 in1010.2 mb 0.00 in0.0 mm 0.00 in0.0 mm 0.00 in0.0 mm
04:11 PM 40.1°F4.5°C 37.4°F3.0°C 90% 10.3 mph S16.6 kmh S 17.0 mph27.4 kmh 29.83 in1010.2 mb 0.00 in0.0 mm 0.00 in0.0 mm 0.00 in0.0 mm
04:12 PM 40.0°F4.4°C 37.3°F2.9°C 90% 13.8 mph S22.2 kmh S 18.0 mph29.0 kmh 29.82 in1009.8 mb 0.00 in0.0 mm 0.00 in0.0 mm 0.00 in0.0 mm
04:13 PM 40.1°F4.5°C 37.4°F3.0°C 90% 12.3 mph S19.8 kmh S 20.0 mph32.2 kmh 29.82 in1009.8 mb 0.00 in0.0 mm 0.00 in0.0 mm 0.00 in0.0 mm
04:14 PM 40.1°F4.5°C 37.4°F3.0°C 90% 13.0 mph S20.9 kmh S 20.0 mph32.2 kmh 29.82 in1009.8 mb 0.00 in0.0 mm 0.00 in0.0 mm 0.00 in0.0 mm
04:15 PM 40.1°F4.5°C 37.4°F3.0°C 90% 11.1 mph S17.9 kmh S 18.0 mph29.0 kmh 29.82 in1009.8 mb 0.00 in0.0 mm 0.00 in0.0 mm 0.00 in0.0 mm
04:16 PM 40.1°F4.5°C 37.4°F3.0°C 90% 10.8 mph S17.4 kmh S 15.0 mph24.1 kmh 29.82 in1009.8 mb 0.00 in0.0 mm 0.00 in0.0 mm 0.00 in0.0 mm
04:17 PM 40.1°F4.5°C 37.4°F3.0°C 90% 10.5 mph S16.9 kmh S 15.0 mph24.1 kmh 29.82 in1009.8 mb 0.00 in0.0 mm 0.00 in0.0 mm 0.00 in0.0 mm
04:18 PM 40.1°F4.5°C 37.4°F3.0°C 90% 10.8 mph S17.4 kmh S 17.0 mph27.4 kmh 29.82 in1009.8 mb 0.00 in0.0 mm 0.00 in0.0 mm 0.00 in0.0 mm
04:19 PM 40.1°F4.5°C 37.4°F3.0°C 90% 11.2 mph S18.0 kmh S 21.0 mph33.8 kmh 29.82 in1009.8 mb 0.00 in0.0 mm 0.00 in0.0 mm 0.00 in0.0 mm
04:20 PM 40.1°F4.5°C 37.4°F3.0°C 90% 10.0 mph S16.1 kmh S 21.0 mph33.8 kmh 29.82 in1009.8 mb 0.00 in0.0 mm 0.00 in0.0 mm 0.00 in0.0 mm
04:21 PM 40.1°F4.5°C 37.4°F3.0°C 90% 10.7 mph S17.2 kmh S 17.0 mph27.4 kmh 29.82 in1009.8 mb 0.00 in0.0 mm 0.00 in0.0 mm 0.00 in0.0 mm
04:22 PM 40.2°F4.6°C 37.5°F3.1°C 90% 10.3 mph S16.6 kmh S 17.0 mph27.4 kmh 29.82 in1009.8 mb 0.00 in0.0 mm 0.00 in0.0 mm 0.00 in0.0 mm
04:23 PM 40.2°F4.6°C 37.5°F3.1°C 90% 11.2 mph S18.0 kmh S 16.0 mph25.7 kmh 29.82 in1009.8 mb 0.00 in0.0 mm 0.00 in0.0 mm 0.00 in0.0 mm
04:24 PM 40.1°F4.5°C 37.4°F3.0°C 90% 9.1 mph S14.6 kmh S 16.0 mph25.7 kmh 29.82 in1009.8 mb 0.00 in0.0 mm 0.00 in0.0 mm 0.00 in0.0 mm
04:25 PM 40.1°F4.5°C 37.4°F3.0°C 90% 10.8 mph SSE17.4 kmh SSE 15.0 mph24.1 kmh 29.82 in1009.8 mb 0.00 in0.0 mm 0.00 in0.0 mm 0.00 in0.0 mm
04:26 PM 40.2°F4.6°C 37.5°F3.1°C 90% 8.1 mph S13.0 kmh S 15.0 mph24.1 kmh 29.82 in1009.8 mb 0.00 in0.0 mm 0.00 in0.0 mm 0.00 in0.0 mm
04:27 PM 40.2°F4.6°C 37.5°F3.1°C 90% 9.7 mph S15.6 kmh S 17.0 mph27.4 kmh 29.82 in1009.8 mb 0.00 in0.0 mm 0.00 in0.0 mm 0.00 in0.0 mm
04:28 PM 40.2°F4.6°C 37.5°F3.1°C 90% 9.9 mph S15.9 kmh S 17.0 mph27.4 kmh 29.82 in1009.8 mb 0.00 in0.0 mm 0.00 in0.0 mm 0.00 in0.0 mm
04:29 PM 40.1°F4.5°C 37.4°F3.0°C 90% 12.2 mph S19.6 kmh S 18.0 mph29.0 kmh 29.81 in1009.5 mb 0.00 in0.0 mm 0.00 in0.0 mm 0.00 in0.0 mm
04:30 PM 40.1°F4.5°C 37.4°F3.0°C 90% 9.3 mph S15.0 kmh S 18.0 mph29.0 kmh 29.81 in1009.5 mb 0.00 in0.0 mm 0.00 in0.0 mm 0.00 in0.0 mm
04:31 PM 40.1°F4.5°C 37.4°F3.0°C 90% 9.8 mph S15.8 kmh S 14.0 mph22.5 kmh 29.81 in1009.5 mb 0.00 in0.0 mm 0.00 in0.0 mm 0.00 in0.0 mm
04:32 PM 40.1°F4.5°C 37.4°F3.0°C 90% 10.7 mph SSE17.2 kmh SSE 13.0 mph20.9 kmh 29.81 in1009.5 mb 0.00 in0.0 mm 0.00 in0.0 mm 0.00 in0.0 mm
04:33 PM 40.1°F4.5°C 37.4°F3.0°C 90% 11.5 mph SSE18.5 kmh SSE 16.0 mph25.7 kmh 29.81 in1009.5 mb 0.00 in0.0 mm 0.00 in0.0 mm 0.00 in0.0 mm
04:34 PM 40.1°F4.5°C 37.4°F3.0°C 90% 10.4 mph S16.7 kmh S 16.0 mph25.7 kmh 29.81 in1009.5 mb 0.00 in0.0 mm 0.00 in0.0 mm 0.00 in0.0 mm
04:35 PM 40.1°F4.5°C 37.4°F3.0°C 90% 11.7 mph S18.8 kmh S 18.0 mph29.0 kmh 29.81 in1009.5 mb 0.00 in0.0 mm 0.00 in0.0 mm 0.00 in0.0 mm
04:36 PM 40.0°F4.4°C 37.3°F2.9°C 90% 10.8 mph S17.4 kmh S 18.0 mph29.0 kmh 29.81 in1009.5 mb 0.00 in0.0 mm 0.00 in0.0 mm 0.00 in0.0 mm
04:37 PM 40.1°F4.5°C 37.4°F3.0°C 90% 11.2 mph S18.0 kmh S 18.0 mph29.0 kmh 29.81 in1009.5 mb 0.00 in0.0 mm 0.00 in0.0 mm 0.00 in0.0 mm
04:38 PM 40.0°F4.4°C 37.3°F2.9°C 90% 11.7 mph S18.8 kmh S 18.0 mph29.0 kmh 29.81 in1009.5 mb 0.00 in0.0 mm 0.00 in0.0 mm 0.00 in0.0 mm
04:39 PM 40.0°F4.4°C 37.3°F2.9°C 90% 7.8 mph S12.6 kmh S 16.0 mph25.7 kmh 29.81 in1009.5 mb 0.00 in0.0 mm 0.00 in0.0 mm 0.00 in0.0 mm
04:40 PM 40.0°F4.4°C 37.3°F2.9°C 90% 9.5 mph SSE15.3 kmh SSE 16.0 mph25.7 kmh 29.80 in1009.1 mb 0.00 in0.0 mm 0.00 in0.0 mm 0.00 in0.0 mm
04:41 PM 40.1°F4.5°C 37.4°F3.0°C 90% 13.6 mph S21.9 kmh S 20.0 mph32.2 kmh 29.80 in1009.1 mb 0.00 in0.0 mm 0.00 in0.0 mm 0.00 in0.0 mm
04:42 PM 40.0°F4.4°C 37.3°F2.9°C 90% 9.9 mph SSE15.9 kmh SSE 20.0 mph32.2 kmh 29.80 in1009.1 mb 0.00 in0.0 mm 0.00 in0.0 mm 0.00 in0.0 mm
04:43 PM 40.0°F4.4°C 37.3°F2.9°C 90% 10.0 mph S16.1 kmh S 16.0 mph25.7 kmh 29.80 in1009.1 mb 0.00 in0.0 mm 0.00 in0.0 mm 0.00 in0.0 mm
04:44 PM 40.0°F4.4°C 37.3°F2.9°C 90% 11.8 mph S19.0 kmh S 18.0 mph29.0 kmh 29.80 in1009.1 mb 0.00 in0.0 mm 0.00 in0.0 mm 0.00 in0.0 mm
04:45 PM 40.0°F4.4°C 37.3°F2.9°C 90% 9.0 mph S14.5 kmh S 18.0 mph29.0 kmh 29.80 in1009.1 mb 0.00 in0.0 mm 0.00 in0.0 mm 0.00 in0.0 mm
04:46 PM 40.0°F4.4°C 37.3°F2.9°C 90% 9.7 mph S15.6 kmh S 15.0 mph24.1 kmh 29.80 in1009.1 mb 0.00 in0.0 mm 0.00 in0.0 mm 0.00 in0.0 mm
04:47 PM 40.0°F4.4°C 37.3°F2.9°C 90% 10.8 mph S17.4 kmh S 16.0 mph25.7 kmh 29.80 in1009.1 mb 0.00 in0.0 mm 0.00 in0.0 mm 0.00 in0.0 mm
04:48 PM 40.0°F4.4°C 37.3°F2.9°C 90% 12.8 mph S20.6 kmh S 18.0 mph29.0 kmh 29.80 in1009.1 mb 0.00 in0.0 mm 0.00 in0.0 mm 0.00 in0.0 mm
04:49 PM 40.0°F4.4°C 37.3°F2.9°C 90% 11.6 mph SSE18.7 kmh SSE 18.0 mph29.0 kmh 29.80 in1009.1 mb 0.00 in0.0 mm 0.00 in0.0 mm 0.00 in0.0 mm
04:50 PM 40.0°F4.4°C 37.3°F2.9°C 90% 13.5 mph S21.7 kmh S 19.0 mph30.6 kmh 29.80 in1009.1 mb 0.00 in0.0 mm 0.00 in0.0 mm 0.00 in0.0 mm
04:51 PM 40.0°F4.4°C 37.3°F2.9°C 90% 13.9 mph S22.4 kmh S 20.0 mph32.2 kmh 29.80 in1009.1 mb 0.00 in0.0 mm 0.00 in0.0 mm 0.00 in0.0 mm
04:52 PM 40.0°F4.4°C 37.3°F2.9°C 90% 12.1 mph S19.5 kmh S 20.0 mph32.2 kmh 29.80 in1009.1 mb 0.00 in0.0 mm 0.00 in0.0 mm 0.00 in0.0 mm
04:53 PM 40.0°F4.4°C 37.3°F2.9°C 90% 13.2 mph S21.2 kmh S 22.0 mph35.4 kmh 29.80 in1009.1 mb 0.00 in0.0 mm 0.00 in0.0 mm 0.00 in0.0 mm
04:54 PM 40.0°F4.4°C 37.3°F2.9°C 90% 14.1 mph S22.7 kmh S 22.0 mph35.4 kmh 29.80 in1009.1 mb 0.00 in0.0 mm 0.00 in0.0 mm 0.00 in0.0 mm
04:55 PM 40.1°F4.5°C 37.1°F2.8°C 89% 13.7 mph S22.0 kmh S 20.0 mph32.2 kmh 29.80 in1009.1 mb 0.00 in0.0 mm 0.00 in0.0 mm 0.00 in0.0 mm
04:56 PM 40.0°F4.4°C 37.0°F2.8°C 89% 10.1 mph S16.3 kmh S 20.0 mph32.2 kmh 29.80 in1009.1 mb 0.00 in0.0 mm 0.00 in0.0 mm 0.00 in0.0 mm
04:57 PM 40.1°F4.5°C 37.1°F2.8°C 89% 12.9 mph S20.8 kmh S 18.0 mph29.0 kmh 29.80 in1009.1 mb 0.00 in0.0 mm 0.00 in0.0 mm 0.00 in0.0 mm
04:58 PM 40.1°F4.5°C 37.1°F2.8°C 89% 10.9 mph S17.5 kmh S 18.0 mph29.0 kmh 29.80 in1009.1 mb 0.00 in0.0 mm 0.00 in0.0 mm 0.00 in0.0 mm
04:59 PM 40.1°F4.5°C 37.1°F2.8°C 89% 13.7 mph S22.0 kmh S 21.0 mph33.8 kmh 29.80 in1009.1 mb 0.00 in0.0 mm 0.00 in0.0 mm 0.00 in0.0 mm
05:00 PM 40.1°F4.5°C 37.1°F2.8°C 89% 12.8 mph S20.6 kmh S 21.0 mph33.8 kmh 29.80 in1009.1 mb 0.00 in0.0 mm 0.00 in0.0 mm 0.00 in0.0 mm
05:01 PM 40.2°F4.6°C 37.2°F2.9°C 89% 11.6 mph SSE18.7 kmh SSE 20.0 mph32.2 kmh 29.80 in1009.1 mb 0.00 in0.0 mm 0.00 in0.0 mm 0.00 in0.0 mm
05:02 PM 40.2°F4.6°C 37.2°F2.9°C 89% 10.2 mph S16.4 kmh S 17.0 mph27.4 kmh 29.79 in1008.8 mb 0.00 in0.0 mm 0.00 in0.0 mm 0.00 in0.0 mm
05:03 PM 40.2°F4.6°C 37.2°F2.9°C 89% 9.8 mph S15.8 kmh S 14.0 mph22.5 kmh 29.79 in1008.8 mb 0.00 in0.0 mm 0.00 in0.0 mm 0.00 in0.0 mm
05:04 PM 40.2°F4.6°C 37.2°F2.9°C 89% 7.9 mph S12.7 kmh S 14.0 mph22.5 kmh 29.79 in1008.8 mb 0.00 in0.0 mm 0.00 in0.0 mm 0.00 in0.0 mm
05:05 PM 40.2°F4.6°C 37.2°F2.9°C 89% 10.5 mph S16.9 kmh S 15.0 mph24.1 kmh 29.79 in1008.8 mb 0.00 in0.0 mm 0.00 in0.0 mm 0.00 in0.0 mm
05:06 PM 40.2°F4.6°C 37.2°F2.9°C 89% 13.0 mph S20.9 kmh S 16.0 mph25.7 kmh 29.79 in1008.8 mb 0.00 in0.0 mm 0.00 in0.0 mm 0.00 in0.0 mm
05:07 PM 40.2°F4.6°C 37.2°F2.9°C 89% 10.0 mph S16.1 kmh S 16.0 mph25.7 kmh 29.79 in1008.8 mb 0.00 in0.0 mm 0.00 in0.0 mm 0.00 in0.0 mm
05:08 PM 40.2°F4.6°C 37.2°F2.9°C 89% 12.4 mph S20.0 kmh S 19.0 mph30.6 kmh 29.79 in1008.8 mb 0.00 in0.0 mm 0.00 in0.0 mm 0.00 in0.0 mm
05:09 PM 40.2°F4.6°C 37.2°F2.9°C 89% 11.6 mph S18.7 kmh S 19.0 mph30.6 kmh 29.79 in1008.8 mb 0.00 in0.0 mm 0.00 in0.0 mm 0.00 in0.0 mm
05:10 PM 40.2°F4.6°C 37.2°F2.9°C 89% 12.8 mph S20.6 kmh S 18.0 mph29.0 kmh 29.79 in1008.8 mb 0.00 in0.0 mm 0.00 in0.0 mm 0.00 in0.0 mm
05:11 PM 40.3°F4.6°C 37.3°F2.9°C 89% 9.3 mph S15.0 kmh S 18.0 mph29.0 kmh 29.79 in1008.8 mb 0.00 in0.0 mm 0.00 in0.0 mm 0.00 in0.0 mm
05:12 PM 40.3°F4.6°C 37.3°F2.9°C 89% 8.7 mph SSE14.0 kmh SSE 14.0 mph22.5 kmh 29.79 in1008.8 mb 0.00 in0.0 mm 0.00 in0.0 mm 0.00 in0.0 mm
05:13 PM 40.3°F4.6°C 37.3°F2.9°C 89% 11.8 mph S19.0 kmh S 18.0 mph29.0 kmh 29.79 in1008.8 mb 0.00 in0.0 mm 0.00 in0.0 mm 0.00 in0.0 mm
05:14 PM 40.3°F4.6°C 37.3°F2.9°C 89% 10.5 mph S16.9 kmh S 18.0 mph29.0 kmh 29.78 in1008.5 mb 0.00 in0.0 mm 0.00 in0.0 mm 0.00 in0.0 mm
05:15 PM 40.3°F4.6°C 37.3°F2.9°C 89% 10.8 mph S17.4 kmh S 16.0 mph25.7 kmh 29.79 in1008.8 mb 0.00 in0.0 mm 0.00 in0.0 mm 0.00 in0.0 mm
05:16 PM 40.4°F4.7°C 37.4°F3.0°C 89% 8.7 mph S14.0 kmh S 15.0 mph24.1 kmh 29.79 in1008.8 mb 0.00 in0.0 mm 0.00 in0.0 mm 0.00 in0.0 mm
05:17 PM 40.4°F4.7°C 37.4°F3.0°C 89% 11.6 mph S18.7 kmh S 16.0 mph25.7 kmh 29.78 in1008.5 mb 0.00 in0.0 mm 0.00 in0.0 mm 0.00 in0.0 mm
05:18 PM 40.4°F4.7°C 37.4°F3.0°C 89% 11.8 mph SSE19.0 kmh SSE 17.0 mph27.4 kmh 29.78 in1008.5 mb 0.00 in0.0 mm 0.00 in0.0 mm 0.00 in0.0 mm
05:19 PM 40.4°F4.7°C 37.4°F3.0°C 89% 12.8 mph S20.6 kmh S 17.0 mph27.4 kmh 29.78 in1008.5 mb 0.00 in0.0 mm 0.00 in0.0 mm 0.00 in0.0 mm
05:20 PM 40.4°F4.7°C 37.4°F3.0°C 89% 11.0 mph SSE17.7 kmh SSE 16.0 mph25.7 kmh 29.78 in1008.5 mb 0.00 in0.0 mm 0.00 in0.0 mm 0.00 in0.0 mm
05:21 PM 40.4°F4.7°C 37.4°F3.0°C 89% 13.5 mph SSE21.7 kmh SSE 21.0 mph33.8 kmh 29.78 in1008.5 mb 0.00 in0.0 mm 0.00 in0.0 mm 0.00 in0.0 mm
05:22 PM 40.4°F4.7°C 37.4°F3.0°C 89% 10.7 mph SSE17.2 kmh SSE 21.0 mph33.8 kmh 29.78 in1008.5 mb 0.00 in0.0 mm 0.00 in0.0 mm 0.00 in0.0 mm
05:23 PM 40.4°F4.7°C 37.4°F3.0°C 89% 10.8 mph S17.4 kmh S 16.0 mph25.7 kmh 29.78 in1008.5 mb 0.00 in0.0 mm 0.00 in0.0 mm 0.00 in0.0 mm
05:24 PM 40.5°F4.7°C 37.5°F3.1°C 89% 12.1 mph SSE19.5 kmh SSE 16.0 mph25.7 kmh 29.78 in1008.5 mb 0.00 in0.0 mm 0.00 in0.0 mm 0.00 in0.0 mm
05:25 PM 40.4°F4.7°C 37.4°F3.0°C 89% 9.8 mph SSE15.8 kmh SSE 18.0 mph29.0 kmh 29.78 in1008.5 mb 0.00 in0.0 mm 0.00 in0.0 mm 0.00 in0.0 mm
05:26 PM 40.4°F4.7°C 37.4°F3.0°C 89% 9.5 mph SSE15.3 kmh SSE 18.0 mph29.0 kmh 29.77 in1008.1 mb 0.00 in0.0 mm 0.00 in0.0 mm 0.00 in0.0 mm
05:27 PM 40.4°F4.7°C 37.4°F3.0°C 89% 10.9 mph S17.5 kmh S 19.0 mph30.6 kmh 29.77 in1008.1 mb 0.00 in0.0 mm 0.00 in0.0 mm 0.00 in0.0 mm
05:28 PM 40.4°F4.7°C 37.4°F3.0°C 89% 10.0 mph S16.1 kmh S 19.0 mph30.6 kmh 29.78 in1008.5 mb 0.00 in0.0 mm 0.00 in0.0 mm 0.00 in0.0 mm
05:29 PM 40.4°F4.7°C 37.4°F3.0°C 89% 9.2 mph S14.8 kmh S 15.0 mph24.1 kmh 29.77 in1008.1 mb 0.00 in0.0 mm 0.00 in0.0 mm 0.00 in0.0 mm
05:30 PM 40.5°F4.7°C 37.5°F3.1°C 89% 9.7 mph S15.6 kmh S 14.0 mph22.5 kmh 29.77 in1008.1 mb 0.00 in0.0 mm 0.00 in0.0 mm 0.00 in0.0 mm
05:31 PM 40.5°F4.7°C 37.2°F2.9°C 88% 11.9 mph S19.2 kmh S 19.0 mph30.6 kmh 29.77 in1008.1 mb 0.00 in0.0 mm 0.00 in0.0 mm 0.00 in0.0 mm
05:32 PM 40.5°F4.7°C 37.2°F2.9°C 88% 9.1 mph S14.6 kmh S 19.0 mph30.6 kmh 29.77 in1008.1 mb 0.00 in0.0 mm 0.00 in0.0 mm 0.00 in0.0 mm
05:33 PM 40.5°F4.7°C 37.2°F2.9°C 88% 9.8 mph SSE15.8 kmh SSE 15.0 mph24.1 kmh 29.77 in1008.1 mb 0.00 in0.0 mm 0.00 in0.0 mm 0.00 in0.0 mm
05:34 PM 40.5°F4.7°C 37.2°F2.9°C 88% 8.9 mph SSE14.3 kmh SSE 15.0 mph24.1 kmh 29.77 in1008.1 mb 0.00 in0.0 mm 0.00 in0.0 mm 0.00 in0.0 mm
05:35 PM 40.6°F4.8°C 37.3°F2.9°C 88% 10.5 mph S16.9 kmh S 15.0 mph24.1 kmh 29.77 in1008.1 mb 0.00 in0.0 mm 0.00 in0.0 mm 0.00 in0.0 mm
05:36 PM 40.6°F4.8°C 37.3°F2.9°C 88% 10.8 mph S17.4 kmh S 15.0 mph24.1 kmh 29.77 in1008.1 mb 0.00 in0.0 mm 0.00 in0.0 mm 0.00 in0.0 mm
05:37 PM 40.6°F4.8°C 37.3°F2.9°C 88% 9.1 mph SSE14.6 kmh SSE 17.0 mph27.4 kmh 29.77 in1008.1 mb 0.00 in0.0 mm 0.00 in0.0 mm 0.00 in0.0 mm
05:38 PM 40.6°F4.8°C 37.3°F2.9°C 88% 9.0 mph S14.5 kmh S 17.0 mph27.4 kmh 29.77 in1008.1 mb 0.00 in0.0 mm 0.00 in0.0 mm 0.00 in0.0 mm
05:39 PM 40.6°F4.8°C 37.3°F2.9°C 88% 7.9 mph S12.7 kmh S 16.0 mph25.7 kmh 29.77 in1008.1 mb 0.00 in0.0 mm 0.00 in0.0 mm 0.00 in0.0 mm
05:40 PM 40.6°F4.8°C 37.3°F2.9°C 88% 10.6 mph S17.1 kmh S 16.0 mph25.7 kmh 29.77 in1008.1 mb 0.00 in0.0 mm 0.00 in0.0 mm 0.00 in0.0 mm
05:41 PM 40.6°F4.8°C 37.3°F2.9°C 88% 11.6 mph S18.7 kmh S 18.0 mph29.0 kmh 29.76 in1007.8 mb 0.00 in0.0 mm 0.00 in0.0 mm 0.00 in0.0 mm
05:42 PM 40.6°F4.8°C 37.3°F2.9°C 88% 11.0 mph S17.7 kmh S 18.0 mph29.0 kmh 29.76 in1007.8 mb 0.00 in0.0 mm 0.00 in0.0 mm 0.00 in0.0 mm
05:43 PM 40.7°F4.8°C 37.4°F3.0°C 88% 11.5 mph S18.5 kmh S 21.0 mph33.8 kmh 29.76 in1007.8 mb 0.00 in0.0 mm 0.00 in0.0 mm 0.00 in0.0 mm
05:44 PM 40.7°F4.8°C 37.4°F3.0°C 88% 13.6 mph S21.9 kmh S 19.0 mph30.6 kmh 29.76 in1007.8 mb 0.00 in0.0 mm 0.00 in0.0 mm 0.00 in0.0 mm
05:45 PM 40.7°F4.8°C 37.4°F3.0°C 88% 13.5 mph S21.7 kmh S 19.0 mph30.6 kmh 29.76 in1007.8 mb 0.00 in0.0 mm 0.00 in0.0 mm 0.00 in0.0 mm
05:46 PM 40.8°F4.9°C 37.5°F3.1°C 88% 9.6 mph S15.4 kmh S 18.0 mph29.0 kmh 29.76 in1007.8 mb 0.00 in0.0 mm 0.00 in0.0 mm 0.00 in0.0 mm
05:47 PM 40.7°F4.8°C 37.1°F2.8°C 87% 11.7 mph S18.8 kmh S 20.0 mph32.2 kmh 29.75 in1007.5 mb 0.00 in0.0 mm 0.00 in0.0 mm 0.00 in0.0 mm
05:48 PM 40.8°F4.9°C 37.2°F2.9°C 87% 13.0 mph S20.9 kmh S 22.0 mph35.4 kmh 29.76 in1007.8 mb 0.00 in0.0 mm 0.00 in0.0 mm 0.00 in0.0 mm
05:49 PM 40.8°F4.9°C 37.2°F2.9°C 87% 10.6 mph S17.1 kmh S 22.0 mph35.4 kmh 29.75 in1007.5 mb 0.00 in0.0 mm 0.00 in0.0 mm 0.00 in0.0 mm
05:50 PM 40.9°F4.9°C 37.3°F2.9°C 87% 9.6 mph SSE15.4 kmh SSE 17.0 mph27.4 kmh 29.75 in1007.5 mb 0.00 in0.0 mm 0.00 in0.0 mm 0.00 in0.0 mm
05:51 PM 40.9°F4.9°C 37.3°F2.9°C 87% 11.0 mph S17.7 kmh S 16.0 mph25.7 kmh 29.75 in1007.5 mb 0.00 in0.0 mm 0.00 in0.0 mm 0.00 in0.0 mm
05:52 PM 40.9°F4.9°C 37.3°F2.9°C 87% 10.0 mph S16.1 kmh S 16.0 mph25.7 kmh 29.75 in1007.5 mb 0.00 in0.0 mm 0.00 in0.0 mm 0.00 in0.0 mm
05:53 PM 40.9°F4.9°C 37.3°F2.9°C 87% 10.9 mph S17.5 kmh S 17.0 mph27.4 kmh 29.75 in1007.5 mb 0.00 in0.0 mm 0.00 in0.0 mm 0.00 in0.0 mm
05:54 PM 40.8°F4.9°C 37.2°F2.9°C 87% 10.4 mph S16.7 kmh S 17.0 mph27.4 kmh 29.75 in1007.5 mb 0.00 in0.0 mm 0.00 in0.0 mm 0.00 in0.0 mm
05:55 PM 40.8°F4.9°C 37.2°F2.9°C 87% 10.5 mph S16.9 kmh S 17.0 mph27.4 kmh 29.75 in1007.5 mb 0.00 in0.0 mm 0.00 in0.0 mm 0.00 in0.0 mm
05:56 PM 40.9°F4.9°C 37.3°F2.9°C 87% 10.7 mph S17.2 kmh S 16.0 mph25.7 kmh 29.75 in1007.5 mb 0.00 in0.0 mm 0.00 in0.0 mm 0.00 in0.0 mm
05:57 PM 40.8°F4.9°C 37.2°F2.9°C 87% 14.1 mph S22.7 kmh S 23.0 mph37.0 kmh 29.75 in1007.5 mb 0.00 in0.0 mm 0.00 in0.0 mm 0.00 in0.0 mm
05:58 PM 40.9°F4.9°C 37.3°F2.9°C 87% 13.2 mph S21.2 kmh S 23.0 mph37.0 kmh 29.75 in1007.5 mb 0.00 in0.0 mm 0.00 in0.0 mm 0.00 in0.0 mm
05:59 PM 40.9°F4.9°C 37.3°F2.9°C 87% 13.5 mph S21.7 kmh S 23.0 mph37.0 kmh 29.75 in1007.5 mb 0.00 in0.0 mm 0.00 in0.0 mm 0.00 in0.0 mm
06:00 PM 40.9°F4.9°C 37.3°F2.9°C 87% 12.7 mph S20.4 kmh S 23.0 mph37.0 kmh 29.75 in1007.5 mb 0.00 in0.0 mm 0.00 in0.0 mm 0.00 in0.0 mm
06:01 PM 40.9°F4.9°C 37.3°F2.9°C 87% 11.9 mph S19.2 kmh S 19.0 mph30.6 kmh 29.75 in1007.5 mb 0.00 in0.0 mm 0.00 in0.0 mm 0.00 in0.0 mm
06:02 PM 40.9°F4.9°C 37.3°F2.9°C 87% 11.0 mph S17.7 kmh S 19.0 mph30.6 kmh 29.75 in1007.5 mb 0.00 in0.0 mm 0.00 in0.0 mm 0.00 in0.0 mm
06:03 PM 41.0°F5.0°C 37.4°F3.0°C 87% 12.0 mph S19.3 kmh S 16.0 mph25.7 kmh 29.75 in1007.5 mb 0.00 in0.0 mm 0.00 in0.0 mm 0.00 in0.0 mm
06:04 PM 41.0°F5.0°C 37.4°F3.0°C 87% 12.2 mph S19.6 kmh S 16.0 mph25.7 kmh 29.75 in1007.5 mb 0.00 in0.0 mm 0.00 in0.0 mm 0.00 in0.0 mm
06:05 PM 41.0°F5.0°C 37.4°F3.0°C 87% 10.7 mph S17.2 kmh S 17.0 mph27.4 kmh 29.75 in1007.5 mb 0.00 in0.0 mm 0.00 in0.0 mm 0.00 in0.0 mm
06:06 PM 41.0°F5.0°C 37.4°F3.0°C 87% 13.6 mph S21.9 kmh S 19.0 mph30.6 kmh 29.75 in1007.5 mb 0.00 in0.0 mm 0.00 in0.0 mm 0.00 in0.0 mm
06:07 PM 41.0°F5.0°C 37.4°F3.0°C 87% 15.0 mph S24.1 kmh S 21.0 mph33.8 kmh 29.75 in1007.5 mb 0.00 in0.0 mm 0.00 in0.0 mm 0.00 in0.0 mm
06:08 PM 41.0°F5.0°C 37.4°F3.0°C 87% 14.1 mph S22.7 kmh S 22.0 mph35.4 kmh 29.75 in1007.5 mb 0.00 in0.0 mm 0.00 in0.0 mm 0.00 in0.0 mm
06:09 PM 41.0°F5.0°C 37.4°F3.0°C 87% 14.8 mph S23.8 kmh S 22.0 mph35.4 kmh 29.75 in1007.5 mb 0.00 in0.0 mm 0.00 in0.0 mm 0.00 in0.0 mm
06:10 PM 41.0°F5.0°C 37.4°F3.0°C 87% 11.3 mph S18.2 kmh S 22.0 mph35.4 kmh 29.75 in1007.5 mb 0.00 in0.0 mm 0.00 in0.0 mm 0.00 in0.0 mm
06:11 PM 41.0°F5.0°C 37.4°F3.0°C 87% 13.5 mph S21.7 kmh S 22.0 mph35.4 kmh 29.74 in1007.1 mb 0.00 in0.0 mm 0.00 in0.0 mm 0.00 in0.0 mm
06:12 PM 41.0°F5.0°C 37.4°F3.0°C 87% 15.8 mph S25.4 kmh S 23.0 mph37.0 kmh 29.74 in1007.1 mb 0.00 in0.0 mm 0.00 in0.0 mm 0.00 in0.0 mm
06:13 PM 41.0°F5.0°C 37.4°F3.0°C 87% 14.5 mph S23.3 kmh S 23.0 mph37.0 kmh 29.74 in1007.1 mb 0.00 in0.0 mm 0.00 in0.0 mm 0.00 in0.0 mm
06:14 PM 41.0°F5.0°C 37.4°F3.0°C 87% 10.6 mph SSE17.1 kmh SSE 19.0 mph30.6 kmh 29.74 in1007.1 mb 0.00 in0.0 mm 0.00 in0.0 mm 0.00 in0.0 mm
06:15 PM 41.1°F5.1°C 37.5°F3.1°C 87% 14.2 mph S22.9 kmh S 21.0 mph33.8 kmh 29.74 in1007.1 mb 0.00 in0.0 mm 0.00 in0.0 mm 0.00 in0.0 mm
06:16 PM 41.1°F5.1°C 37.5°F3.1°C 87% 12.0 mph S19.3 kmh S 21.0 mph33.8 kmh 29.74 in1007.1 mb 0.00 in0.0 mm 0.00 in0.0 mm 0.00 in0.0 mm
06:17 PM 41.1°F5.1°C 37.5°F3.1°C 87% 10.1 mph S16.3 kmh S 21.0 mph33.8 kmh 29.74 in1007.1 mb 0.00 in0.0 mm 0.00 in0.0 mm 0.00 in0.0 mm
06:18 PM 41.1°F5.1°C 37.5°F3.1°C 87% 15.4 mph S24.8 kmh S 22.0 mph35.4 kmh 29.74 in1007.1 mb 0.00 in0.0 mm 0.00 in0.0 mm 0.00 in0.0 mm
06:19 PM 41.1°F5.1°C 37.5°F3.1°C 87% 12.2 mph S19.6 kmh S 22.0 mph35.4 kmh 29.74 in1007.1 mb 0.00 in0.0 mm 0.00 in0.0 mm 0.00 in0.0 mm
06:20 PM 41.1°F5.1°C 37.5°F3.1°C 87% 11.2 mph S18.0 kmh S 19.0 mph30.6 kmh 29.74 in1007.1 mb 0.00 in0.0 mm 0.00 in0.0 mm 0.00 in0.0 mm
06:21 PM 41.1°F5.1°C 37.5°F3.1°C 87% 15.8 mph S25.4 kmh S 20.0 mph32.2 kmh 29.73 in1006.8 mb 0.00 in0.0 mm 0.00 in0.0 mm 0.00 in0.0 mm
06:22 PM 41.2°F5.1°C 37.6°F3.1°C 87% 18.9 mph S30.4 kmh S 26.0 mph41.8 kmh 29.73 in1006.8 mb 0.00 in0.0 mm 0.00 in0.0 mm 0.00 in0.0 mm
06:23 PM 41.2°F5.1°C 37.6°F3.1°C 87% 13.8 mph S22.2 kmh S 26.0 mph41.8 kmh 29.73 in1006.8 mb 0.00 in0.0 mm 0.00 in0.0 mm 0.00 in0.0 mm
06:24 PM 41.2°F5.1°C 37.6°F3.1°C 87% 12.5 mph S20.1 kmh S 21.0 mph33.8 kmh 29.73 in1006.8 mb 0.00 in0.0 mm 0.00 in0.0 mm 0.00 in0.0 mm
06:25 PM 41.3°F5.2°C 37.7°F3.2°C 87% 11.5 mph S18.5 kmh S 20.0 mph32.2 kmh 29.73 in1006.8 mb 0.00 in0.0 mm 0.00 in0.0 mm 0.00 in0.0 mm
06:26 PM 41.3°F5.2°C 37.7°F3.2°C 87% 15.4 mph S24.8 kmh S 23.0 mph37.0 kmh 29.73 in1006.8 mb 0.00 in0.0 mm 0.00 in0.0 mm 0.00 in0.0 mm
06:27 PM 41.2°F5.1°C 37.6°F3.1°C 87% 11.6 mph S18.7 kmh S 23.0 mph37.0 kmh 29.73 in1006.8 mb 0.00 in0.0 mm 0.00 in0.0 mm 0.00 in0.0 mm
06:28 PM 41.2°F5.1°C 37.6°F3.1°C 87% 12.8 mph S20.6 kmh S 22.0 mph35.4 kmh 29.73 in1006.8 mb 0.00 in0.0 mm 0.00 in0.0 mm 0.00 in0.0 mm
06:29 PM 41.2°F5.1°C 37.6°F3.1°C 87% 11.4 mph S18.3 kmh S 15.0 mph24.1 kmh 29.73 in1006.8 mb 0.00 in0.0 mm 0.00 in0.0 mm 0.00 in0.0 mm
06:30 PM 41.2°F5.1°C 37.6°F3.1°C 87% 10.8 mph S17.4 kmh S 19.0 mph30.6 kmh 29.73 in1006.8 mb 0.00 in0.0 mm 0.00 in0.0 mm 0.00 in0.0 mm
06:31 PM 41.1°F5.1°C 37.5°F3.1°C 87% 12.6 mph S20.3 kmh S 23.0 mph37.0 kmh 29.73 in1006.8 mb 0.00 in0.0 mm 0.00 in0.0 mm 0.00 in0.0 mm
06:32 PM 41.1°F5.1°C 37.5°F3.1°C 87% 13.6 mph S21.9 kmh S 23.0 mph37.0 kmh 29.73 in1006.8 mb 0.00 in0.0 mm 0.00 in0.0 mm 0.00 in0.0 mm
06:33 PM 41.2°F5.1°C 37.9°F3.3°C 88% 12.0 mph S19.3 kmh S 21.0 mph33.8 kmh 29.73 in1006.8 mb 0.00 in0.0 mm 0.00 in0.0 mm 0.00 in0.0 mm
06:34 PM 41.2°F5.1°C 37.9°F3.3°C 88% 16.9 mph S27.2 kmh S 25.0 mph40.2 kmh 29.72 in1006.4 mb 0.00 in0.0 mm 0.00 in0.0 mm 0.00 in0.0 mm
06:35 PM 41.2°F5.1°C 37.6°F3.1°C 87% 13.0 mph S20.9 kmh S 25.0 mph40.2 kmh 29.73 in1006.8 mb 0.00 in0.0 mm 0.00 in0.0 mm 0.00 in0.0 mm
06:36 PM 41.1°F5.1°C 37.5°F3.1°C 87% 13.2 mph S21.2 kmh S 20.0 mph32.2 kmh 29.73 in1006.8 mb 0.00 in0.0 mm 0.00 in0.0 mm 0.00 in0.0 mm
06:37 PM 41.2°F5.1°C 37.6°F3.1°C 87% 11.3 mph S18.2 kmh S 18.0 mph29.0 kmh 29.73 in1006.8 mb 0.00 in0.0 mm 0.00 in0.0 mm 0.00 in0.0 mm
06:38 PM 41.2°F5.1°C 37.9°F3.3°C 88% 16.7 mph S26.9 kmh S 25.0 mph40.2 kmh 29.73 in1006.8 mb 0.00 in0.0 mm 0.00 in0.0 mm 0.00 in0.0 mm
06:39 PM 41.1°F5.1°C 37.8°F3.2°C 88% 17.6 mph S28.3 kmh S 25.0 mph40.2 kmh 29.72 in1006.4 mb 0.00 in0.0 mm 0.00 in0.0 mm 0.00 in0.0 mm
06:40 PM 41.2°F5.1°C 37.9°F3.3°C 88% 11.5 mph S18.5 kmh S 24.0 mph38.6 kmh 29.72 in1006.4 mb 0.00 in0.0 mm 0.00 in0.0 mm 0.00 in0.0 mm
06:41 PM 41.2°F5.1°C 37.9°F3.3°C 88% 14.3 mph S23.0 kmh S 21.0 mph33.8 kmh 29.72 in1006.4 mb 0.00 in0.0 mm 0.00 in0.0 mm 0.00 in0.0 mm
06:42 PM 41.2°F5.1°C 37.9°F3.3°C 88% 13.9 mph S22.4 kmh S 21.0 mph33.8 kmh 29.72 in1006.4 mb 0.00 in0.0 mm 0.00 in0.0 mm 0.00 in0.0 mm
06:43 PM 41.2°F5.1°C 37.9°F3.3°C 88% 15.2 mph S24.5 kmh S 24.0 mph38.6 kmh 29.72 in1006.4 mb 0.00 in0.0 mm 0.00 in0.0 mm 0.00 in0.0 mm
06:44 PM 41.2°F5.1°C 37.9°F3.3°C 88% 14.3 mph S23.0 kmh S 24.0 mph38.6 kmh 29.72 in1006.4 mb 0.00 in0.0 mm 0.00 in0.0 mm 0.00 in0.0 mm
06:45 PM 41.1°F5.1°C 37.8°F3.2°C 88% 12.5 mph S20.1 kmh S 22.0 mph35.4 kmh 29.72 in1006.4 mb 0.00 in0.0 mm 0.00 in0.0 mm 0.00 in0.0 mm
06:46 PM 41.1°F5.1°C 37.8°F3.2°C 88% 13.4 mph S21.6 kmh S 22.0 mph35.4 kmh 29.72 in1006.4 mb 0.00 in0.0 mm 0.00 in0.0 mm 0.00 in0.0 mm
06:47 PM 41.1°F5.1°C 37.8°F3.2°C 88% 13.4 mph S21.6 kmh S 22.0 mph35.4 kmh 29.72 in1006.4 mb 0.00 in0.0 mm 0.00 in0.0 mm 0.00 in0.0 mm
06:48 PM 41.1°F5.1°C 37.8°F3.2°C 88% 15.8 mph S25.4 kmh S 23.0 mph37.0 kmh 29.72 in1006.4 mb 0.00 in0.0 mm 0.00 in0.0 mm 0.00 in0.0 mm
06:49 PM 41.1°F5.1°C 37.8°F3.2°C 88% 13.8 mph S22.2 kmh S 23.0 mph37.0 kmh 29.72 in1006.4 mb 0.00 in0.0 mm 0.00 in0.0 mm 0.00 in0.0 mm
06:50 PM 41.1°F5.1°C 38.1°F3.4°C 89% 13.9 mph S22.4 kmh S 20.0 mph32.2 kmh 29.72 in1006.4 mb 0.00 in0.0 mm 0.00 in0.0 mm 0.00 in0.0 mm
06:51 PM 41.1°F5.1°C 38.1°F3.4°C 89% 16.5 mph S26.6 kmh S 22.0 mph35.4 kmh 29.72 in1006.4 mb 0.00 in0.0 mm 0.00 in0.0 mm 0.00 in0.0 mm
06:52 PM 41.1°F5.1°C 38.1°F3.4°C 89% 14.6 mph S23.5 kmh S 24.0 mph38.6 kmh 29.72 in1006.4 mb 0.00 in0.0 mm 0.00 in0.0 mm 0.00 in0.0 mm
06:53 PM 41.1°F5.1°C 38.1°F3.4°C 89% 17.6 mph S28.3 kmh S 25.0 mph40.2 kmh 29.72 in1006.4 mb 0.00 in0.0 mm 0.00 in0.0 mm 0.00 in0.0 mm
06:54 PM 41.1°F5.1°C 38.1°F3.4°C 89% 15.5 mph S24.9 kmh S 25.0 mph40.2 kmh 29.72 in1006.4 mb 0.00 in0.0 mm 0.00 in0.0 mm 0.00 in0.0 mm
06:55 PM 41.0°F5.0°C 38.0°F3.3°C 89% 15.0 mph S24.1 kmh S 22.0 mph35.4 kmh 29.72 in1006.4 mb 0.00 in0.0 mm 0.00 in0.0 mm 0.00 in0.0 mm
06:56 PM 41.1°F5.1°C 38.1°F3.4°C 89% 11.6 mph S18.7 kmh S 22.0 mph35.4 kmh 29.72 in1006.4 mb 0.00 in0.0 mm 0.00 in0.0 mm 0.00 in0.0 mm
06:57 PM 41.0°F5.0°C 38.0°F3.3°C 89% 15.1 mph S24.3 kmh S 21.0 mph33.8 kmh 29.72 in1006.4 mb 0.01 in0.3 mm 0.60 in15.2 mm 0.01 in0.3 mm
06:58 PM 41.0°F5.0°C 38.3°F3.5°C 90% 15.2 mph S24.5 kmh S 22.0 mph35.4 kmh 29.71 in1006.1 mb 0.02 in0.5 mm 0.60 in15.2 mm 0.02 in0.5 mm
06:59 PM 41.0°F5.0°C 38.3°F3.5°C 90% 11.4 mph S18.3 kmh S 22.0 mph35.4 kmh 29.71 in1006.1 mb 0.02 in0.5 mm 0.00 in0.0 mm 0.02 in0.5 mm
07:00 PM 40.9°F4.9°C 38.2°F3.4°C 90% 12.4 mph S20.0 kmh S 17.0 mph27.4 kmh 29.71 in1006.1 mb 0.02 in0.5 mm 0.00 in0.0 mm 0.02 in0.5 mm
07:01 PM 40.9°F4.9°C 38.2°F3.4°C 90% 12.3 mph S19.8 kmh S 20.0 mph32.2 kmh 29.71 in1006.1 mb 0.02 in0.5 mm 0.00 in0.0 mm 0.02 in0.5 mm
07:02 PM 40.9°F4.9°C 38.2°F3.4°C 90% 14.9 mph S24.0 kmh S 21.0 mph33.8 kmh 29.71 in1006.1 mb 0.02 in0.5 mm 0.00 in0.0 mm 0.02 in0.5 mm
07:03 PM 40.8°F4.9°C 38.1°F3.4°C 90% 12.4 mph S20.0 kmh S 21.0 mph33.8 kmh 29.71 in1006.1 mb 0.02 in0.5 mm 0.00 in0.0 mm 0.02 in0.5 mm
07:04 PM 40.8°F4.9°C 38.1°F3.4°C 90% 15.3 mph S24.6 kmh S 19.0 mph30.6 kmh 29.71 in1006.1 mb 0.03 in0.8 mm 0.60 in15.2 mm 0.03 in0.8 mm
07:05 PM 40.8°F4.9°C 38.1°F3.4°C 90% 12.7 mph S20.4 kmh S 20.0 mph32.2 kmh 29.71 in1006.1 mb 0.03 in0.8 mm 0.00 in0.0 mm 0.03 in0.8 mm
07:06 PM 40.8°F4.9°C 38.4°F3.6°C 91% 13.3 mph S21.4 kmh S 20.0 mph32.2 kmh 29.70 in1005.8 mb 0.04 in1.0 mm 0.60 in15.2 mm 0.04 in1.0 mm
07:07 PM 40.8°F4.9°C 38.4°F3.6°C 91% 14.5 mph S23.3 kmh S 22.0 mph35.4 kmh 29.70 in1005.8 mb 0.04 in1.0 mm 0.00 in0.0 mm 0.04 in1.0 mm
07:08 PM 40.7°F4.8°C 38.3°F3.5°C 91% 15.1 mph S24.3 kmh S 22.0 mph35.4 kmh 29.70 in1005.8 mb 0.05 in1.3 mm 0.60 in15.2 mm 0.05 in1.3 mm
07:09 PM 40.7°F4.8°C 38.3°F3.5°C 91% 14.5 mph S23.3 kmh S 23.0 mph37.0 kmh 29.70 in1005.8 mb 0.06 in1.5 mm 0.60 in15.2 mm 0.06 in1.5 mm
07:10 PM 40.7°F4.8°C 38.3°F3.5°C 91% 15.6 mph S25.1 kmh S 24.0 mph38.6 kmh 29.70 in1005.8 mb 0.06 in1.5 mm 0.00 in0.0 mm 0.06 in1.5 mm
07:11 PM 40.7°F4.8°C 38.3°F3.5°C 91% 15.7 mph S25.3 kmh S 24.0 mph38.6 kmh 29.70 in1005.8 mb 0.06 in1.5 mm 0.00 in0.0 mm 0.06 in1.5 mm
07:12 PM 40.7°F4.8°C 38.3°F3.5°C 91% 17.2 mph S27.7 kmh S 26.0 mph41.8 kmh 29.70 in1005.8 mb 0.07 in1.8 mm 0.60 in15.2 mm 0.07 in1.8 mm
07:13 PM 40.7°F4.8°C 38.3°F3.5°C 91% 13.0 mph S20.9 kmh S 26.0 mph41.8 kmh 29.70 in1005.8 mb 0.07 in1.8 mm 0.00 in0.0 mm 0.07 in1.8 mm
07:14 PM 40.7°F4.8°C 38.3°F3.5°C 91% 14.1 mph S22.7 kmh S 21.0 mph33.8 kmh 29.70 in1005.8 mb 0.08 in2.0 mm 0.60 in15.2 mm 0.08 in2.0 mm
07:15 PM 40.7°F4.8°C 38.3°F3.5°C 91% 14.2 mph S22.9 kmh S 21.0 mph33.8 kmh 29.70 in1005.8 mb 0.08 in2.0 mm 0.00 in0.0 mm 0.08 in2.0 mm
07:16 PM 40.7°F4.8°C 38.3°F3.5°C 91% 15.1 mph S24.3 kmh S 22.0 mph35.4 kmh 29.70 in1005.8 mb 0.09 in2.3 mm 0.60 in15.2 mm 0.09 in2.3 mm
07:17 PM 40.7°F4.8°C 38.3°F3.5°C 91% 12.5 mph S20.1 kmh S 22.0 mph35.4 kmh 29.70 in1005.8 mb 0.09 in2.3 mm 0.00 in0.0 mm 0.09 in2.3 mm
07:18 PM 40.7°F4.8°C 38.3°F3.5°C 91% 10.9 mph S17.5 kmh S 19.0 mph30.6 kmh 29.70 in1005.8 mb 0.09 in2.3 mm 0.00 in0.0 mm 0.09 in2.3 mm
07:19 PM 40.7°F4.8°C 38.3°F3.5°C 91% 10.9 mph S17.5 kmh S 18.0 mph29.0 kmh 29.70 in1005.8 mb 0.09 in2.3 mm 0.00 in0.0 mm 0.09 in2.3 mm
07:20 PM 40.7°F4.8°C 38.3°F3.5°C 91% 14.0 mph S22.5 kmh S 21.0 mph33.8 kmh 29.70 in1005.8 mb 0.09 in2.3 mm 0.00 in0.0 mm 0.09 in2.3 mm
07:21 PM 40.7°F4.8°C 38.6°F3.7°C 92% 11.8 mph S19.0 kmh S 21.0 mph33.8 kmh 29.70 in1005.8 mb 0.09 in2.3 mm 0.00 in0.0 mm 0.09 in2.3 mm
07:22 PM 40.7°F4.8°C 38.6°F3.7°C 92% 14.8 mph S23.8 kmh S 23.0 mph37.0 kmh 29.70 in1005.8 mb 0.09 in2.3 mm 0.00 in0.0 mm 0.09 in2.3 mm
07:23 PM 40.7°F4.8°C 38.6°F3.7°C 92% 18.6 mph S29.9 kmh S 27.0 mph43.5 kmh 29.70 in1005.8 mb 0.10 in2.5 mm 0.60 in15.2 mm 0.10 in2.5 mm
07:24 PM 40.8°F4.9°C 38.7°F3.7°C 92% 15.2 mph S24.5 kmh S 27.0 mph43.5 kmh 29.69 in1005.4 mb 0.10 in2.5 mm 0.00 in0.0 mm 0.10 in2.5 mm
07:25 PM 40.8°F4.9°C 38.7°F3.7°C 92% 16.3 mph S26.2 kmh S 24.0 mph38.6 kmh 29.69 in1005.4 mb 0.10 in2.5 mm 0.00 in0.0 mm 0.10 in2.5 mm
07:26 PM 40.8°F4.9°C 38.7°F3.7°C 92% 16.8 mph S27.0 kmh S 24.0 mph38.6 kmh 29.69 in1005.4 mb 0.11 in2.8 mm 0.60 in15.2 mm 0.11 in2.8 mm
07:27 PM 40.8°F4.9°C 38.7°F3.7°C 92% 11.2 mph S18.0 kmh S 24.0 mph38.6 kmh 29.69 in1005.4 mb 0.11 in2.8 mm 0.00 in0.0 mm 0.11 in2.8 mm
07:28 PM 40.8°F4.9°C 38.7°F3.7°C 92% 13.7 mph S22.0 kmh S 18.0 mph29.0 kmh 29.69 in1005.4 mb 0.11 in2.8 mm 0.00 in0.0 mm 0.11 in2.8 mm
07:29 PM 40.8°F4.9°C 38.7°F3.7°C 92% 11.2 mph S18.0 kmh S 18.0 mph29.0 kmh 29.70 in1005.8 mb 0.11 in2.8 mm 0.00 in0.0 mm 0.11 in2.8 mm
07:30 PM 40.8°F4.9°C 38.7°F3.7°C 92% 14.4 mph S23.2 kmh S 20.0 mph32.2 kmh 29.70 in1005.8 mb 0.11 in2.8 mm 0.00 in0.0 mm 0.11 in2.8 mm
07:31 PM 40.8°F4.9°C 38.7°F3.7°C 92% 11.8 mph S19.0 kmh S 21.0 mph33.8 kmh 29.69 in1005.4 mb 0.11 in2.8 mm 0.00 in0.0 mm 0.11 in2.8 mm
07:32 PM 40.9°F4.9°C 38.8°F3.8°C 92% 12.8 mph S20.6 kmh S 21.0 mph33.8 kmh 29.69 in1005.4 mb 0.11 in2.8 mm 0.00 in0.0 mm 0.11 in2.8 mm
07:33 PM 40.9°F4.9°C 38.8°F3.8°C 92% 15.9 mph S25.6 kmh S 21.0 mph33.8 kmh 29.69 in1005.4 mb 0.11 in2.8 mm 0.00 in0.0 mm 0.11 in2.8 mm
07:34 PM 40.8°F4.9°C 38.7°F3.7°C 92% 13.5 mph S21.7 kmh S 24.0 mph38.6 kmh